Provisional Data: Little Clearfield Creek near Dimeling, PA


Please select a monitoring station.
Please select start date.
Please select start date.

</
Toggle Unit: C/F Toggle Unit: C/F
Sample Time Temperature (C) Temperature (F) Specific Conductivity (mS/cm) pH   Turbidity (NTU+) DO (mg/L)
6/22/2021 12:00:00 AM 20.64 69.152 0.16 7.81 8.43 8.58
6/22/2021 12:15:00 AM 20.59 69.062 0.16 7.8 8.02 8.55
6/22/2021 12:30:00 AM 20.53 68.954 0.16 7.81 7.94 8.62
6/22/2021 12:45:00 AM 20.46 68.828 0.16 7.81 8.17 8.61
6/22/2021 1:00:00 AM 20.41 68.738 0.16 7.81 7.9 8.62
6/22/2021 1:15:00 AM 20.36 68.648 0.16 7.81 7.99 8.63
6/22/2021 1:30:00 AM 20.3 68.54 0.16 7.81 7.33 8.63
6/22/2021 1:45:00 AM 20.25 68.45 0.161 7.81 7.52 8.65
6/22/2021 2:00:00 AM 20.2 68.36 0.161 7.81 7.48 8.66
6/22/2021 2:15:00 AM 20.14 68.252 0.161 7.82 8.13 8.68
6/22/2021 2:30:00 AM 20.09 68.162 0.162 7.81 7.72 8.68
6/22/2021 2:45:00 AM 20.05 68.09 0.162 7.81 7.54 8.67
6/22/2021 3:00:00 AM 19.99 67.982 0.162 7.81 7.2 8.71
6/22/2021 3:15:00 AM 19.94 67.892 0.162 7.81 8.54 8.72
6/22/2021 3:30:00 AM 19.88 67.784 0.162 7.82 7.8 8.75
6/22/2021 3:45:00 AM 19.84 67.712 0.162 7.82 10.25 8.77
6/22/2021 4:00:00 AM 19.79 67.622 0.162 7.82 7.63 8.79
6/22/2021 4:15:00 AM 19.74 67.532 0.162 7.82 7.5 8.81
6/22/2021 4:30:00 AM 19.69 67.442 0.162 7.82 8.55 8.77
6/22/2021 4:45:00 AM 19.64 67.352 0.162 7.82 7.35 8.81
6/22/2021 5:00:00 AM 19.59 67.262 0.161 7.82 7.26 8.82
6/22/2021 5:15:00 AM 19.53 67.154 0.161 7.83 7.19 8.83
6/22/2021 5:30:00 AM 19.47 67.046 0.161 7.83 7.98 8.86
6/22/2021 5:45:00 AM 19.4 66.92 0.161 7.82 7.47 8.86
6/22/2021 6:00:00 AM 19.35 66.83 0.161 7.83 8.44 8.88
6/22/2021 6:15:00 AM 19.29 66.722 0.161 7.83 8.83 8.9
6/22/2021 6:30:00 AM 19.23 66.614 0.161 7.83 7.34 8.89
6/22/2021 6:45:00 AM 19.16 66.488 0.16 7.84 10.03 8.95
6/22/2021 7:00:00 AM 19.1 66.38 0.16 7.84 7.23 8.95
6/22/2021 7:15:00 AM 19.04 66.272 0.16 7.85 12.35 9
6/22/2021 7:30:00 AM 18.97 66.146 0.16 7.86 6.79 9.05
6/22/2021 7:45:00 AM 18.93 66.074 0.16 7.85 6.89 9.06
6/22/2021 8:00:00 AM 18.86 65.948 0.16 7.86 6.48 9.1
6/22/2021 8:15:00 AM 18.82 65.876 0.16 7.87 6.7 9.15
6/22/2021 8:30:00 AM 18.79 65.82201 0.16 7.87 7.5 9.2
6/22/2021 8:45:00 AM 18.75 65.75 0.159 7.88 6.41 9.25
6/22/2021 9:00:00 AM 18.7 65.66 0.159 7.89 6.33 9.27
6/22/2021 9:15:00 AM 18.7 65.66 0.159 7.9 6.06 9.33
6/22/2021 9:30:00 AM 18.73 65.714 0.159 7.92 5.81 9.49
6/22/2021 9:45:00 AM 18.71 65.67799 0.159 7.93 6.76 9.52
6/22/2021 10:00:00 AM 18.69 65.642 0.159 7.94 6.68 9.55
6/22/2021 10:15:00 AM 18.71 65.67799 0.159 7.97 6.12 9.67
6/22/2021 10:30:00 AM 18.72 65.696 0.159 7.98 6.17 9.72
6/22/2021 10:45:00 AM 18.71 65.67799 0.159 8 5.96 9.77
6/22/2021 11:00:00 AM 18.67 65.606 0.159 8 6.19 9.77
6/22/2021 11:15:00 AM 18.61 65.498 0.159 8 5.68 9.73
6/22/2021 11:30:00 AM 18.57 65.426 0.159 8 5.93 9.73
6/22/2021 11:45:00 AM 18.54 65.372 0.159 8 5.68 9.74
6/22/2021 12:00:00 PM 18.51 65.318 0.159 8.01 5.74 9.79
6/22/2021 12:15:00 PM 18.45 65.21 0.159 8.02 5.74 9.79
6/22/2021 12:30:00 PM 18.43 65.174 0.159 8.02 6.16 9.81
6/22/2021 12:45:00 PM 18.47 65.246 0.159 8.04 5.74 9.89
6/22/2021 1:00:00 PM 18.46 65.228 0.159 8.06 5.51 9.96
6/22/2021 1:15:00 PM 18.41 65.138 0.159 8.06 5.51 9.95
6/22/2021 1:30:00 PM 18.41 65.138 0.159 8.07 5.52 9.98
6/22/2021 1:45:00 PM 18.42 65.156 0.159 8.08 5.23 10.03
6/22/2021 2:00:00 PM 18.41 65.138 0.16 8.09 5.34 10.06
6/22/2021 2:15:00 PM 18.42 65.156 0.16 8.09 5.39 10.08
6/22/2021 2:30:00 PM 18.52 65.336 0.16 8.11 5.23 10.12
6/22/2021 2:45:00 PM 18.51 65.318 0.16 8.12 6.21 10.15
6/22/2021 3:00:00 PM 18.68 65.624 0.16 8.12 5.32 10.15
6/22/2021 3:15:00 PM 18.76 65.768 0.16 8.14 5.39 10.22
6/22/2021 3:30:00 PM 18.88 65.984 0.16 8.15 5.11 10.21
6/22/2021 3:45:00 PM 18.95 66.11 0.16 8.16 5.12 10.18
6/22/2021 4:00:00 PM 19.27 66.686 0.16 8.16 5.12 10.18
6/22/2021 4:15:00 PM 19.46 67.028 0.16 8.18 5.31 10.21
6/22/2021 4:30:00 PM 19.47 67.046 0.16 8.19 4.95 10.18
6/22/2021 4:45:00 PM 19.45 67.01 0.16 8.18 4.77 10.14
6/22/2021 5:00:00 PM 19.34 66.812 0.16 8.19 4.72 10.07
6/22/2021 5:15:00 PM 19.17 66.506 0.16 8.18 4.8 10.05
6/22/2021 5:30:00 PM 19.05 66.29 0.16 8.17 5.02 10
6/22/2021 5:45:00 PM 19 66.2 0.161 8.17 5.7 10.01
6/22/2021 6:00:00 PM 18.97 66.146 0.161 8.16 4.98 9.99
6/22/2021 6:15:00 PM 18.9 66.02 0.161 8.16 4.47 9.97
6/22/2021 6:30:00 PM 18.8 65.84 0.161 8.15 4.64 9.88
6/22/2021 6:45:00 PM 18.73 65.714 0.161 8.14 5.05 9.87
6/22/2021 7:00:00 PM 18.59 65.462 0.161 8.13 4.52 9.8
6/22/2021 7:15:00 PM 18.53 65.354 0.162 8.13 4.79 9.79
6/22/2021 7:30:00 PM 18.42 65.156 0.162 8.11 4.74 9.71
6/22/2021 7:45:00 PM 18.3 64.94 0.162 8.09 4.85 9.65
6/22/2021 8:00:00 PM 18.19 64.742 0.163 8.08 4.52 9.62
6/22/2021 8:15:00 PM 18.09 64.562 0.163 8.06 4.85 9.58
6/22/2021 8:30:00 PM 17.99 64.382 0.163 8.05 4.57 9.53
6/22/2021 8:45:00 PM 17.89 64.202 0.163 8.04 4.69 9.5
6/22/2021 9:00:00 PM 17.81 64.058 0.164 8.02 5.23 9.47
6/22/2021 9:15:00 PM 17.72 63.896 0.164 8.01 5.08 9.47
6/22/2021 9:30:00 PM 17.62 63.716 0.164 8 4.8 9.46
6/22/2021 9:45:00 PM 17.53 63.554 0.164 8 5.17 9.48
6/22/2021 10:00:00 PM 17.43 63.374 0.165 7.98 5.11 9.43
6/22/2021 10:15:00 PM 17.31 63.158 0.165 7.99 5.1 9.5
6/22/2021 10:30:00 PM 17.21 62.978 0.165 7.97 4.97 9.47
6/22/2021 10:45:00 PM 17.11 62.798 0.165 7.97 4.83 9.49
6/22/2021 11:00:00 PM 17 62.6 0.166 7.96 4.99 9.53
6/22/2021 11:15:00 PM 16.89 62.402 0.166 7.95 4.84 9.52
6/22/2021 11:30:00 PM 16.78 62.204 0.166 7.95 5.38 9.58
6/22/2021 11:45:00 PM 16.66 61.988 0.166 7.96 5.07 9.62
6/23/2021 12:00:00 AM 16.55 61.79 0.166 7.95 4.93 9.61
6/23/2021 12:15:00 AM 16.44 61.592 0.166 7.94 5.02 9.6
6/23/2021 12:30:00 AM 16.32 61.376 0.166 7.94 5.92 9.64
6/23/2021 12:45:00 AM 16.2 61.16 0.166 7.94 4.66 9.65
6/23/2021 1:00:00 AM 16.09 60.962 0.167 7.93 4.54 9.68
6/23/2021 1:15:00 AM 15.98 60.764 0.167 7.93 5.25 9.7
6/23/2021 1:30:00 AM 15.87 60.566 0.167 7.93 5.08 9.73
6/23/2021 1:45:00 AM 15.77 60.386 0.167 7.93 4.84 9.78
6/23/2021 2:00:00 AM 15.67 60.206 0.167 7.92 4.89 9.79
6/23/2021 2:15:00 AM 15.56 60.008 0.167 7.92 5.51 9.82
6/23/2021 2:30:00 AM 15.46 59.828 0.167 7.92 4.85 9.85
6/23/2021 2:45:00 AM 15.36 59.648 0.167 7.92 5.5 9.84
6/23/2021 3:00:00 AM 15.26 59.468 0.167 7.92 5.2 9.89
6/23/2021 3:15:00 AM 15.17 59.306 0.167 7.91 5.66 9.9
6/23/2021 3:30:00 AM 15.08 59.144 0.167 7.92 4.72 9.96
6/23/2021 3:45:00 AM 14.99 58.982 0.167 7.91 4.75 9.95
6/23/2021 4:00:00 AM 14.92 58.856 0.167 7.91 4.6 9.98
6/23/2021 4:15:00 AM 14.85 58.73 0.167 7.91 5.2 10.01
6/23/2021 4:30:00 AM 14.77 58.586 0.167 7.91 4.88 10.02
6/23/2021 4:45:00 AM 14.69 58.442 0.167 7.91 4.37 10.03
6/23/2021 5:00:00 AM 14.61 58.298 0.166 7.92 5.11 10.08
6/23/2021 5:15:00 AM 14.54 58.172 0.166 7.9 5.03 10.07
6/23/2021 5:30:00 AM 14.47 58.046 0.166 7.91 5.33 10.1
6/23/2021 5:45:00 AM 14.38 57.884 0.166 7.91 6.74 10.15
6/23/2021 6:00:00 AM 14.31 57.758 0.166 7.91 5.61 10.14
6/23/2021 6:15:00 AM 14.23 57.614 0.166 7.91 5.02 10.17
6/23/2021 6:30:00 AM 14.16 57.488 0.166 7.91 5.47 10.24
6/23/2021 6:45:00 AM 14.08 57.344 0.166 7.91 4.96 10.29
6/23/2021 7:00:00 AM 14.02 57.236 0.166 7.92 4.45 10.34
6/23/2021 7:15:00 AM 13.99 57.182 0.166 7.92 5.11 10.4
6/23/2021 7:30:00 AM 13.94 57.092 0.166 7.93 4.6 10.43
6/23/2021 7:45:00 AM 13.92 57.056 0.166 7.93 4.55 10.49
6/23/2021 8:00:00 AM 13.85 56.93 0.166 7.93 4.62 10.49
6/23/2021 8:15:00 AM 13.82 56.876 0.166 7.94 5.51 10.57
6/23/2021 8:30:00 AM 13.82 56.876 0.166 7.94 4.42 10.57
6/23/2021 8:45:00 AM 13.83 56.894 0.165 7.96 4.47 10.64
6/23/2021 9:00:00 AM 13.89 57.002 0.165 7.96 4.3 10.71
6/23/2021 9:15:00 AM 14.02 57.236 0.165 7.98 4.86 10.81
6/23/2021 9:30:00 AM 14.13 57.434 0.165 7.99 4.59 10.9
6/23/2021 9:45:00 AM 14.18 57.524 0.165 8 4.28 10.94
6/23/2021 10:00:00 AM 14.26 57.668 0.165 8.02 4.34 10.99
6/23/2021 10:15:00 AM 14.4 57.92 0.165 8.04 4.64 11.04
6/23/2021 10:30:00 AM 14.56 58.208 0.165 8.05 4.38 11.04
6/23/2021 10:45:00 AM 14.71 58.478 0.165 8.04 4.27 10.95
6/23/2021 11:00:00 AM 15.07 59.126 0.164 8.07 4.31 11.01
6/23/2021 11:15:00 AM 15.37 59.666 0.164 8.07 4.22 11.01
6/23/2021 11:30:00 AM 15.61 60.098 0.164 8.07 4.18 10.99
6/23/2021 11:45:00 AM 15.86 60.548 0.164 8.08 4.34 10.92
6/23/2021 12:00:00 PM 16.2 61.16 0.164 8.1 4.65 10.99
6/23/2021 12:15:00 PM 16.42 61.556 0.163 8.11 4.27 10.98
6/23/2021 12:30:00 PM 16.5 61.7 0.163 8.11 4.07 10.97
6/23/2021 12:45:00 PM 16.84 62.312 0.163 8.12 4.33 10.94
6/23/2021 1:00:00 PM 16.94 62.492 0.163 8.12 3.98 10.88
6/23/2021 1:15:00 PM 17.31 63.158 0.163 8.13 4.04 10.93
6/23/2021 1:30:00 PM 17.72 63.896 0.163 8.14 4.05 10.84
6/23/2021 1:45:00 PM 17.86 64.148 0.163 8.14 4.24 10.86
6/23/2021 2:00:00 PM 18 64.4 0.163 8.16 4.14 10.81
6/23/2021 2:15:00 PM 18.21 64.778 0.163 8.16 4.17 10.73
6/23/2021 2:30:00 PM 18.47 65.246 0.163 8.16 4.34 10.72
6/23/2021 2:45:00 PM 18.74 65.732 0.163 8.17 4.04 10.71
6/23/2021 3:00:00 PM 19.01 66.218 0.163 8.18 4.3 10.66
6/23/2021 3:15:00 PM 19.32 66.776 0.163 8.19 3.86 10.64
6/23/2021 3:30:00 PM 19.51 67.118 0.163 8.19 4.57 10.6
6/23/2021 3:45:00 PM 19.7 67.46 0.163 8.19 3.8 10.53
6/23/2021 4:00:00 PM 19.82 67.676 0.163 8.2 4.33 10.49
6/23/2021 4:15:00 PM 19.8 67.64 0.163 8.2 4.07 10.38
6/23/2021 4:30:00 PM 19.82 67.676 0.163 8.19 4.34 10.35
6/23/2021 4:45:00 PM 19.88 67.784 0.163 8.2 4.3 10.29
6/23/2021 5:00:00 PM 19.89 67.802 0.163 8.2 4.1 10.25
6/23/2021 5:15:00 PM 19.95 67.91 0.163 8.19 4 10.21
6/23/2021 5:30:00 PM 19.9 67.82 0.163 8.2 4.2 10.15
6/23/2021 5:45:00 PM 19.85 67.73 0.163 8.19 4.15 10.08
6/23/2021 6:00:00 PM 19.76 67.568 0.163 8.18 4.1 9.99
6/23/2021 6:15:00 PM 19.65 67.37 0.163 8.18 4.05 9.96
6/23/2021 6:30:00 PM 19.54 67.172 0.163 8.16 4.48 9.9
6/23/2021 6:45:00 PM 19.42 66.956 0.164 8.15 4.76 9.84
6/23/2021 7:00:00 PM 19.28 66.704 0.163 8.14 4.56 9.8
6/23/2021 7:15:00 PM 19.12 66.416 0.163 8.13 4.57 9.74
6/23/2021 7:30:00 PM 18.98 66.164 0.163 8.1 4.11 9.65
6/23/2021 7:45:00 PM 18.81 65.858 0.163 8.09 4.31 9.63
6/23/2021 8:00:00 PM 18.68 65.624 0.163 8.07 4.65 9.59
6/23/2021 8:15:00 PM 18.55 65.39 0.163 8.05 4.7 9.53
6/23/2021 8:30:00 PM 18.43 65.174 0.163 8.04 4.35 9.48
6/23/2021 8:45:00 PM 18.33 64.994 0.163 8.03 5.17 9.44
6/23/2021 9:00:00 PM 18.25 64.85 0.163 8.02 4.47 9.43
6/23/2021 9:15:00 PM 18.19 64.742 0.163 8 4.25 9.4
6/23/2021 9:30:00 PM 18.13 64.634 0.163 8 4.31 9.41
6/23/2021 9:45:00 PM 18.08 64.544 0.163 7.99 4.19 9.38
6/23/2021 10:00:00 PM 18.01 64.418 0.163 7.97 4.55 9.38
6/23/2021 10:15:00 PM 17.95 64.31 0.163 7.98 6.58 9.4
6/23/2021 10:30:00 PM 17.87 64.166 0.163 7.97 3.91 9.38
6/23/2021 10:45:00 PM 17.8 64.04 0.162 7.97 4.01 9.4
6/23/2021 11:00:00 PM 17.71 63.878 0.162 7.96 3.92 9.39
6/23/2021 11:15:00 PM 17.61 63.698 0.162 7.95 4 9.4
6/23/2021 11:30:00 PM 17.52 63.536 0.162 7.95 4.03 9.44
6/23/2021 11:45:00 PM 17.41 63.338 0.162 7.94 4.42 9.47
6/24/2021 12:00:00 AM 17.32 63.176 0.162 7.94 3.9 9.49
6/24/2021 12:15:00 AM 17.21 62.978 0.162 7.94 4.58 9.49
6/24/2021 12:30:00 AM 17.1 62.78 0.162 7.93 4.03 9.51
6/24/2021 12:45:00 AM 16.98 62.564 0.162 7.92 3.82 9.53
6/24/2021 1:00:00 AM 16.86 62.348 0.161 7.92 3.98 9.56
6/24/2021 1:15:00 AM 16.74 62.132 0.161 7.92 4.26 9.62
6/24/2021 1:30:00 AM 16.62 61.916 0.161 7.92 4.15 9.64
6/24/2021 1:45:00 AM 16.5 61.7 0.161 7.91 4.1 9.64
6/24/2021 2:00:00 AM 16.39 61.502 0.161 7.91 4.13 9.68
6/24/2021 2:15:00 AM 16.28 61.304 0.161 7.91 4.54 9.71
6/24/2021 2:30:00 AM 16.17 61.106 0.161 7.91 4.89 9.75
6/24/2021 2:45:00 AM 16.06 60.908 0.161 7.91 4.14 9.77
6/24/2021 3:00:00 AM 15.96 60.728 0.161 7.9 4.42 9.8
6/24/2021 3:15:00 AM 15.85 60.53 0.161 7.89 4.35 9.82
6/24/2021 3:30:00 AM 15.76 60.368 0.161 7.89 4.28 9.83
6/24/2021 3:45:00 AM 15.67 60.206 0.161 7.89 4.01 9.86
6/24/2021 4:00:00 AM 15.57 60.026 0.161 7.89 4.8 9.89
6/24/2021 4:15:00 AM 15.48 59.864 0.161 7.89 5.04 9.91
6/24/2021 4:30:00 AM 15.4 59.72 0.161 7.89 4.58 9.92
6/24/2021 4:45:00 AM 15.32 59.576 0.161 7.89 4.13 9.93
6/24/2021 5:00:00 AM 15.24 59.432 0.161 7.89 4.16 9.96
6/24/2021 5:15:00 AM 15.17 59.306 0.161 7.88 4.29 9.97
6/24/2021 5:30:00 AM 15.1 59.18 0.162 7.89 4.26 10
6/24/2021 5:45:00 AM 15.02 59.036 0.162 7.88 4.29 10.01
6/24/2021 6:00:00 AM 14.95 58.91 0.162 7.88 4.18 10.04
6/24/2021 6:15:00 AM 14.88 58.784 0.162 7.88 4.17 10.08
6/24/2021 6:30:00 AM 14.83 58.694 0.162 7.89 4.26 10.12
6/24/2021 6:45:00 AM 14.78 58.604 0.162 7.89 4.01 10.15
6/24/2021 7:00:00 AM 14.73 58.514 0.162 7.89 4.29 10.22
6/24/2021 7:15:00 AM 14.68 58.424 0.162 7.9 6.07 10.29
6/24/2021 7:30:00 AM 14.65 58.37 0.162 7.9 4.53 10.33
6/24/2021 7:45:00 AM 14.62 58.316 0.162 7.91 4.41 10.41
6/24/2021 8:00:00 AM 14.61 58.298 0.162 7.93 4.16 10.48
6/24/2021 8:15:00 AM 14.58 58.244 0.162 7.92 5.22 10.49
6/24/2021 8:30:00 AM 14.58 58.244 0.162 7.92 3.95 10.48
6/24/2021 8:45:00 AM 14.61 58.298 0.162 7.92 3.84 10.47
6/24/2021 9:00:00 AM 14.66 58.388 0.162 7.93 3.95 10.5
6/24/2021 9:15:00 AM 14.75 58.55 0.162 7.94 3.97 10.54
6/24/2021 9:30:00 AM 14.85 58.73 0.162 7.94 4.24 10.56
6/24/2021 9:45:00 AM 14.97 58.946 0.162 7.94 3.89 10.56
6/24/2021 10:00:00 AM 15.15 59.27 0.162 7.95 4.1 10.63
6/24/2021 10:15:00 AM 15.36 59.648 0.162 7.99 3.88 10.69
6/24/2021 10:30:00 AM 15.59 60.062 0.162 8 3.96 10.7
6/24/2021 10:45:00 AM 15.84 60.512 0.163 8.02 3.84 10.74
6/24/2021 11:00:00 AM -99999.99 -179968 -99999.99 -99999.99 -99999.99 -99999.99
6/24/2021 11:15:00 AM 16.31 61.358 0.414 7.9 4.11 10.08
6/24/2021 11:30:00 AM 16.57 61.826 0.414 7.93 4.13 10.08
6/24/2021 11:45:00 AM 16.84 62.312 0.414 7.94 4.17 10.11
6/24/2021 12:00:00 PM 17.08 62.744 0.415 7.96 3.94 10.11
6/24/2021 12:15:00 PM 17.36 63.248 0.415 7.97 4.08 10.09
6/24/2021 12:30:00 PM 17.57 63.626 0.415 7.98 3.93 10.08
6/24/2021 12:45:00 PM 17.76 63.968 0.416 7.98 4.08 10.05
6/24/2021 1:00:00 PM 18.02 64.436 0.416 8.01 3.98 10.04
6/24/2021 1:15:00 PM 18.34 65.012 0.417 8.02 4 10.02
6/24/2021 1:30:00 PM 18.59 65.462 0.417 8.02 3.86 10
6/24/2021 1:45:00 PM 18.93 66.074 0.418 8.03 3.94 9.99
6/24/2021 2:00:00 PM 19.15 66.47 0.418 8.04 3.68 9.96
6/24/2021 2:15:00 PM 19.41 66.938 0.418 8.06 3.66 9.93
6/24/2021 2:30:00 PM 19.65 67.37 0.419 8.07 3.78 9.89
6/24/2021 2:45:00 PM 20.04 68.07201 0.419 8.08 3.68 9.89
6/24/2021 3:00:00 PM 20.19 68.342 0.419 8.09 3.8 9.82
6/24/2021 3:15:00 PM 20.38 68.684 0.42 8.08 3.61 9.78
6/24/2021 3:30:00 PM 20.58 69.044 0.42 8.1 4.19 9.76
6/24/2021 3:45:00 PM 20.73 69.314 0.42 8.1 3.67 9.72
6/24/2021 4:00:00 PM 20.84 69.512 0.42 8.11 3.72 9.64
6/24/2021 4:15:00 PM 20.93 69.674 0.421 8.12 3.59 9.59
6/24/2021 4:30:00 PM 20.93 69.674 0.421 8.12 3.55 9.54
6/24/2021 4:45:00 PM 20.99 69.782 0.421 8.12 3.56 9.47
6/24/2021 5:00:00 PM 21.03 69.854 0.421 8.12 3.67 9.42
6/24/2021 5:15:00 PM 21.03 69.854 0.421 8.12 3.74 9.36
6/24/2021 5:30:00 PM 20.97 69.746 0.422 8.12 3.58 9.3
6/24/2021 5:45:00 PM 20.91 69.638 0.422 8.11 3.43 9.22
6/24/2021 6:00:00 PM 20.8 69.44 0.422 8.1 3.59 9.17
6/24/2021 6:15:00 PM 20.71 69.278 0.423 8.09 3.56 9.09
6/24/2021 6:30:00 PM 20.63 69.134 0.423 8.07 3.67 9.08
6/24/2021 6:45:00 PM 20.46 68.828 0.423 8.08 3.79 9.02
6/24/2021 7:00:00 PM 20.33 68.594 0.423 8.06 3.69 8.97
6/24/2021 7:15:00 PM 20.19 68.342 0.424 8.05 3.59 8.92
6/24/2021 7:30:00 PM 20.07 68.126 0.424 8.03 3.68 8.86
6/24/2021 7:45:00 PM 19.92 67.856 0.424 8.02 3.85 8.81
6/24/2021 8:00:00 PM 19.8 67.64 0.425 8 4.3 8.76
6/24/2021 8:15:00 PM 19.7 67.46 0.425 7.98 4.16 8.72
6/24/2021 8:30:00 PM 19.59 67.262 0.425 7.96 3.96 8.68
6/24/2021 8:45:00 PM 19.47 67.046 0.425 7.94 3.81 8.63
6/24/2021 9:00:00 PM 19.36 66.848 0.426 7.93 3.82 8.6
6/24/2021 9:15:00 PM 19.28 66.704 0.426 7.91 4.46 8.58
6/24/2021 9:30:00 PM 19.19 66.542 0.426 7.9 4.18 8.56
6/24/2021 9:45:00 PM 19.11 66.398 0.426 7.89 3.79 8.55
6/24/2021 10:00:00 PM 19.05 66.29 0.426 7.88 4.04 8.54
6/24/2021 10:15:00 PM 18.95 66.11 0.426 7.88 4.07 8.54
6/24/2021 10:30:00 PM 18.89 66.002 0.426 7.87 4.03 8.56
6/24/2021 10:45:00 PM 18.82 65.876 0.427 7.87 3.87 8.55
6/24/2021 11:00:00 PM 18.74 65.732 0.427 7.86 4.05 8.56
6/24/2021 11:15:00 PM 18.66 65.588 0.427 7.85 4.08 8.57
6/24/2021 11:30:00 PM 18.58 65.444 0.427 7.85 3.83 8.57
6/24/2021 11:45:00 PM 18.5 65.3 0.427 7.85 4.27 8.6
6/25/2021 12:00:00 AM 18.41 65.138 0.428 7.85 3.97 8.6
6/25/2021 12:15:00 AM 18.31 64.958 0.428 7.84 3.99 8.63
6/25/2021 12:30:00 AM 18.22 64.796 0.428 7.84 4.19 8.66
6/25/2021 12:45:00 AM 18.11 64.598 0.428 7.84 4.13 8.67
6/25/2021 1:00:00 AM 18.02 64.436 0.428 7.83 4.16 8.68
6/25/2021 1:15:00 AM 17.9 64.22 0.428 7.83 4.02 8.72
6/25/2021 1:30:00 AM 17.79 64.022 0.428 7.83 4.41 8.74
6/25/2021 1:45:00 AM 17.68 63.824 0.429 7.83 4.08 8.75
6/25/2021 2:00:00 AM 17.56 63.608 0.429 7.82 4.13 8.79
6/25/2021 2:15:00 AM 17.44 63.392 0.429 7.82 4.28 8.81
6/25/2021 2:30:00 AM 17.33 63.194 0.429 7.82 4.35 8.84
6/25/2021 2:45:00 AM 17.22 62.996 0.429 7.82 4.33 8.83
6/25/2021 3:00:00 AM 17.11 62.798 0.43 7.81 4.05 8.86
6/25/2021 3:15:00 AM 17 62.6 0.43 7.81 4.92 8.86
6/25/2021 3:30:00 AM 16.89 62.402 0.43 7.81 4.34 8.93
6/25/2021 3:45:00 AM 16.78 62.204 0.43 7.81 4.09 8.93
6/25/2021 4:00:00 AM 16.68 62.024 0.43 7.81 4.27 8.98
6/25/2021 4:15:00 AM 16.59 61.862 0.431 7.81 4.39 8.99
6/25/2021 4:30:00 AM 16.49 61.682 0.431 7.8 4.31 9.02
6/25/2021 4:45:00 AM 16.4 61.52 0.431 7.8 4.34 9.01
6/25/2021 5:00:00 AM 16.3 61.34 0.431 7.8 4.23 9.07
6/25/2021 5:15:00 AM 16.22 61.196 0.431 7.79 4.41 9.08
6/25/2021 5:30:00 AM 16.13 61.034 0.431 7.8 4.26 9.1
6/25/2021 5:45:00 AM 16.05 60.89 0.431 7.8 4.56 9.13
6/25/2021 6:00:00 AM 15.97 60.746 0.431 7.79 4.71 9.15
6/25/2021 6:15:00 AM 15.91 60.638 0.432 7.8 4.53 9.19
6/25/2021 6:30:00 AM 15.86 60.548 0.432 7.8 4.4 9.24
6/25/2021 6:45:00 AM 15.82 60.476 0.432 7.81 4.28 9.29
6/25/2021 7:00:00 AM 15.76 60.368 0.432 7.81 4.5 9.33
6/25/2021 7:15:00 AM 15.73 60.314 0.432 7.81 4.46 9.37
6/25/2021 7:30:00 AM 15.72 60.296 0.432 7.81 4.71 9.41
6/25/2021 7:45:00 AM 15.7 60.26 0.432 7.82 4.06 9.45
6/25/2021 8:00:00 AM 15.69 60.242 0.432 7.84 4.59 9.51
6/25/2021 8:15:00 AM 15.7 60.26 0.432 7.84 4.47 9.54
6/25/2021 8:30:00 AM 15.72 60.296 0.432 7.84 4.58 9.54
6/25/2021 8:45:00 AM 15.76 60.368 0.432 7.85 4.34 9.6
6/25/2021 9:00:00 AM 15.83 60.494 0.433 7.86 4.17 9.56
6/25/2021 9:15:00 AM 15.94 60.692 0.433 7.87 4.18 9.69
6/25/2021 9:30:00 AM 16.05 60.89 0.433 7.88 4.17 9.72
6/25/2021 9:45:00 AM 16.21 61.178 0.432 7.89 4.29 9.76
6/25/2021 10:00:00 AM 16.44 61.592 0.433 7.92 4.39 9.86
6/25/2021 10:15:00 AM 16.65 61.97 0.433 7.94 4.23 9.9
6/25/2021 10:30:00 AM 16.85 62.33 0.433 7.95 4.31 9.9
6/25/2021 10:45:00 AM 17.07 62.726 0.432 7.98 4.33 9.94
6/25/2021 11:00:00 AM 17.33 63.194 0.432 8 4.21 9.96
6/25/2021 11:15:00 AM 17.6 63.68 0.432 8.01 4.31 9.97
6/25/2021 11:30:00 AM 17.82 64.076 0.432 8.02 4.04 9.98
6/25/2021 11:45:00 AM 18.1 64.58 0.432 8.03 4.38 9.99
6/25/2021 12:00:00 PM 18.33 64.994 0.432 8.05 4.14 9.98
6/25/2021 12:15:00 PM 18.57 65.426 0.432 8.06 4.54 9.96
6/25/2021 12:30:00 PM 18.76 65.768 0.432 8.08 4.13 9.98
6/25/2021 12:45:00 PM 18.98 66.164 0.432 8.09 4.2 9.96
6/25/2021 1:00:00 PM 19.2 66.56 0.432 8.1 4.08 9.93
6/25/2021 1:15:00 PM 19.52 67.136 0.433 8.11 4.22 9.92
6/25/2021 1:30:00 PM 19.77 67.586 0.433 8.12 4.06 9.88
6/25/2021 1:45:00 PM 20.03 68.054 0.433 8.12 4.21 9.88
6/25/2021 2:00:00 PM 20.38 68.684 0.434 8.13 4.02 9.86
6/25/2021 2:15:00 PM 20.67 69.206 0.434 8.14 3.87 9.82
6/25/2021 2:30:00 PM 20.93 69.674 0.434 8.15 3.85 9.79
6/25/2021 2:45:00 PM 21.31 70.358 0.434 8.16 4.09 9.79
6/25/2021 3:00:00 PM 21.36 70.448 0.434 8.16 4.05 9.72
6/25/2021 3:15:00 PM 21.32 70.376 0.435 8.17 3.93 9.64
6/25/2021 3:30:00 PM 21.46 70.628 0.435 8.17 3.98 9.63
6/25/2021 3:45:00 PM 21.57 70.826 0.435 8.18 4.13 9.62
6/25/2021 4:00:00 PM 21.41 70.538 0.435 8.19 3.81 9.54
6/25/2021 4:15:00 PM 21.39 70.502 0.435 8.18 3.8 9.47
6/25/2021 4:30:00 PM 21.29 70.32201 0.435 8.18 3.99 9.39
6/25/2021 4:45:00 PM 21.27 70.286 0.435 8.19 4.08 9.39
6/25/2021 5:00:00 PM 21.42 70.556 0.436 8.18 4.02 9.37
6/25/2021 5:15:00 PM 21.5 70.7 0.436 8.18 3.82 9.37
6/25/2021 5:30:00 PM 21.56 70.808 0.436 8.19 3.91 9.33
6/25/2021 5:45:00 PM 21.53 70.754 0.436 8.18 4.06 9.26
6/25/2021 6:00:00 PM 21.42 70.556 0.436 8.18 4.01 9.15
6/25/2021 6:15:00 PM 21.36 70.448 0.437 8.17 4.05 9.07
6/25/2021 6:30:00 PM 21.32 70.376 0.437 8.16 4.1 9.01
6/25/2021 6:45:00 PM 21.25 70.25 0.437 8.15 3.84 8.97
6/25/2021 7:00:00 PM 21.18 70.124 0.438 8.13 4.01 8.9
6/25/2021 7:15:00 PM 21.11 69.998 0.438 8.11 4.01 8.82
6/25/2021 7:30:00 PM 21.06 69.908 0.438 8.1 4.13 8.78
6/25/2021 7:45:00 PM 20.98 69.764 0.439 8.08 3.97 8.7
6/25/2021 8:00:00 PM 20.91 69.638 0.439 8.07 3.98 8.67
6/25/2021 8:15:00 PM 20.85 69.53 0.439 8.05 4.08 8.62
6/25/2021 8:30:00 PM 20.76 69.368 0.439 8.03 4.06 8.55
6/25/2021 8:45:00 PM 20.67 69.206 0.44 8.02 4.11 8.47
6/25/2021 9:00:00 PM 20.6 69.08 0.44 7.99 4.11 8.4
6/25/2021 9:15:00 PM 20.52 68.936 0.44 7.98 4.2 8.35
6/25/2021 9:30:00 PM 20.45 68.81 0.44 7.96 4.26 8.32
6/25/2021 9:45:00 PM 20.38 68.684 0.44 7.95 4.17 8.3
6/25/2021 10:00:00 PM 20.32 68.576 0.44 7.94 4.06 8.26
6/25/2021 10:15:00 PM 20.27 68.486 0.441 7.93 4.89 8.26
6/25/2021 10:30:00 PM 20.24 68.432 0.441 7.92 4.23 8.25
6/25/2021 10:45:00 PM 20.21 68.378 0.441 7.91 4.39 8.26
6/25/2021 11:00:00 PM 20.16 68.288 0.441 7.9 4.38 8.23
6/25/2021 11:15:00 PM 20.11 68.198 0.441 7.89 4.15 8.25
6/25/2021 11:30:00 PM 20.07 68.126 0.441 7.89 4.19 8.25
6/25/2021 11:45:00 PM 20.03 68.054 0.441 7.88 4.51 8.25
6/26/2021 12:00:00 AM 19.99 67.982 0.441 7.88 4.07 8.25
6/26/2021 12:15:00 AM 19.93 67.874 0.442 7.87 4.23 8.26
6/26/2021 12:30:00 AM 19.86 67.748 0.442 7.87 4.35 8.28
6/26/2021 12:45:00 AM 19.8 67.64 0.442 7.87 4.48 8.28
6/26/2021 1:00:00 AM 19.73 67.514 0.442 7.86 4.41 8.3
6/26/2021 1:15:00 AM 19.68 67.424 0.442 7.86 4.21 8.29
6/26/2021 1:30:00 AM 19.6 67.28 0.442 7.86 4.48 8.31
6/26/2021 1:45:00 AM 19.53 67.154 0.443 7.86 4.64 8.34
6/26/2021 2:00:00 AM 19.44 66.992 0.443 7.85 4.37 8.32
6/26/2021 2:15:00 AM 19.35 66.83 0.443 7.85 4.22 8.35
6/26/2021 2:30:00 AM 19.26 66.668 0.443 7.85 4.26 8.38
6/26/2021 2:45:00 AM 19.17 66.506 0.443 7.84 4.42 8.39
6/26/2021 3:00:00 AM 19.09 66.362 0.444 7.84 4.45 8.43
6/26/2021 3:15:00 AM 19.01 66.218 0.444 7.83 4.3 8.41
6/26/2021 3:30:00 AM 18.93 66.074 0.444 7.84 4.4 8.47
6/26/2021 3:45:00 AM 18.85 65.93 0.444 7.84 4.26 8.48
6/26/2021 4:00:00 AM 18.76 65.768 0.445 7.83 4.55 8.48
6/26/2021 4:15:00 AM 18.69 65.642 0.445 7.83 4.54 8.5
6/26/2021 4:30:00 AM 18.62 65.516 0.445 7.83 4.79 8.51
6/26/2021 4:45:00 AM 18.56 65.408 0.445 7.83 4.34 8.54
6/26/2021 5:00:00 AM 18.52 65.336 0.445 7.83 4.54 8.55
6/26/2021 5:15:00 AM 18.46 65.228 0.445 7.83 4.52 8.57
6/26/2021 5:30:00 AM 18.41 65.138 0.446 7.82 4.59 8.57
6/26/2021 5:45:00 AM 18.37 65.066 0.446 7.83 4.58 8.6
6/26/2021 6:00:00 AM 18.33 64.994 0.446 7.82 4.81 8.58
6/26/2021 6:15:00 AM 18.28 64.904 0.446 7.82 4.7 8.62
6/26/2021 6:30:00 AM 18.25 64.85 0.446 7.82 4.69 8.65
6/26/2021 6:45:00 AM 18.22 64.796 0.446 7.83 4.76 8.7
6/26/2021 7:00:00 AM 18.2 64.76 0.447 7.83 4.48 8.76
6/26/2021 7:15:00 AM 18.18 64.724 0.447 7.83 4.5 8.79
6/26/2021 7:30:00 AM 18.18 64.724 0.447 7.84 4.62 8.83
6/26/2021 7:45:00 AM 18.19 64.742 0.447 7.85 4.52 8.91
6/26/2021 8:00:00 AM 18.22 64.796 0.447 7.86 4.77 8.96
6/26/2021 8:15:00 AM 18.24 64.832 0.447 7.86 4.42 8.99
6/26/2021 8:30:00 AM 18.25 64.85 0.447 7.86 4.66 9.02
6/26/2021 8:45:00 AM 18.31 64.958 0.447 7.88 4.56 9.11
6/26/2021 9:00:00 AM 18.37 65.066 0.447 7.89 4.36 9.18
6/26/2021 9:15:00 AM 18.44 65.192 0.447 7.91 4.51 9.24
6/26/2021 9:30:00 AM 18.55 65.39 0.447 7.92 4.37 9.25
6/26/2021 9:45:00 AM 18.7 65.66 0.446 7.93 4.41 9.34
6/26/2021 10:00:00 AM 18.89 66.002 0.446 7.96 4.25 9.38
6/26/2021 10:15:00 AM 19.06 66.308 0.446 7.97 4.7 9.44
6/26/2021 10:30:00 AM 19.23 66.614 0.446 7.99 4.06 9.45
6/26/2021 10:45:00 AM 19.49 67.082 0.446 8.01 3.8 9.49
6/26/2021 11:00:00 AM 19.61 67.298 0.446 8.03 3.71 9.53
6/26/2021 11:15:00 AM 19.82 67.676 0.446 8.05 3.84 9.55
6/26/2021 11:30:00 AM 19.83 67.694 0.447 8.05 4.07 9.53
6/26/2021 11:45:00 AM 20.17 68.306 0.447 8.07 3.96 9.57
6/26/2021 12:00:00 PM 20.32 68.576 0.447 8.07 3.89 9.56
6/26/2021 12:15:00 PM 20.68 69.224 0.448 8.08 3.71 9.54
6/26/2021 12:30:00 PM 20.98 69.764 0.447 8.09 4.97 9.54
6/26/2021 12:45:00 PM 21.34 70.412 0.448 8.09 5.13 9.56
6/26/2021 1:00:00 PM 21.6 70.88 0.448 8.11 3.99 9.53
6/26/2021 1:15:00 PM 21.81 71.258 0.448 8.12 3.89 9.5
6/26/2021 1:30:00 PM 22.12 71.816 0.448 8.13 3.76 9.48
6/26/2021 1:45:00 PM 22.4 72.32 0.449 8.13 3.66 9.45
6/26/2021 2:00:00 PM 22.42 72.356 0.449 8.14 3.75 9.35
6/26/2021 2:15:00 PM 22.55 72.59 0.449 8.14 3.83 9.31
6/26/2021 2:30:00 PM 22.8 73.04 0.449 8.14 3.58 9.3
6/26/2021 2:45:00 PM 23.03 73.454 0.449 8.15 3.58 9.31
6/26/2021 3:00:00 PM 23.29 73.922 0.449 8.16 3.65 9.31
6/26/2021 3:15:00 PM 23.34 74.012 0.449 8.16 3.84 9.26
6/26/2021 3:30:00 PM 23.34 74.012 0.449 8.17 3.59 9.18
6/26/2021 3:45:00 PM 23.5 74.3 0.45 8.17 3.4 9.16
6/26/2021 4:00:00 PM 23.64 74.552 0.45 8.17 3.74 9.16
6/26/2021 4:15:00 PM 23.65 74.57 0.451 8.18 3.69 9.08
6/26/2021 4:30:00 PM 23.63 74.534 0.452 8.17 3.54 8.99
6/26/2021 4:45:00 PM 23.71 74.67799 0.452 8.16 3.78 8.93
6/26/2021 5:00:00 PM 23.62 74.516 0.453 8.16 3.52 8.88
6/26/2021 5:15:00 PM 23.59 74.462 0.453 8.16 3.5 8.84
6/26/2021 5:30:00 PM 23.5 74.3 0.453 8.16 3.62 8.76
6/26/2021 5:45:00 PM 23.49 74.282 0.453 8.15 3.57 8.72
6/26/2021 6:00:00 PM 23.39 74.102 0.453 8.15 3.65 8.66
6/26/2021 6:15:00 PM 23.34 74.012 0.453 8.13 3.66 8.61
6/26/2021 6:30:00 PM 23.3 73.94 0.453 8.12 3.72 8.55
6/26/2021 6:45:00 PM 23.23 73.814 0.453 8.12 3.77 8.5
6/26/2021 7:00:00 PM 23.14 73.652 0.453 8.1 3.7 8.42
6/26/2021 7:15:00 PM 23.07 73.526 0.453 8.09 3.84 8.37
6/26/2021 7:30:00 PM 22.97 73.346 0.453 8.07 3.8 8.29
6/26/2021 7:45:00 PM 22.87 73.166 0.454 8.05 3.9 8.23
6/26/2021 8:00:00 PM 22.76 72.968 0.454 8.03 3.8 8.15
6/26/2021 8:15:00 PM 22.67 72.806 0.454 8.01 3.91 8.11
6/26/2021 8:30:00 PM 22.57 72.626 0.454 7.99 3.87 8.04
6/26/2021 8:45:00 PM 22.48 72.464 0.455 7.97 3.89 8.01
6/26/2021 9:00:00 PM 22.4 72.32 0.455 7.95 3.86 7.95
6/26/2021 9:15:00 PM 22.32 72.176 0.455 7.94 3.99 7.93
6/26/2021 9:30:00 PM 22.26 72.068 0.455 7.92 3.91 7.9
6/26/2021 9:45:00 PM 22.2 71.96 0.455 7.91 4.35 7.89
6/26/2021 10:00:00 PM 22.14 71.852 0.456 7.9 4.03 7.87
6/26/2021 10:15:00 PM 22.08 71.744 0.456 7.89 4.17 7.87
6/26/2021 10:30:00 PM 22.03 71.654 0.456 7.89 4.2 7.9
6/26/2021 10:45:00 PM 21.96 71.528 0.456 7.88 4.31 7.89
6/26/2021 11:00:00 PM 21.9 71.42 0.456 7.88 4.37 7.9
6/26/2021 11:15:00 PM 21.84 71.312 0.456 7.87 3.91 7.89
6/26/2021 11:30:00 PM 21.77 71.186 0.456 7.86 4.2 7.88
6/26/2021 11:45:00 PM 21.71 71.078 0.456 7.86 4.15 7.9
6/27/2021 12:00:00 AM 21.65 70.97 0.456 7.85 4.15 7.92
6/27/2021 12:15:00 AM 21.59 70.862 0.456 7.85 4.2 7.93
6/27/2021 12:30:00 AM 21.51 70.718 0.456 7.85 4.28 7.94
6/27/2021 12:45:00 AM 21.44 70.592 0.456 7.84 4.23 7.95
6/27/2021 1:00:00 AM 21.37 70.466 0.457 7.84 4.16 7.95
6/27/2021 1:15:00 AM 21.3 70.34 0.457 7.84 4.11 7.97
6/27/2021 1:30:00 AM 21.22 70.196 0.457 7.84 4.22 7.98
6/27/2021 1:45:00 AM 21.13 70.034 0.458 7.83 4.31 7.98
6/27/2021 2:00:00 AM 21.06 69.908 0.458 7.83 4.58 8
6/27/2021 2:15:00 AM 20.97 69.746 0.458 7.82 4.41 8.04
6/27/2021 2:30:00 AM 20.89 69.602 0.459 7.82 4.61 8.03
6/27/2021 2:45:00 AM 20.8 69.44 0.459 7.82 4.15 8.04
6/27/2021 3:00:00 AM 20.71 69.278 0.459 7.82 4.78 8.07
6/27/2021 3:15:00 AM 20.62 69.116 0.46 7.82 4.39 8.09
6/27/2021 3:30:00 AM 20.54 68.972 0.46 7.81 4.27 8.11
6/27/2021 3:45:00 AM 20.46 68.828 0.46 7.81 4.31 8.1
6/27/2021 4:00:00 AM 20.37 68.666 0.46 7.81 4.35 8.13
6/27/2021 4:15:00 AM 20.29 68.522 0.461 7.81 4.43 8.16
6/27/2021 4:30:00 AM 20.21 68.378 0.461 7.81 4.27 8.17
6/27/2021 4:45:00 AM 20.13 68.234 0.461 7.81 4.39 8.19
6/27/2021 5:00:00 AM 20.06 68.108 0.461 7.81 4.35 8.2
6/27/2021 5:15:00 AM 19.98 67.964 0.462 7.8 4.32 8.22
6/27/2021 5:30:00 AM 19.9 67.82 0.462 7.8 4.58 8.25
6/27/2021 5:45:00 AM 19.83 67.694 0.462 7.8 4.68 7.78
6/27/2021 6:00:00 AM 19.77 67.586 0.462 7.79 4.76 7.63
6/27/2021 6:15:00 AM 19.7 67.46 0.462 7.8 4.48 8.27
6/27/2021 6:30:00 AM 19.64 67.352 0.462 7.8 4.55 8.34
6/27/2021 6:45:00 AM 19.61 67.298 0.463 7.8 4.28 8.36
6/27/2021 7:00:00 AM 19.57 67.226 0.463 7.81 4.54 8.44
6/27/2021 7:15:00 AM 19.55 67.19 0.463 7.82 4.57 8.45
6/27/2021 7:30:00 AM 19.55 67.19 0.463 7.82 4.32 8.48
6/27/2021 7:45:00 AM 19.54 67.172 0.463 7.82 4.39 8.56
6/27/2021 8:00:00 AM 19.54 67.172 0.464 7.83 4.34 8.63
6/27/2021 8:15:00 AM 19.52 67.136 0.464 7.84 4.63 8.68
6/27/2021 8:30:00 AM 19.54 67.172 0.464 7.84 4.31 8.71
6/27/2021 8:45:00 AM 19.58 67.244 0.464 7.85 4.22 8.75
6/27/2021 9:00:00 AM 19.63 67.334 0.464 7.85 4.4 8.76
6/27/2021 9:15:00 AM 19.7 67.46 0.464 7.87 4.51 8.85
6/27/2021 9:30:00 AM 19.83 67.694 0.464 7.88 4.31 8.94
6/27/2021 9:45:00 AM 19.93 67.874 0.464 7.9 4.23 8.96
6/27/2021 10:00:00 AM 20.12 68.216 0.464 7.92 4.25 9.02
6/27/2021 10:15:00 AM 20.31 68.558 0.465 7.93 4.19 9.08
6/27/2021 10:30:00 AM 20.56 69.008 0.465 7.96 3.99 9.11
6/27/2021 10:45:00 AM 20.79 69.422 0.465 7.97 4.01 9.12
6/27/2021 11:00:00 AM 21.07 69.926 0.465 7.98 4.53 9.1
6/27/2021 11:15:00 AM 21.4 70.52 0.465 8 4.08 9.13
6/27/2021 11:30:00 AM 21.86 71.348 0.465 8.02 3.92 9.21
6/27/2021 11:45:00 AM 21.99 71.582 0.465 8.03 4 9.19
6/27/2021 12:00:00 PM 22.14 71.852 0.465 8.04 3.97 9.14
6/27/2021 12:15:00 PM 22.5 72.5 0.465 8.05 3.78 9.06
6/27/2021 12:30:00 PM 22.71 72.878 0.465 8.06 4.03 9.15
6/27/2021 12:45:00 PM 22.93 73.274 0.465 8.07 3.88 9.14
6/27/2021 1:00:00 PM 23.23 73.814 0.465 8.08 3.7 9.15
6/27/2021 1:15:00 PM 23.38 74.084 0.465 8.1 3.91 9.16
6/27/2021 1:30:00 PM 23.59 74.462 0.465 8.1 4.03 9.13
6/27/2021 1:45:00 PM 24.05 75.29 0.465 8.11 3.67 9.14
6/27/2021 2:00:00 PM 24.35 75.83 0.466 8.12 3.68 9.13
6/27/2021 2:15:00 PM 24.81 76.658 0.466 8.13 3.67 9.14
6/27/2021 2:30:00 PM 24.96 76.92799 0.466 8.14 3.53 9.1
6/27/2021 2:45:00 PM 25.16 77.288 0.467 8.14 3.79 9.04
6/27/2021 3:00:00 PM 25.25 77.45 0.467 8.14 3.89 9.01
6/27/2021 3:15:00 PM 25.52 77.936 0.468 8.15 3.7 8.96
6/27/2021 3:30:00 PM 25.68 78.224 0.468 8.15 3.62 8.89
6/27/2021 3:45:00 PM 25.74 78.332 0.468 8.15 3.59 8.87
6/27/2021 4:00:00 PM 25.81 78.458 0.469 8.16 3.69 8.84
6/27/2021 4:15:00 PM 25.87 78.566 0.469 8.16 3.56 8.76
6/27/2021 4:30:00 PM 25.75 78.35 0.469 8.14 3.66 8.69
6/27/2021 4:45:00 PM 25.8 78.44 0.469 8.15 3.89 8.67
6/27/2021 5:00:00 PM 25.83 78.494 0.47 8.14 3.93 8.57
6/27/2021 5:15:00 PM 25.74 78.332 0.469 8.14 3.54 8.53
6/27/2021 5:30:00 PM 25.63 78.134 0.47 8.14 3.6 8.49
6/27/2021 5:45:00 PM 25.55 77.99 0.47 8.13 3.67 8.41
6/27/2021 6:00:00 PM 25.48 77.864 0.47 8.12 3.76 8.35
6/27/2021 6:15:00 PM 25.37 77.666 0.47 8.11 4.13 8.23
6/27/2021 6:30:00 PM 25.28 77.504 0.47 8.1 3.86 8.21
6/27/2021 6:45:00 PM 25.17 77.306 0.47 8.09 3.64 8.14
6/27/2021 7:00:00 PM 25.04 77.07201 0.47 8.08 3.85 8.05
6/27/2021 7:15:00 PM 24.9 76.82 0.47 8.06 3.91 7.97
6/27/2021 7:30:00 PM 24.74 76.532 0.471 8.04 3.82 7.9
6/27/2021 7:45:00 PM 24.58 76.244 0.471 8.02 3.76 7.83
6/27/2021 8:00:00 PM 24.42 75.956 0.471 8 3.87 7.8
6/27/2021 8:15:00 PM 24.25 75.65 0.471 7.98 3.83 7.75
6/27/2021 8:30:00 PM 24.12 75.416 0.471 7.96 3.93 7.7
6/27/2021 8:45:00 PM 23.97 75.146 0.47 7.95 4.05 7.68
6/27/2021 9:00:00 PM 23.84 74.912 0.472 7.93 3.98 7.62
6/27/2021 9:15:00 PM 23.72 74.696 0.472 7.92 3.88 7.63
6/27/2021 9:30:00 PM 23.63 74.534 0.472 7.9 4.12 7.62
6/27/2021 9:45:00 PM 23.53 74.354 0.472 7.89 3.92 7.59
6/27/2021 10:00:00 PM 23.45 74.21 0.472 7.88 4.15 7.59
6/27/2021 10:15:00 PM 23.36 74.048 0.472 7.87 4.52 7.59
6/27/2021 10:30:00 PM 23.28 73.904 0.472 7.86 3.97 7.59
6/27/2021 10:45:00 PM 23.2 73.76 0.473 7.86 4.28 7.61
6/27/2021 11:00:00 PM 23.11 73.598 0.473 7.85 4.1 7.62
6/27/2021 11:15:00 PM 23.03 73.454 0.473 7.85 4.08 7.62
6/27/2021 11:30:00 PM 22.96 73.328 0.473 7.85 4.22 7.66
6/27/2021 11:45:00 PM 22.87 73.166 0.473 7.84 4.5 7.67
6/28/2021 12:00:00 AM 22.79 73.022 0.473 7.84 4.33 7.66
6/28/2021 12:15:00 AM 22.73 72.914 0.473 7.83 4.52 7.67
6/28/2021 12:30:00 AM 22.66 72.788 0.473 7.83 4.01 7.71
6/28/2021 12:45:00 AM 22.59 72.662 0.473 7.82 4.34 7.71
6/28/2021 1:00:00 AM 22.52 72.536 0.474 7.82 4.35 7.72
6/28/2021 1:15:00 AM 22.45 72.41 0.474 7.82 4.16 7.71
6/28/2021 1:30:00 AM 22.37 72.266 0.474 7.82 4.49 7.76
6/28/2021 1:45:00 AM 22.29 72.122 0.474 7.82 4.27 7.76
6/28/2021 2:00:00 AM 22.2 71.96 0.474 7.81 4.39 7.77
6/28/2021 2:15:00 AM 22.12 71.816 0.474 7.81 4.45 7.79
6/28/2021 2:30:00 AM 22.03 71.654 0.475 7.8 4.4 7.81
6/28/2021 2:45:00 AM 21.93 71.474 0.474 7.8 4.7 7.81
6/28/2021 3:00:00 AM 21.84 71.312 0.475 7.8 4.77 7.81
6/28/2021 3:15:00 AM 21.74 71.132 0.475 7.79 4.26 7.86
6/28/2021 3:30:00 AM 21.65 70.97 0.475 7.79 4.45 7.9
6/28/2021 3:45:00 AM 21.56 70.808 0.476 7.79 4.97 7.89
6/28/2021 4:00:00 AM 21.46 70.628 0.476 7.79 4.44 7.94
6/28/2021 4:15:00 AM 21.36 70.448 0.476 7.79 4.66 7.89
6/28/2021 4:30:00 AM 21.25 70.25 0.476 7.79 4.5 7.97
6/28/2021 4:45:00 AM 21.17 70.106 0.476 7.79 4.37 7.99
6/28/2021 5:00:00 AM 21.07 69.926 0.476 7.79 4.68 8
6/28/2021 5:15:00 AM 20.98 69.764 0.477 7.79 4.38 8.01
6/28/2021 5:30:00 AM 20.88 69.584 0.477 7.79 4.4 8.05
6/28/2021 5:45:00 AM 20.8 69.44 0.477 7.78 4.53 8.04
6/28/2021 6:00:00 AM 20.7 69.26 0.477 7.78 4.79 8.05
6/28/2021 6:15:00 AM 20.63 69.134 0.477 7.78 4.48 8.1
6/28/2021 6:30:00 AM 20.55 68.99 0.477 7.78 4.92 8.16
6/28/2021 6:45:00 AM 20.48 68.864 0.477 7.78 4.36 8.19
6/28/2021 7:00:00 AM 20.42 68.756 0.477 7.79 4.64 8.22
6/28/2021 7:15:00 AM 20.37 68.666 0.477 7.79 4.54 8.29
6/28/2021 7:30:00 AM 20.37 68.666 0.477 7.79 4.41 8.33
6/28/2021 7:45:00 AM 20.35 68.63 0.477 7.79 4.9 8.35
6/28/2021 8:00:00 AM 20.35 68.63 0.477 7.8 4.42 8.39
6/28/2021 8:15:00 AM 20.34 68.612 0.477 7.79 4.41 8.4
6/28/2021 8:30:00 AM 20.34 68.612 0.477 7.8 4.53 8.47
6/28/2021 8:45:00 AM 20.37 68.666 0.477 7.81 4.42 8.51
6/28/2021 9:00:00 AM 20.41 68.738 0.477 7.81 4.74 8.5
6/28/2021 9:15:00 AM 20.49 68.882 0.477 7.82 4.44 8.6
6/28/2021 9:30:00 AM 20.59 69.062 0.478 7.83 4.27 8.62
6/28/2021 9:45:00 AM 20.76 69.368 0.478 7.85 4.25 8.7
6/28/2021 10:00:00 AM 20.93 69.674 0.478 7.87 4.67 8.79
6/28/2021 10:15:00 AM 21.16 70.088 0.478 7.9 4.46 8.86
6/28/2021 10:30:00 AM 21.39 70.502 0.478 7.9 4.27 8.89
6/28/2021 10:45:00 AM 21.69 71.042 0.478 7.93 4.34 8.93
6/28/2021 11:00:00 AM 21.95 71.51 0.478 7.95 4.17 8.92
6/28/2021 11:15:00 AM 22.35 72.23 0.479 7.97 4.23 9.01
6/28/2021 11:30:00 AM 22.72 72.896 0.478 7.99 4.22 9.06
6/28/2021 11:45:00 AM 22.76 72.968 0.478 8.01 4.55 9.02
6/28/2021 12:00:00 PM 22.89 73.202 0.478 8.02 4.15 9.01
6/28/2021 12:15:00 PM 22.98 73.364 0.478 8.02 4.19 8.94
6/28/2021 12:30:00 PM 23.37 74.066 0.479 8.03 3.96 9.02
6/28/2021 12:45:00 PM 23.61 74.498 0.479 8.04 3.94 9.01
6/28/2021 1:00:00 PM 23.98 75.164 0.479 8.05 3.73 9.06
6/28/2021 1:15:00 PM 24.23 75.614 0.479 8.06 4.23 9.03
6/28/2021 1:30:00 PM 24.47 76.046 0.479 8.07 3.93 9.05
6/28/2021 1:45:00 PM 24.74 76.532 0.479 8.08 3.92 9.05
6/28/2021 2:00:00 PM 24.93 76.874 0.479 8.08 3.86 8.95
6/28/2021 2:15:00 PM 25.12 77.216 0.48 8.09 3.85 8.94
6/28/2021 2:30:00 PM 25.53 77.954 0.48 8.1 4.37 8.95
6/28/2021 2:45:00 PM 25.56 78.008 0.479 8.1 4 8.87
6/28/2021 3:00:00 PM 25.7 78.26 0.48 8.1 3.91 8.81
6/28/2021 3:15:00 PM 25.74 78.332 0.48 8.11 3.97 8.71
6/28/2021 3:30:00 PM 25.88 78.584 0.48 8.1 3.86 8.7
6/28/2021 3:45:00 PM 26.11 78.998 0.481 8.11 3.8 8.66
6/28/2021 4:00:00 PM 26.44 79.592 0.481 8.11 3.81 8.68
6/28/2021 4:15:00 PM 26.58 79.844 0.481 8.12 3.94 8.67
6/28/2021 4:30:00 PM 26.71 80.078 0.481 8.1 3.67 8.56
6/28/2021 4:45:00 PM 26.75 80.15 0.481 8.12 3.91 8.55
6/28/2021 5:00:00 PM 26.86 80.348 0.481 8.12 4.03 8.46
6/28/2021 5:15:00 PM 26.8 80.24 0.481 8.12 3.75 8.46
6/28/2021 5:30:00 PM 26.73 80.114 0.482 8.12 3.88 8.37
6/28/2021 5:45:00 PM 26.69 80.042 0.482 8.11 3.86 8.3
6/28/2021 6:00:00 PM 26.6 79.88 0.482 8.11 4.2 8.21
6/28/2021 6:15:00 PM 26.54 79.772 0.482 8.11 3.93 8.13
6/28/2021 6:30:00 PM 26.42 79.556 0.482 8.09 4.21 8.04
6/28/2021 6:45:00 PM 26.32 79.376 0.482 8.08 4 7.99
6/28/2021 7:00:00 PM 26.21 79.17799 0.483 8.06 4.01 7.88
6/28/2021 7:15:00 PM 26.08 78.944 0.483 8.05 4.31 7.8
6/28/2021 7:30:00 PM 25.92 78.656 0.483 8.03 4.03 7.79
6/28/2021 7:45:00 PM 25.74 78.332 0.483 8.02 3.85 7.73
6/28/2021 8:00:00 PM 25.58 78.044 0.484 8 4.05 7.61
6/28/2021 8:15:00 PM 25.4 77.72 0.484 7.97 4.08 7.57
6/28/2021 8:30:00 PM 25.25 77.45 0.484 7.93 4.37 7.52
6/28/2021 8:45:00 PM 25.11 77.198 0.484 7.91 4.05 7.47
6/28/2021 9:00:00 PM 24.97 76.946 0.484 7.9 4.11 7.43
6/28/2021 9:15:00 PM 24.85 76.73 0.484 7.89 4.16 7.39
6/28/2021 9:30:00 PM 24.75 76.55 0.484 7.88 4.21 7.4
6/28/2021 9:45:00 PM 24.65 76.37 0.484 7.87 4.23 7.4
6/28/2021 10:00:00 PM 24.57 76.226 0.484 7.86 4.28 7.4
6/28/2021 10:15:00 PM 24.5 76.1 0.484 7.86 4.93 7.38
6/28/2021 10:30:00 PM 24.43 75.974 0.484 7.85 4.17 7.42
6/28/2021 10:45:00 PM 24.38 75.884 0.484 7.84 4.38 7.41
6/28/2021 11:00:00 PM 24.31 75.758 0.484 7.84 4.29 7.4
6/28/2021 11:15:00 PM 24.25 75.65 0.484 7.83 4.51 7.44
6/28/2021 11:30:00 PM 24.2 75.56 0.484 7.83 4.35 7.42
6/28/2021 11:45:00 PM 24.13 75.434 0.484 7.83 4.44 7.4
6/29/2021 12:00:00 AM 24.07 75.326 0.484 7.82 4.2 7.4
6/29/2021 12:15:00 AM 24 75.2 0.484 7.81 4.35 7.47
6/29/2021 12:30:00 AM 23.94 75.092 0.484 7.81 4.35 7.46
6/29/2021 12:45:00 AM 23.88 74.984 0.484 7.81 4.22 7.5
6/29/2021 1:00:00 AM 23.82 74.876 0.484 7.81 4.27 7.5
6/29/2021 1:15:00 AM 23.75 74.75 0.485 7.8 4.55 7.51
6/29/2021 1:30:00 AM 23.68 74.624 0.485 7.8 4.35 7.51
6/29/2021 1:45:00 AM 23.63 74.534 0.485 7.8 4.31 7.51
6/29/2021 2:00:00 AM 23.55 74.39 0.485 7.8 4.32 7.55
6/29/2021 2:15:00 AM 23.48 74.264 0.485 7.79 4.51 7.52
6/29/2021 2:30:00 AM 23.39 74.102 0.485 7.79 4.4 7.57
6/29/2021 2:45:00 AM 23.32 73.976 0.485 7.79 4.52 7.49
6/29/2021 3:00:00 AM 23.23 73.814 0.486 7.78 4.45 7.6
6/29/2021 3:15:00 AM 23.14 73.652 0.486 7.78 4.58 7.57
6/29/2021 3:30:00 AM 23.06 73.508 0.486 7.78 4.46 7.64
6/29/2021 3:45:00 AM 22.97 73.346 0.486 7.78 4.49 7.64
6/29/2021 4:00:00 AM 22.88 73.184 0.487 7.77 4.46 7.53
6/29/2021 4:15:00 AM 22.8 73.04 0.487 7.78 4.54 7.68
6/29/2021 4:30:00 AM 22.7 72.86 0.487 7.77 4.78 7.69
6/29/2021 4:45:00 AM 22.61 72.698 0.487 7.78 4.77 7.73
6/29/2021 5:00:00 AM 22.52 72.536 0.487 7.77 4.58 7.72
6/29/2021 5:15:00 AM 22.44 72.392 0.488 7.77 5.18 7.71
6/29/2021 5:30:00 AM 22.34 72.212 0.488 7.77 4.85 7.72
6/29/2021 5:45:00 AM 22.25 72.05 0.488 7.77 4.72 7.78
6/29/2021 6:00:00 AM 22.16 71.888 0.488 7.77 4.63 7.78
6/29/2021 6:15:00 AM 22.08 71.744 0.489 7.77 4.49 7.84
6/29/2021 6:30:00 AM 22.01 71.618 0.489 7.77 4.77 7.87
6/29/2021 6:45:00 AM 21.94 71.492 0.489 7.77 4.85 7.96
6/29/2021 7:00:00 AM 21.89 71.402 0.489 7.78 4.53 7.9
6/29/2021 7:15:00 AM 21.85 71.33 0.49 7.78 4.85 8
6/29/2021 7:30:00 AM 21.84 71.312 0.49 7.79 4.53 8.09
6/29/2021 7:45:00 AM 21.84 71.312 0.49 7.79 4.93 8.04
6/29/2021 8:00:00 AM 21.83 71.294 0.49 7.79 4.67 8.07
6/29/2021 8:15:00 AM 21.81 71.258 0.49 7.79 4.57 8.21
6/29/2021 8:30:00 AM 21.81 71.258 0.49 7.78 4.43 8.12
6/29/2021 8:45:00 AM 21.83 71.294 0.49 7.8 4.46 8.24
6/29/2021 9:00:00 AM 21.86 71.348 0.49 7.8 4.33 8.23
6/29/2021 9:15:00 AM 21.93 71.474 0.491 7.82 4.4 8.41
6/29/2021 9:30:00 AM 22.01 71.618 0.491 7.82 4.83 8.45
6/29/2021 9:45:00 AM 22.12 71.816 0.491 7.84 4.5 8.43
6/29/2021 10:00:00 AM 22.32 72.176 0.491 7.85 4.34 8.55
6/29/2021 10:15:00 AM 22.49 72.482 0.491 7.88 4.55 8.55
6/29/2021 10:30:00 AM 22.76 72.968 0.491 7.9 4.28 8.62
6/29/2021 10:45:00 AM 23.07 73.526 0.492 7.91 4.35 8.69
6/29/2021 11:00:00 AM 23.38 74.084 0.491 7.95 4.15 8.71
6/29/2021 11:15:00 AM 23.73 74.714 0.492 7.97 4.49 8.75
6/29/2021 11:30:00 AM 24.13 75.434 0.492 7.99 4.24 8.81
6/29/2021 11:45:00 AM 24.41 75.938 0.492 8.01 4.04 8.69
6/29/2021 12:00:00 PM 24.63 76.334 0.492 8.01 4.18 8.79
6/29/2021 12:15:00 PM 24.96 76.92799 0.493 8.02 4.59 8.83
6/29/2021 12:30:00 PM 25.09 77.162 0.493 8.04 4.06 8.79
6/29/2021 12:45:00 PM 25.49 77.882 0.493 8.05 4.16 8.67
6/29/2021 1:00:00 PM 25.7 78.26 0.493 8.05 4 8.81
6/29/2021 1:15:00 PM 26.1 78.98 0.493 8.07 4 8.84
6/29/2021 1:30:00 PM 26.42 79.556 0.493 8.08 4 8.72
6/29/2021 1:45:00 PM 26.73 80.114 0.494 8.09 3.98 8.51
6/29/2021 2:00:00 PM 27.17 80.906 0.493 8.09 3.62 8.86
6/29/2021 2:15:00 PM 27.45 81.41 0.493 8.11 4.02 8.74
6/29/2021 2:30:00 PM 27.59 81.662 0.493 8.09 3.77 8.77
6/29/2021 2:45:00 PM 27.63 81.734 0.493 8.11 3.55 8.76
6/29/2021 3:00:00 PM 27.66 81.788 0.493 8.12 3.73 8.63
6/29/2021 3:15:00 PM 27.89 82.202 0.494 8.12 3.77 8.61
6/29/2021 3:30:00 PM 27.99 82.382 0.494 8.14 3.69 8.61
6/29/2021 3:45:00 PM 28.09 82.562 0.494 8.13 3.65 8.53
6/29/2021 4:00:00 PM 28.28 82.904 0.494 8.13 3.8 8.48
6/29/2021 4:15:00 PM 28.24 82.832 0.494 8.12 3.85 8.49
6/29/2021 4:30:00 PM 28.3 82.94 0.494 8.13 3.64 8.4
6/29/2021 4:45:00 PM 28.34 83.012 0.494 8.12 4.58 8.34
6/29/2021 5:00:00 PM 28.23 82.814 0.494 8.13 3.89 8.29
6/29/2021 5:15:00 PM 28.24 82.832 0.494 8.13 4.22 8.19
6/29/2021 5:30:00 PM 28.13 82.634 0.494 8.13 3.55 8.14
6/29/2021 5:45:00 PM 28.04 82.472 0.494 8.12 3.9 8.07
6/29/2021 6:00:00 PM 27.96 82.328 0.495 8.11 3.52 7.98
6/29/2021 6:15:00 PM 27.89 82.202 0.495 8.11 3.49 7.99
6/29/2021 6:30:00 PM 27.74 81.932 0.494 8.1 3.48 7.84
6/29/2021 6:45:00 PM 27.6 81.68 0.495 8.09 3.71 7.76
6/29/2021 7:00:00 PM 27.44 81.392 0.495 8.07 3.48 7.68
6/29/2021 7:15:00 PM 27.36 81.248 0.495 8.06 3.69 7.66
6/29/2021 7:30:00 PM 27.25 81.05 0.495 8.05 3.68 7.65
6/29/2021 7:45:00 PM 27.11 80.798 0.495 8.02 3.76 7.57
6/29/2021 8:00:00 PM 27.04 80.672 0.495 8.02 4.15 7.5
6/29/2021 8:15:00 PM 26.92 80.456 0.495 8.01 4.02 7.54
6/29/2021 8:30:00 PM 26.79 80.222 0.495 7.99 3.68 7.48
6/29/2021 8:45:00 PM 26.69 80.042 0.496 7.98 3.86 7.42
6/29/2021 9:00:00 PM 26.56 79.808 0.497 7.96 3.6 7.3
6/29/2021 9:15:00 PM 26.43 79.574 0.498 7.95 3.74 7.25
6/29/2021 9:30:00 PM 26.3 79.34 0.496 7.93 3.85 7.2
6/29/2021 9:45:00 PM 26.19 79.142 0.496 7.91 3.9 7.19
6/29/2021 10:00:00 PM 26.06 78.908 0.496 7.91 4.25 7.15
6/29/2021 10:15:00 PM 25.94 78.692 0.496 7.9 6.14 7.16
6/29/2021 10:30:00 PM 25.85 78.53 0.496 7.88 3.86 7.15
6/29/2021 10:45:00 PM 25.74 78.332 0.495 7.88 4.11 7.11
6/29/2021 11:00:00 PM 25.65 78.17 0.495 7.88 3.86 7.15
6/29/2021 11:15:00 PM 25.54 77.972 0.495 7.86 3.68 7.19
6/29/2021 11:30:00 PM 25.43 77.774 0.495 7.87 3.72 7.19
6/29/2021 11:45:00 PM 25.3 77.54 0.495 7.86 3.66 7.19
6/30/2021 12:00:00 AM 25.2 77.36 0.495 7.86 3.99 7.23
6/30/2021 12:15:00 AM 25.09 77.162 0.494 7.86 3.89 7.25
6/30/2021 12:30:00 AM 24.98 76.964 0.495 7.85 3.64 7.27
6/30/2021 12:45:00 AM 24.88 76.784 0.494 7.85 4.93 7.32
6/30/2021 1:00:00 AM 24.81 76.658 0.494 7.85 3.83 7.2
6/30/2021 1:15:00 AM 24.7 76.46 0.494 7.84 3.96 7.28
6/30/2021 1:30:00 AM 24.6 76.28 0.494 7.84 3.83 7.29
6/30/2021 1:45:00 AM 24.51 76.118 0.494 7.84 4.15 7.34
6/30/2021 2:00:00 AM 24.43 75.974 0.494 7.83 4.08 7.35
6/30/2021 2:15:00 AM 24.34 75.812 0.494 7.84 3.94 7.36
6/30/2021 2:30:00 AM 24.23 75.614 0.494 7.84 4.12 7.35
6/30/2021 2:45:00 AM 24.12 75.416 0.494 7.83 3.82 7.32
6/30/2021 3:00:00 AM 24.03 75.254 0.494 7.82 3.75 7.38
6/30/2021 3:15:00 AM 23.95 75.11 0.495 7.82 4.16 7.43
6/30/2021 3:30:00 AM 23.83 74.894 0.495 7.82 4.01 7.38
6/30/2021 3:45:00 AM 23.72 74.696 0.495 7.82 4.24 7.46
6/30/2021 4:00:00 AM 23.63 74.534 0.495 7.81 4.35 7.47
6/30/2021 4:15:00 AM 23.52 74.336 0.495 7.81 5.32 7.47
6/30/2021 4:30:00 AM 23.41 74.138 0.495 7.81 4.19 7.5
6/30/2021 4:45:00 AM 23.31 73.958 0.495 7.81 4.21 7.46
6/30/2021 5:00:00 AM 23.22 73.796 0.495 7.81 4.84 7.53
6/30/2021 5:15:00 AM 23.11 73.598 0.495 7.81 4.18 7.5
6/30/2021 5:30:00 AM 23.01 73.418 0.496 7.8 4.24 7.59
6/30/2021 5:45:00 AM 22.91 73.238 0.496 7.8 4.31 7.47
6/30/2021 6:00:00 AM 22.8 73.04 0.496 7.8 4.16 7.54
6/30/2021 6:15:00 AM 22.71 72.878 0.496 7.81 5.07 7.68
6/30/2021 6:30:00 AM 22.6 72.68 0.496 7.8 4.74 7.7
6/30/2021 6:45:00 AM 22.54 72.57201 0.496 7.8 4.52 7.72
6/30/2021 7:00:00 AM 22.46 72.42799 0.496 7.81 4.28 7.74
6/30/2021 7:15:00 AM 22.4 72.32 0.496 7.82 4.27 7.84
6/30/2021 7:30:00 AM 22.36 72.248 0.496 7.82 4.34 7.86
6/30/2021 7:45:00 AM 22.38 72.284 0.496 7.81 4.49 7.9
6/30/2021 8:00:00 AM 22.33 72.194 0.496 7.82 4.07 7.96
6/30/2021 8:15:00 AM 22.31 72.158 0.496 7.82 4.14 7.88
6/30/2021 8:30:00 AM 22.31 72.158 0.496 7.83 4.09 8
6/30/2021 8:45:00 AM 22.31 72.158 0.497 7.84 4.05 7.95
6/30/2021 9:00:00 AM 22.36 72.248 0.497 7.85 4.2 7.93
6/30/2021 9:15:00 AM 22.45 72.41 0.497 7.88 4.15 8.2
6/30/2021 9:30:00 AM 22.5 72.5 0.497 7.89 4.11 8.34
6/30/2021 9:45:00 AM 22.62 72.716 0.497 7.91 4.93 8.41
6/30/2021 10:00:00 AM 22.74 72.932 0.497 7.91 4.27 8.43
6/30/2021 10:15:00 AM 22.94 73.292 0.497 7.93 3.74 8.56
6/30/2021 10:30:00 AM 23.18 73.724 0.497 7.94 3.93 8.56
6/30/2021 10:45:00 AM 23.44 74.192 0.497 7.98 3.78 8.62
6/30/2021 11:00:00 AM 23.76 74.768 0.497 8 3.72 8.64
6/30/2021 11:15:00 AM 24.13 75.434 0.497 8.01 3.74 8.62
6/30/2021 11:30:00 AM 24.55 76.19 0.497 8.03 3.86 8.55
6/30/2021 11:45:00 AM 24.85 76.73 0.497 8.05 3.57 8.55
6/30/2021 12:00:00 PM 25.03 77.054 0.497 8.07 4.1 8.65
6/30/2021 12:15:00 PM 25.29 77.522 0.497 8.08 3.64 8.74
6/30/2021 12:30:00 PM 25.57 78.026 0.498 8.09 3.99 8.44
6/30/2021 12:45:00 PM 25.61 78.098 0.498 8.11 3.38 8.63
6/30/2021 1:00:00 PM 25.88 78.584 0.498 8.11 3.45 8.6
6/30/2021 1:15:00 PM 26.06 78.908 0.498 8.12 3.71 8.77
6/30/2021 1:30:00 PM 26.35 79.43 0.498 8.13 3.46 8.66
6/30/2021 1:45:00 PM 26.55 79.79 0.498 8.13 3.51 8.63
6/30/2021 2:00:00 PM 26.31 79.358 0.498 8.13 3.61 8.71
6/30/2021 2:15:00 PM 26.23 79.214 0.498 8.13 3.83 8.52
6/30/2021 2:30:00 PM 26.18 79.124 0.498 8.14 3.68 8.54
6/30/2021 2:45:00 PM 25.86 78.548 0.498 8.11 3.74 8.34
6/30/2021 3:00:00 PM 25.67 78.206 0.499 8.08 3.69 8.22
6/30/2021 3:15:00 PM 25.55 77.99 0.499 8.06 3.96 8.13
6/30/2021 3:30:00 PM 25.35 77.63 0.499 8.06 3.65 8
6/30/2021 3:45:00 PM 25.13 77.234 0.5 8.05 4.27 7.88
6/30/2021 4:00:00 PM 24.98 76.964 0.5 8.01 4.03 7.7
6/30/2021 4:15:00 PM 24.38 75.884 0.441 8 35.2 7.65
6/30/2021 4:30:00 PM 24.26 75.668 0.457 7.96 8.24 7.72
6/30/2021 4:45:00 PM 24.14 75.452 0.454 7.9 5.91 7.65
6/30/2021 5:00:00 PM 24.01 75.218 0.454 7.86 6.45 7.53
6/30/2021 5:15:00 PM 23.88 74.984 0.453 7.85 7.54 7.51
6/30/2021 5:30:00 PM 23.77 74.786 0.451 7.84 6.71 7.57
6/30/2021 5:45:00 PM 23.69 74.642 0.45 7.84 6.91 7.58
6/30/2021 6:00:00 PM 23.62 74.516 0.454 7.83 8.8 7.62
6/30/2021 6:15:00 PM 23.59 74.462 0.452 7.81 18.82 7.62
6/30/2021 6:30:00 PM 23.45 74.21 0.437 7.8 25.87 7.64
6/30/2021 6:45:00 PM 23.25 73.85 0.427 7.78 24.34 7.68
6/30/2021 7:00:00 PM 23.1 73.58 0.422 7.77 30.23 7.66
6/30/2021 7:15:00 PM 23.03 73.454 0.426 7.76 36.73 7.7
6/30/2021 7:30:00 PM 23.02 73.436 0.43 7.77 37.02 7.65
6/30/2021 7:45:00 PM 23.04 73.472 0.436 7.77 29.75 7.67
6/30/2021 8:00:00 PM 23.03 73.454 0.44 7.78 25.29 7.71
6/30/2021 8:15:00 PM 23.01 73.418 0.444 7.78 20.84 7.67
6/30/2021 8:30:00 PM 22.97 73.346 0.447 7.77 29.09 7.67
6/30/2021 8:45:00 PM 22.92 73.256 0.451 7.77 26.01 7.67
6/30/2021 9:00:00 PM 22.87 73.166 0.456 7.76 23.29 7.66
6/30/2021 9:15:00 PM 22.8 73.04 0.462 7.75 21.45 7.66
6/30/2021 9:30:00 PM 22.75 72.95 0.468 7.75 20.22 7.61
6/30/2021 9:45:00 PM 22.68 72.824 0.475 7.74 17.14 7.64
6/30/2021 10:00:00 PM 22.61 72.698 0.482 7.73 15.19 7.68
6/30/2021 10:15:00 PM 22.56 72.608 0.488 7.72 13.23 7.68
6/30/2021 10:30:00 PM 22.5 72.5 0.492 7.71 11.43 7.68
6/30/2021 10:45:00 PM 22.46 72.42799 0.495 7.7 11 7.69
6/30/2021 11:00:00 PM 22.42 72.356 0.496 7.71 9.71 7.67
6/30/2021 11:15:00 PM 22.39 72.302 0.496 7.71 10.22 7.71
6/30/2021 11:30:00 PM 22.36 72.248 0.494 7.71 10.18 7.7
6/30/2021 11:45:00 PM 22.33 72.194 0.492 7.71 11.35 7.7
7/1/2021 12:00:00 AM 22.3 72.14 0.489 7.71 10.1 7.73
7/1/2021 12:15:00 AM 22.26 72.068 0.487 7.71 9.75 7.72
7/1/2021 12:30:00 AM 22.23 72.014 0.485 7.71 10.24 7.74
7/1/2021 12:45:00 AM 22.2 71.96 0.483 7.71 9.23 7.73
7/1/2021 1:00:00 AM 22.16 71.888 0.482 7.71 9.32 7.74
7/1/2021 1:15:00 AM 22.11 71.798 0.481 7.71 10.4 7.76
7/1/2021 1:30:00 AM 22.07 71.726 0.481 7.71 9.37 7.77
7/1/2021 1:45:00 AM 22.03 71.654 0.481 7.71 8.72 7.76
7/1/2021 2:00:00 AM 21.98 71.564 0.481 7.71 9.99 7.79
7/1/2021 2:15:00 AM 21.94 71.492 0.481 7.72 8.71 7.82
7/1/2021 2:30:00 AM 21.89 71.402 0.482 7.72 8.61 7.84
7/1/2021 2:45:00 AM 21.84 71.312 0.482 7.72 8.25 7.84
7/1/2021 3:00:00 AM 21.8 71.24 0.483 7.72 7.9 7.84
7/1/2021 3:15:00 AM 21.77 71.186 0.484 7.72 8.69 7.84
7/1/2021 3:30:00 AM 21.72 71.096 0.485 7.73 8.11 7.86
7/1/2021 3:45:00 AM 21.69 71.042 0.486 7.73 8.03 7.87
7/1/2021 4:00:00 AM 21.65 70.97 0.487 7.73 8.24 7.87
7/1/2021 4:15:00 AM 21.62 70.916 0.489 7.73 7.73 7.88
7/1/2021 4:30:00 AM 21.58 70.844 0.49 7.73 7.06 7.87
7/1/2021 4:45:00 AM 21.55 70.79 0.491 7.73 7.75 7.87
7/1/2021 5:00:00 AM 21.5 70.7 0.491 7.73 8.59 7.9
7/1/2021 5:15:00 AM 21.47 70.646 0.492 7.73 7.46 7.9
7/1/2021 5:30:00 AM 21.44 70.592 0.492 7.73 7.81 7.91
7/1/2021 5:45:00 AM 21.41 70.538 0.49 7.73 7.35 7.9
7/1/2021 6:00:00 AM 21.37 70.466 0.488 7.73 8.9 7.91
7/1/2021 6:15:00 AM 21.34 70.412 0.486 7.73 7.23 7.91
7/1/2021 6:30:00 AM 21.3 70.34 0.484 7.73 7.44 7.93
7/1/2021 6:45:00 AM 21.27 70.286 0.482 7.72 7.71 7.95
7/1/2021 7:00:00 AM 21.25 70.25 0.48 7.72 7.25 7.95
7/1/2021 7:15:00 AM 21.22 70.196 0.479 7.72 7.35 7.96
7/1/2021 7:30:00 AM 21.19 70.142 0.476 7.73 7.39 8.02
7/1/2021 7:45:00 AM 21.16 70.088 0.473 7.73 7.47 8
7/1/2021 8:00:00 AM 21.14 70.052 0.471 7.73 7.54 8.06
7/1/2021 8:15:00 AM 21.12 70.016 0.469 7.73 6.93 8.02
7/1/2021 8:30:00 AM 21.1 69.98 0.467 7.73 7.57 8.08
7/1/2021 8:45:00 AM 21.08 69.944 0.467 7.73 11.4 8.08
7/1/2021 9:00:00 AM 21.08 69.944 0.466 7.72 7.76 8.16
7/1/2021 9:15:00 AM 21.09 69.962 0.466 7.73 7.91 8.2
7/1/2021 9:30:00 AM 21.09 69.962 0.465 7.74 7.81 8.27
7/1/2021 9:45:00 AM 21.1 69.98 0.466 7.75 7.54 8.33
7/1/2021 10:00:00 AM 21.15 70.07 0.466 7.76 7.76 8.43
7/1/2021 10:15:00 AM 21.12 70.016 0.465 7.78 8.33 8.42
7/1/2021 10:30:00 AM 21.16 70.088 0.465 7.79 8.08 8.52
7/1/2021 10:45:00 AM 21.17 70.106 0.465 7.81 11.39 8.56
7/1/2021 11:00:00 AM 21.17 70.106 0.466 7.82 9.68 8.57
7/1/2021 11:15:00 AM 21.17 70.106 0.465 7.83 7.21 8.56
7/1/2021 11:30:00 AM 21.14 70.052 0.464 7.83 7.7 8.53
7/1/2021 11:45:00 AM 21.09 69.962 0.463 7.84 7.36 8.46
7/1/2021 12:00:00 PM 21.08 69.944 0.461 7.83 7.24 8.45
7/1/2021 12:15:00 PM 21.07 69.926 0.455 7.83 7.2 8.43
7/1/2021 12:30:00 PM 21.05 69.89 0.451 7.82 7.87 8.45
7/1/2021 12:45:00 PM 21.04 69.872 0.45 7.82 8.59 8.47
7/1/2021 1:00:00 PM 21 69.8 0.448 7.81 7.8 8.44
7/1/2021 1:15:00 PM 20.98 69.764 0.448 7.8 8.65 8.41
7/1/2021 1:30:00 PM 20.98 69.764 0.448 7.79 8.81 8.44
7/1/2021 1:45:00 PM 20.96 69.728 0.449 7.79 9.12 8.45
7/1/2021 2:00:00 PM 20.97 69.746 0.448 7.79 10.43 8.48
7/1/2021 2:15:00 PM 20.95 69.71 0.446 7.79 10.71 8.53
7/1/2021 2:30:00 PM 20.94 69.692 0.443 7.79 10.52 8.56
7/1/2021 2:45:00 PM 21 69.8 0.437 7.79 12.82 8.65
7/1/2021 3:00:00 PM 20.95 69.71 0.433 7.8 15.86 8.69
7/1/2021 3:15:00 PM 20.87 69.566 0.431 7.8 20.39 8.63
7/1/2021 3:30:00 PM 20.86 69.548 0.431 7.8 19.05 8.6
7/1/2021 3:45:00 PM 20.89 69.602 0.432 7.81 19.98 8.64
7/1/2021 4:00:00 PM 20.89 69.602 0.433 7.81 18.25 8.61
7/1/2021 4:15:00 PM 20.91 69.638 0.436 7.82 16.76 8.6
7/1/2021 4:30:00 PM 20.92 69.656 0.439 7.82 24.37 8.58
7/1/2021 4:45:00 PM 20.93 69.674 0.443 7.82 20.11 8.56
7/1/2021 5:00:00 PM 20.92 69.656 0.447 7.82 16.49 8.54
7/1/2021 5:15:00 PM 20.93 69.674 0.45 7.82 16.09 8.53
7/1/2021 5:30:00 PM 20.93 69.674 0.452 7.82 14 8.51
7/1/2021 5:45:00 PM 20.93 69.674 0.454 7.81 12.29 8.49
7/1/2021 6:00:00 PM 20.91 69.638 0.454 7.81 13.17 8.44
7/1/2021 6:15:00 PM 20.9 69.62 0.453 7.81 12.29 8.4
7/1/2021 6:30:00 PM 20.88 69.584 0.451 7.81 11.7 8.39
7/1/2021 6:45:00 PM 20.86 69.548 0.449 7.81 13.64 8.38
7/1/2021 7:00:00 PM 20.84 69.512 0.448 7.8 13.44 8.33
7/1/2021 7:15:00 PM 20.82 69.476 0.447 7.8 13 8.34
7/1/2021 7:30:00 PM 20.79 69.422 0.445 7.8 15.94 8.32
7/1/2021 7:45:00 PM 20.76 69.368 0.444 7.8 11.23 8.3
7/1/2021 8:00:00 PM 20.72 69.296 0.442 7.8 12.14 8.3
7/1/2021 8:15:00 PM 20.67 69.206 0.441 7.8 10.95 8.24
7/1/2021 8:30:00 PM 20.63 69.134 0.439 7.79 11.05 8.24
7/1/2021 8:45:00 PM 20.58 69.044 0.438 7.79 10.23 8.24
7/1/2021 9:00:00 PM 20.53 68.954 0.437 7.8 13.49 8.23
7/1/2021 9:15:00 PM 20.48 68.864 0.435 7.79 12.33 8.15
7/1/2021 9:30:00 PM 20.43 68.774 0.434 7.79 11.83 8.23
7/1/2021 9:45:00 PM 20.38 68.684 0.433 7.79 13.64 8.22
7/1/2021 10:00:00 PM 20.33 68.594 0.432 7.78 13.35 8.2
7/1/2021 10:15:00 PM 20.28 68.504 0.431 7.78 14.06 8.2
7/1/2021 10:30:00 PM 20.22 68.396 0.431 7.78 15.26 8.22
7/1/2021 10:45:00 PM 20.17 68.306 0.431 7.78 13.59 8.24
7/1/2021 11:00:00 PM 20.12 68.216 0.431 7.78 16.13 8.21
7/1/2021 11:15:00 PM 20.08 68.144 0.432 7.78 12.06 8.25
7/1/2021 11:30:00 PM 20.04 68.07201 0.433 7.78 14.36 8.22
7/1/2021 11:45:00 PM 20 68 0.434 7.78 15.85 8.25
7/2/2021 12:00:00 AM 19.95 67.91 0.434 7.78 16.46 8.25
7/2/2021 12:15:00 AM 19.92 67.856 0.435 7.78 15.96 8.22
7/2/2021 12:30:00 AM 19.88 67.784 0.435 7.78 17.86 8.27
7/2/2021 12:45:00 AM 19.83 67.694 0.436 7.78 23.62 8.23
7/2/2021 1:00:00 AM 19.79 67.622 0.438 7.79 19.78 8.27
7/2/2021 1:15:00 AM 19.74 67.532 0.439 7.79 19.36 8.23
7/2/2021 1:30:00 AM 19.69 67.442 0.44 7.8 22.39 8.31
7/2/2021 1:45:00 AM 19.65 67.37 0.44 7.8 20.49 8.25
7/2/2021 2:00:00 AM 19.62 67.316 0.44 7.8 22.37 8.3
7/2/2021 2:15:00 AM 19.57 67.226 0.44 7.8 20.09 8.22
7/2/2021 2:30:00 AM 19.53 67.154 0.441 7.8 19.08 8.3
7/2/2021 2:45:00 AM 19.49 67.082 0.442 7.81 19.86 8.32
7/2/2021 3:00:00 AM 19.46 67.028 0.444 7.81 19.49 8.27
7/2/2021 3:15:00 AM 19.42 66.956 0.446 7.81 19.09 8.27
7/2/2021 3:30:00 AM 19.39 66.902 0.448 7.81 22.75 8.29
7/2/2021 3:45:00 AM 19.36 66.848 0.449 7.81 17.57 8.28
7/2/2021 4:00:00 AM 19.32 66.776 0.45 7.82 15.45 8.28
7/2/2021 4:15:00 AM 19.29 66.722 0.451 7.82 15.39 8.38
7/2/2021 4:30:00 AM 19.25 66.65 0.451 7.82 17.6 8.34
7/2/2021 4:45:00 AM 19.21 66.578 0.452 7.82 17.3 8.35
7/2/2021 5:00:00 AM 19.18 66.524 0.452 7.82 13.98 8.4
7/2/2021 5:15:00 AM 19.14 66.452 0.453 7.83 16.44 8.35
7/2/2021 5:30:00 AM 19.1 66.38 0.454 7.82 14.61 8.38
7/2/2021 5:45:00 AM 19.05 66.29 0.455 7.83 16.54 8.36
7/2/2021 6:00:00 AM 19.01 66.218 0.456 7.83 14.84 8.38
7/2/2021 6:15:00 AM 18.98 66.164 0.457 7.83 13.3 8.38
7/2/2021 6:30:00 AM 18.94 66.092 0.459 7.83 13.41 8.41
7/2/2021 6:45:00 AM 18.9 66.02 0.46 7.83 11.84 8.49
7/2/2021 7:00:00 AM 18.86 65.948 0.461 7.83 13.07 8.49
7/2/2021 7:15:00 AM 18.83 65.894 0.463 7.84 12.35 8.44
7/2/2021 7:30:00 AM 18.8 65.84 0.464 7.84 12.73 8.53
7/2/2021 7:45:00 AM 18.8 65.84 0.465 7.83 9.74 8.6
7/2/2021 8:00:00 AM 18.8 65.84 0.466 7.84 11.68 8.56
7/2/2021 8:15:00 AM 18.79 65.82201 0.467 7.85 10.12 8.58
7/2/2021 8:30:00 AM 18.81 65.858 0.468 7.85 10.61 8.65
7/2/2021 8:45:00 AM 18.79 65.82201 0.47 7.87 10.95 8.76
7/2/2021 9:00:00 AM 18.84 65.912 0.471 7.87 13 8.72
7/2/2021 9:15:00 AM 18.85 65.93 0.472 7.89 10.09 8.78
7/2/2021 9:30:00 AM 18.86 65.948 0.473 7.89 12.95 8.83
7/2/2021 9:45:00 AM 19 66.2 0.474 7.9 8.02 8.83
7/2/2021 10:00:00 AM 19.14 66.452 0.474 7.91 20.61 8.94
7/2/2021 10:15:00 AM 19.2 66.56 0.475 7.93 7.67 8.97
7/2/2021 10:30:00 AM 19.24 66.632 0.475 7.94 7.92 9
7/2/2021 10:45:00 AM 19.25 66.65 0.475 7.94 7.29 9.02
7/2/2021 11:00:00 AM 19.45 67.01 0.475 7.95 7.3 8.97
7/2/2021 11:15:00 AM 19.5 67.1 0.475 7.96 8.27 9.03
7/2/2021 11:30:00 AM 19.56 67.208 0.476 7.96 7.76 9.05
7/2/2021 11:45:00 AM 19.73 67.514 0.476 7.97 7.43 9.02
7/2/2021 12:00:00 PM 19.75 67.55 0.476 7.97 7.8 9.04
7/2/2021 12:15:00 PM 19.98 67.964 0.475 7.99 11.5 9.05
7/2/2021 12:30:00 PM 20.23 68.414 0.475 7.99 7.4 9.12
7/2/2021 12:45:00 PM 20.45 68.81 0.474 8.01 7.35 9.04
7/2/2021 1:00:00 PM 20.65 69.17 0.474 8.02 7.83 9.16
7/2/2021 1:15:00 PM 20.92 69.656 0.473 8.03 7.4 9.11
7/2/2021 1:30:00 PM 21 69.8 0.473 8.04 7.52 9.07
7/2/2021 1:45:00 PM 21.2 70.16 0.472 8.05 7.78 9.1
7/2/2021 2:00:00 PM 21.37 70.466 0.472 8.06 13.37 9.15
7/2/2021 2:15:00 PM 21.61 70.898 0.472 8.06 12.86 9.12
7/2/2021 2:30:00 PM 21.82 71.276 0.471 8.07 10.96 9.1
7/2/2021 2:45:00 PM 22.06 71.708 0.471 8.06 12.92 9.12
7/2/2021 3:00:00 PM 22.21 71.978 0.47 8.06 14.35 9.12
7/2/2021 3:15:00 PM 22.21 71.978 0.47 8.07 7 9.06
7/2/2021 3:30:00 PM 21.84 71.312 0.47 8.08 11.65 8.86
7/2/2021 3:45:00 PM 21.71 71.078 0.469 8.08 6.18 8.77
7/2/2021 4:00:00 PM 22 71.6 0.469 8.08 6.46 8.79
7/2/2021 4:15:00 PM 22.2 71.96 0.469 8.09 6.49 8.87
7/2/2021 4:30:00 PM 22.25 72.05 0.468 8.09 6.67 8.77
7/2/2021 4:45:00 PM 22.22 71.996 0.469 8.1 6.75 8.87
7/2/2021 5:00:00 PM 22.17 71.906 0.468 8.1 16.31 8.86
7/2/2021 5:15:00 PM 22.14 71.852 0.468 8.1 6.49 8.8
7/2/2021 5:30:00 PM 22.08 71.744 0.467 8.1 6.69 8.76
7/2/2021 5:45:00 PM 22.01 71.618 0.467 8.08 7.05 8.73
7/2/2021 6:00:00 PM 22.01 71.618 0.466 8.08 6.46 8.69
7/2/2021 6:15:00 PM 21.94 71.492 0.465 8.08 6.45 8.63
7/2/2021 6:30:00 PM 21.79 71.222 0.464 8.07 6.67 8.56
7/2/2021 6:45:00 PM 21.62 70.916 0.464 8.06 10.92 8.47
7/2/2021 7:00:00 PM 21.41 70.538 0.463 8.05 6.2 8.38
7/2/2021 7:15:00 PM 21.2 70.16 0.462 8.04 5.95 8.32
7/2/2021 7:30:00 PM 21.05 69.89 0.461 8.03 6.97 8.28
7/2/2021 7:45:00 PM 20.92 69.656 0.46 8.01 6.64 8.33
7/2/2021 8:00:00 PM 20.83 69.494 0.459 8 6.44 8.26
7/2/2021 8:15:00 PM 20.76 69.368 0.457 7.99 6.82 8.24
7/2/2021 8:30:00 PM 20.7 69.26 0.456 7.98 6.72 8.26
7/2/2021 8:45:00 PM 20.64 69.152 0.454 7.97 6.74 8.25
7/2/2021 9:00:00 PM 20.57 69.026 0.453 7.96 10.49 8.21
7/2/2021 9:15:00 PM 20.51 68.918 0.451 7.95 6.54 8.23
7/2/2021 9:30:00 PM 20.44 68.792 0.449 7.94 6.73 8.19
7/2/2021 9:45:00 PM 20.37 68.666 0.448 7.93 6.75 8.19
7/2/2021 10:00:00 PM 20.27 68.486 0.446 7.92 7.21 8.2
7/2/2021 10:15:00 PM 20.18 68.324 0.445 7.91 8.09 8.17
7/2/2021 10:30:00 PM 20.08 68.144 0.443 7.9 6.94 8.14
7/2/2021 10:45:00 PM 19.99 67.982 0.441 7.9 7.01 8.16
7/2/2021 11:00:00 PM 19.9 67.82 0.44 7.89 6.81 8.18
7/2/2021 11:15:00 PM 19.8 67.64 0.438 7.88 8.02 8.25
7/2/2021 11:30:00 PM 19.67 67.406 0.436 7.87 7.92 8.24
7/2/2021 11:45:00 PM 19.56 67.208 0.435 7.87 7.06 8.2
7/3/2021 12:00:00 AM 19.46 67.028 0.434 7.86 7.79 8.27
7/3/2021 12:15:00 AM 19.33 66.794 0.432 7.86 8.06 8.26
7/3/2021 12:30:00 AM 19.23 66.614 0.431 7.86 9.7 8.28
7/3/2021 12:45:00 AM 19.13 66.434 0.43 7.85 7.98 8.29
7/3/2021 1:00:00 AM 19.04 66.272 0.429 7.84 7.88 8.35
7/3/2021 1:15:00 AM 18.92 66.056 0.428 7.84 8.19 8.38
7/3/2021 1:30:00 AM 18.82 65.876 0.428 7.84 8.09 8.38
7/3/2021 1:45:00 AM 18.72 65.696 0.427 7.83 7.78 8.39
7/3/2021 2:00:00 AM 18.62 65.516 0.426 7.82 7.34 8.41
7/3/2021 2:15:00 AM 18.53 65.354 0.425 7.82 8.47 8.43
7/3/2021 2:30:00 AM 18.44 65.192 0.424 7.82 7.7 8.46
7/3/2021 2:45:00 AM 18.38 65.084 0.424 7.82 7.51 8.41
7/3/2021 3:00:00 AM 18.31 64.958 0.423 7.82 8.54 8.43
7/3/2021 3:15:00 AM 18.25 64.85 0.423 7.81 8.52 8.52
7/3/2021 3:30:00 AM 18.18 64.724 0.423 7.81 8.26 8.51
7/3/2021 3:45:00 AM 18.13 64.634 0.423 7.81 7.25 8.52
7/3/2021 4:00:00 AM 18.08 64.544 0.423 7.81 8.31 8.55
7/3/2021 4:15:00 AM 18.02 64.436 0.424 7.8 7.32 8.54
7/3/2021 4:30:00 AM 17.98 64.364 0.424 7.8 7.88 8.57
7/3/2021 4:45:00 AM 17.92 64.256 0.424 7.8 8 8.59
7/3/2021 5:00:00 AM 17.88 64.184 0.424 7.8 8.1 8.58
7/3/2021 5:15:00 AM 17.83 64.094 0.424 7.8 9.23 8.6
7/3/2021 5:30:00 AM 17.79 64.022 0.425 7.8 7.58 8.62
7/3/2021 5:45:00 AM 17.73 63.914 0.425 7.8 8.19 8.64
7/3/2021 6:00:00 AM 17.69 63.842 0.425 7.8 8.28 8.61
7/3/2021 6:15:00 AM 17.65 63.77 0.425 7.79 7.83 8.64
7/3/2021 6:30:00 AM 17.61 63.698 0.426 7.79 7.81 8.66
7/3/2021 6:45:00 AM 17.59 63.662 0.426 7.8 7.33 8.69
7/3/2021 7:00:00 AM 17.55 63.59 0.426 7.79 7.69 8.73
7/3/2021 7:15:00 AM 17.52 63.536 0.426 7.79 7.94 8.75
7/3/2021 7:30:00 AM 17.5 63.5 0.427 7.8 7.79 8.79
7/3/2021 7:45:00 AM 17.48 63.464 0.427 7.8 7.77 8.78
7/3/2021 8:00:00 AM 17.45 63.41 0.427 7.8 7.53 8.83
7/3/2021 8:15:00 AM 17.44 63.392 0.427 7.8 7.38 8.88
7/3/2021 8:30:00 AM 17.46 63.428 0.427 7.81 7.3 8.93
7/3/2021 8:45:00 AM 17.54 63.572 0.427 7.82 7.33 8.99
7/3/2021 9:00:00 AM 17.64 63.752 0.427 7.83 7.79 9.09
7/3/2021 9:15:00 AM 17.69 63.842 0.426 7.86 6.9 9.21
7/3/2021 9:30:00 AM 17.77 63.986 0.426 7.87 7.26 9.27
7/3/2021 9:45:00 AM 17.82 64.076 0.426 7.88 7.02 9.39
7/3/2021 10:00:00 AM 17.88 64.184 0.425 7.89 7.29 9.42
7/3/2021 10:15:00 AM 18.01 64.418 0.425 7.9 6.69 9.47
7/3/2021 10:30:00 AM 18.19 64.742 0.425 7.92 6.82 9.54
7/3/2021 10:45:00 AM 18.32 64.976 0.425 7.94 6.67 9.59
7/3/2021 11:00:00 AM 18.43 65.174 0.424 7.96 6.95 9.62
7/3/2021 11:15:00 AM 18.53 65.354 0.424 7.98 6.35 9.61
7/3/2021 11:30:00 AM 18.7 65.66 0.424 7.98 6.65 9.62
7/3/2021 11:45:00 AM 18.91 66.038 0.424 8 6.57 9.63
7/3/2021 12:00:00 PM 19.07 66.326 0.423 8.01 6.5 9.7
7/3/2021 12:15:00 PM 19.07 66.326 0.423 8.02 6.32 9.64
7/3/2021 12:30:00 PM 19.38 66.884 0.423 8.01 6.21 9.62
7/3/2021 12:45:00 PM 19.57 67.226 0.422 8.02 6.32 9.66
7/3/2021 1:00:00 PM 19.62 67.316 0.422 8.03 6.31 9.58
7/3/2021 1:15:00 PM 19.49 67.082 0.421 8.03 6.03 9.55
7/3/2021 1:30:00 PM 19.46 67.028 0.42 8.04 6.36 9.52
7/3/2021 1:45:00 PM 19.67 67.406 0.42 8.01 6.3 9.54
7/3/2021 2:00:00 PM 19.85 67.73 0.42 8.03 6.19 9.54
7/3/2021 2:15:00 PM 19.98 67.964 0.42 8.04 6.3 9.49
7/3/2021 2:30:00 PM 20.39 68.702 0.42 8.05 6.09 9.57
7/3/2021 2:45:00 PM 20.56 69.008 0.419 8.03 6.29 9.52
7/3/2021 3:00:00 PM 20.81 69.458 0.419 8.07 6.47 9.52
7/3/2021 3:15:00 PM 21.08 69.944 0.419 8.08 6.08 9.51
7/3/2021 3:30:00 PM 21.21 70.17799 0.418 8.09 7.06 9.42
7/3/2021 3:45:00 PM 21.4 70.52 0.418 8.09 6.21 9.42
7/3/2021 4:00:00 PM 21.34 70.412 0.418 8.11 6.4 9.35
7/3/2021 4:15:00 PM 21.22 70.196 0.418 8.1 6.1 9.26
7/3/2021 4:30:00 PM 21.09 69.962 0.418 8.1 6.38 9.18
7/3/2021 4:45:00 PM 21.1 69.98 0.417 8.09 5.82 9.15
7/3/2021 5:00:00 PM 21.15 70.07 0.417 8.1 6.19 9.12
7/3/2021 5:15:00 PM 21.29 70.32201 0.417 8.1 8.78 9.13
7/3/2021 5:30:00 PM 21.4 70.52 0.417 8.11 20.08 9.14
7/3/2021 5:45:00 PM 21.4 70.52 0.416 8.1 6.2 9.03
7/3/2021 6:00:00 PM 21.41 70.538 0.416 8.11 6.4 9
7/3/2021 6:15:00 PM 21.33 70.394 0.416 8.09 6.24 8.92
7/3/2021 6:30:00 PM 21.26 70.268 0.416 8.1 5.83 8.83
7/3/2021 6:45:00 PM 21.21 70.17799 0.416 8.09 6.14 8.76
7/3/2021 7:00:00 PM 21.12 70.016 0.416 8.07 6.38 8.66
7/3/2021 7:15:00 PM 21.08 69.944 0.416 8.06 6.21 8.64
7/3/2021 7:30:00 PM 21.02 69.836 0.416 8.05 6.02 8.66
7/3/2021 7:45:00 PM 20.91 69.638 0.416 8.05 6.59 8.56
7/3/2021 8:00:00 PM 20.82 69.476 0.416 8.03 6.42 8.53
7/3/2021 8:15:00 PM 20.73 69.314 0.416 8.02 6.75 8.49
7/3/2021 8:30:00 PM 20.66 69.188 0.416 8 6.75 8.38
7/3/2021 8:45:00 PM 20.58 69.044 0.416 7.99 6.52 8.36
7/3/2021 9:00:00 PM 20.5 68.9 0.416 7.97 6.51 8.31
7/3/2021 9:15:00 PM 20.42 68.756 0.417 7.96 6.42 8.26
7/3/2021 9:30:00 PM 20.35 68.63 0.417 7.94 11.14 8.24
7/3/2021 9:45:00 PM 20.28 68.504 0.417 7.93 6.52 8.23
7/3/2021 10:00:00 PM 20.21 68.378 0.417 7.92 6.78 8.24
7/3/2021 10:15:00 PM 20.12 68.216 0.418 7.91 6.44 8.19
7/3/2021 10:30:00 PM 20.04 68.07201 0.418 7.9 6.31 8.22
7/3/2021 10:45:00 PM 19.95 67.91 0.418 7.89 6.74 8.24
7/3/2021 11:00:00 PM 19.86 67.748 0.419 7.88 6.85 8.23
7/3/2021 11:15:00 PM 19.76 67.568 0.419 7.87 6.77 8.24
7/3/2021 11:30:00 PM 19.67 67.406 0.419 7.87 6.79 8.24
7/3/2021 11:45:00 PM 19.58 67.244 0.42 7.86 6.78 8.29
7/4/2021 12:00:00 AM 19.48 67.064 0.42 7.86 6.88 8.29
7/4/2021 12:15:00 AM 19.38 66.884 0.42 7.85 6.68 8.28
7/4/2021 12:30:00 AM 19.27 66.686 0.421 7.85 6.59 8.3
7/4/2021 12:45:00 AM 19.17 66.506 0.421 7.84 6.68 8.32
7/4/2021 1:00:00 AM 19.05 66.29 0.422 7.83 6.95 8.36
7/4/2021 1:15:00 AM 18.96 66.128 0.422 7.83 6.69 8.34
7/4/2021 1:30:00 AM 18.84 65.912 0.422 7.83 6.62 8.37
7/4/2021 1:45:00 AM 18.72 65.696 0.423 7.83 6.54 8.42
7/4/2021 2:00:00 AM 18.61 65.498 0.424 7.82 6.68 8.42
7/4/2021 2:15:00 AM 18.49 65.282 0.424 7.82 6.63 8.43
7/4/2021 2:30:00 AM 18.38 65.084 0.424 7.81 6.53 8.46
7/4/2021 2:45:00 AM 18.26 64.868 0.425 7.81 9.62 8.47
7/4/2021 3:00:00 AM 18.15 64.67 0.425 7.81 9.39 8.52
7/4/2021 3:15:00 AM 18.06 64.508 0.426 7.8 7.32 8.54
7/4/2021 3:30:00 AM 17.98 64.364 0.426 7.8 8.01 8.54
7/4/2021 3:45:00 AM 17.88 64.184 0.427 7.8 6.9 8.57
7/4/2021 4:00:00 AM 17.8 64.04 0.427 7.8 6.71 8.58
7/4/2021 4:15:00 AM 17.71 63.878 0.428 7.8 6.42 8.62
7/4/2021 4:30:00 AM 17.61 63.698 0.428 7.79 7.14 8.62
7/4/2021 4:45:00 AM 17.52 63.536 0.429 7.8 7.05 8.64
7/4/2021 5:00:00 AM 17.44 63.392 0.429 7.79 6.62 8.67
7/4/2021 5:15:00 AM 17.35 63.23 0.43 7.8 6.41 8.65
7/4/2021 5:30:00 AM 17.28 63.104 0.43 7.8 6.65 8.7
7/4/2021 5:45:00 AM 17.2 62.96 0.43 7.79 6.8 8.72
7/4/2021 6:00:00 AM 17.11 62.798 0.431 7.79 8.08 8.75
7/4/2021 6:15:00 AM 17.04 62.672 0.431 7.79 7.1 8.79
7/4/2021 6:30:00 AM 16.96 62.528 0.431 7.79 6.92 8.79
7/4/2021 6:45:00 AM 16.89 62.402 0.432 7.79 6.89 8.84
7/4/2021 7:00:00 AM 16.84 62.312 0.432 7.79 6.84 8.86
7/4/2021 7:15:00 AM 16.79 62.222 0.432 7.79 7.07 8.94
7/4/2021 7:30:00 AM 16.77 62.186 0.432 7.8 6.58 8.96
7/4/2021 7:45:00 AM 16.76 62.168 0.433 7.8 6.65 9.01
7/4/2021 8:00:00 AM 16.72 62.096 0.433 7.8 6.52 9.03
7/4/2021 8:15:00 AM 16.71 62.078 0.433 7.8 6.87 9.06
7/4/2021 8:30:00 AM 16.7 62.06 0.433 7.81 6.28 9.01
7/4/2021 8:45:00 AM 16.73 62.114 0.433 7.82 6.54 9.1
7/4/2021 9:00:00 AM 16.79 62.222 0.433 7.82 6.67 9.15
7/4/2021 9:15:00 AM 16.88 62.384 0.433 7.83 6.68 9.22
7/4/2021 9:30:00 AM 16.98 62.564 0.433 7.84 6.57 9.29
7/4/2021 9:45:00 AM 17.1 62.78 0.433 7.85 6.49 9.32
7/4/2021 10:00:00 AM 17.26 63.068 0.433 7.86 6.63 9.38
7/4/2021 10:15:00 AM 17.43 63.374 0.433 7.85 6.67 9.34
7/4/2021 10:30:00 AM 17.69 63.842 0.433 7.88 6.42 9.44
7/4/2021 10:45:00 AM 17.96 64.328 0.434 7.87 6.54 9.5
7/4/2021 11:00:00 AM 18.17 64.706 0.433 7.91 6.48 9.48
7/4/2021 11:15:00 AM 18.52 65.336 0.433 7.91 8.32 9.5
7/4/2021 11:30:00 AM 18.82 65.876 0.434 7.92 6.31 9.52
7/4/2021 11:45:00 AM 19.07 66.326 0.434 7.92 6.56 9.47
7/4/2021 12:00:00 PM 19.43 66.974 0.434 7.95 6.66 9.57
7/4/2021 12:15:00 PM 19.66 67.388 0.434 7.97 6.62 9.57
7/4/2021 12:30:00 PM 19.91 67.838 0.434 7.97 6.89 9.57
7/4/2021 12:45:00 PM 20.13 68.234 0.433 7.99 6.21 9.51
7/4/2021 1:00:00 PM 20.46 68.828 0.433 7.99 6.79 9.54
7/4/2021 1:15:00 PM 20.71 69.278 0.433 7.99 6 9.53
7/4/2021 1:30:00 PM 20.61 69.098 0.433 8.03 7.12 9.49
7/4/2021 1:45:00 PM 20.84 69.512 0.433 8.02 6.26 9.5
7/4/2021 2:00:00 PM 21.13 70.034 0.433 8.04 6.33 9.51
7/4/2021 2:15:00 PM 21.2 70.16 0.433 8.04 5.99 9.44
7/4/2021 2:30:00 PM 21.27 70.286 0.433 8.06 6.15 9.4
7/4/2021 2:45:00 PM 21.71 71.078 0.434 8.06 6.98 9.42
7/4/2021 3:00:00 PM 22.11 71.798 0.434 8.06 6.21 9.44
7/4/2021 3:15:00 PM 22.38 72.284 0.435 8.08 6.31 9.45
7/4/2021 3:30:00 PM 22.8 73.04 0.435 8.08 6.09 9.41
7/4/2021 3:45:00 PM 22.89 73.202 0.436 8.1 6.25 9.32
7/4/2021 4:00:00 PM 22.83 73.094 0.437 8.1 6.03 9.25
7/4/2021 4:15:00 PM 23.07 73.526 0.437 8.1 6.4 9.26
7/4/2021 4:30:00 PM 23.12 73.616 0.437 8.11 6.35 9.19
7/4/2021 4:45:00 PM 23.33 73.994 0.437 8.12 6.23 9.19
7/4/2021 5:00:00 PM 23.37 74.066 0.436 8.12 7 9.18
7/4/2021 5:15:00 PM 23.33 73.994 0.436 8.13 6.11 9.16
7/4/2021 5:30:00 PM 23.19 73.742 0.436 8.13 5.92 9
7/4/2021 5:45:00 PM 23.1 73.58 0.436 8.13 6.28 8.9
7/4/2021 6:00:00 PM 23 73.4 0.436 8.13 6.14 8.79
7/4/2021 6:15:00 PM 22.88 73.184 0.435 8.13 6.25 8.74
7/4/2021 6:30:00 PM 22.79 73.022 0.435 8.12 6.63 8.67
7/4/2021 6:45:00 PM 22.65 72.77 0.436 8.1 6.5 8.58
7/4/2021 7:00:00 PM 22.52 72.536 0.436 8.08 6.24 8.5
7/4/2021 7:15:00 PM 22.37 72.266 0.436 8.07 6.2 8.46
7/4/2021 7:30:00 PM 22.21 71.978 0.436 8.05 6.29 8.39
7/4/2021 7:45:00 PM 22.06 71.708 0.436 8.04 6.9 8.31
7/4/2021 8:00:00 PM 21.87 71.366 0.437 8.02 6.55 8.26
7/4/2021 8:15:00 PM 21.71 71.078 0.437 8 6.83 8.14
7/4/2021 8:30:00 PM 21.56 70.808 0.437 7.99 6.59 8.06
7/4/2021 8:45:00 PM 21.43 70.574 0.437 7.96 6.49 8.11
7/4/2021 9:00:00 PM 21.33 70.394 0.437 7.93 9.23 8.01
7/4/2021 9:15:00 PM 21.18 70.124 0.437 7.94 6.43 8.07
7/4/2021 9:30:00 PM 21.08 69.944 0.437 7.92 6.55 8.04
7/4/2021 9:45:00 PM 21 69.8 0.437 7.91 5.98 8.01
7/4/2021 10:00:00 PM 20.91 69.638 0.437 7.9 6.15 7.99
7/4/2021 10:15:00 PM 20.83 69.494 0.437 7.9 6.31 8
7/4/2021 10:30:00 PM 20.76 69.368 0.436 7.89 6.29 8.03
7/4/2021 10:45:00 PM 20.69 69.242 0.436 7.89 6.04 8.02
7/4/2021 11:00:00 PM 20.65 69.17 0.436 7.88 6.74 8.02
7/4/2021 11:15:00 PM 20.6 69.08 0.436 7.87 6.2 8.05
7/4/2021 11:30:00 PM 20.53 68.954 0.436 7.87 6.52 8.03
7/4/2021 11:45:00 PM 20.47 68.846 0.436 7.86 6.51 8.02
7/5/2021 12:00:00 AM 20.42 68.756 0.436 7.85 6.21 8.03
7/5/2021 12:15:00 AM 20.32 68.576 0.437 7.85 6.21 7.99
7/5/2021 12:30:00 AM 20.25 68.45 0.437 7.85 6.09 8.06
7/5/2021 12:45:00 AM 20.17 68.306 0.437 7.84 6.17 8.01
7/5/2021 1:00:00 AM 20.09 68.162 0.437 7.85 6.05 8.1
7/5/2021 1:15:00 AM 19.99 67.982 0.437 7.83 6.23 8.13
7/5/2021 1:30:00 AM 19.91 67.838 0.437 7.83 6.97 8.16
7/5/2021 1:45:00 AM 19.8 67.64 0.437 7.82 6.24 8.09
7/5/2021 2:00:00 AM 19.72 67.496 0.437 7.82 10.23 8.16
7/5/2021 2:15:00 AM 19.62 67.316 0.437 7.81 6.07 8.19
7/5/2021 2:30:00 AM 19.52 67.136 0.437 7.82 6.21 8.22
7/5/2021 2:45:00 AM 19.42 66.956 0.438 7.81 6.85 8.22
7/5/2021 3:00:00 AM 19.31 66.758 0.438 7.81 6.2 8.26
7/5/2021 3:15:00 AM 19.2 66.56 0.438 7.81 6.16 8.27
7/5/2021 3:30:00 AM 19.09 66.362 0.438 7.81 6.17 8.27
7/5/2021 3:45:00 AM 19 66.2 0.438 7.81 6.32 8.35
7/5/2021 4:00:00 AM 18.89 66.002 0.439 7.8 6.26 8.28
7/5/2021 4:15:00 AM 18.79 65.82201 0.439 7.8 6.94 8.33
7/5/2021 4:30:00 AM 18.69 65.642 0.439 7.8 6.34 8.35
7/5/2021 4:45:00 AM 18.58 65.444 0.439 7.8 6.07 8.42
7/5/2021 5:00:00 AM 18.49 65.282 0.44 7.8 6.29 8.45
7/5/2021 5:15:00 AM 18.4 65.12 0.44 7.79 6.32 8.43
7/5/2021 5:30:00 AM 18.32 64.976 0.44 7.79 6.35 8.47
7/5/2021 5:45:00 AM 18.25 64.85 0.44 7.79 6.52 8.46
7/5/2021 6:00:00 AM 18.19 64.742 0.441 7.79 6.79 8.52
7/5/2021 6:15:00 AM 18.13 64.634 0.441 7.78 6.33 8.55
7/5/2021 6:30:00 AM 18.07 64.526 0.441 7.79 8.48 8.52
7/5/2021 6:45:00 AM 18.01 64.418 0.441 7.79 6.79 8.62
7/5/2021 7:00:00 AM 17.97 64.346 0.441 7.79 6.36 8.69
7/5/2021 7:15:00 AM 17.93 64.274 0.441 7.8 6.24 8.75
7/5/2021 7:30:00 AM 17.9 64.22 0.441 7.81 6.41 8.82
7/5/2021 7:45:00 AM 17.89 64.202 0.441 7.81 6.19 8.86
7/5/2021 8:00:00 AM 17.88 64.184 0.44 7.82 5.88 8.89
7/5/2021 8:15:00 AM 17.88 64.184 0.44 7.83 6.26 8.97
7/5/2021 8:30:00 AM 17.89 64.202 0.44 7.85 6.11 9.07
7/5/2021 8:45:00 AM 17.92 64.256 0.44 7.85 6.59 9.05
7/5/2021 9:00:00 AM 17.96 64.328 0.44 7.86 6.2 9.13
7/5/2021 9:15:00 AM 18.05 64.49 0.44 7.87 6.36 9.19
7/5/2021 9:30:00 AM 18.15 64.67 0.44 7.88 5.9 9.23
7/5/2021 9:45:00 AM 18.29 64.922 0.439 7.89 6.62 9.29
7/5/2021 10:00:00 AM 18.44 65.192 0.439 7.92 6.2 9.39
7/5/2021 10:15:00 AM 18.63 65.534 0.439 7.93 6.19 9.47
7/5/2021 10:30:00 AM 18.86 65.948 0.439 7.96 6.09 9.49
7/5/2021 10:45:00 AM 19.09 66.362 0.439 7.97 5.97 9.57
7/5/2021 11:00:00 AM 19.4 66.92 0.439 8 7.95 9.58
7/5/2021 11:15:00 AM 19.67 67.406 0.439 8.01 6.07 9.6
7/5/2021 11:30:00 AM 19.97 67.946 0.439 8.04 5.74 9.64
7/5/2021 11:45:00 AM 20.22 68.396 0.439 8.06 6.08 9.59
7/5/2021 12:00:00 PM 20.47 68.846 0.439 8.07 5.8 9.66
7/5/2021 12:15:00 PM 20.82 69.476 0.438 8.08 5.83 9.63
7/5/2021 12:30:00 PM 21.07 69.926 0.438 8.09 5.92 9.65
7/5/2021 12:45:00 PM 21.42 70.556 0.439 8.12 6.43 9.67
7/5/2021 1:00:00 PM 21.67 71.006 0.439 8.11 5.87 9.65
7/5/2021 1:15:00 PM 21.86 71.348 0.439 8.12 5.44 9.61
7/5/2021 1:30:00 PM 22.16 71.888 0.439 8.13 5.67 9.63
7/5/2021 1:45:00 PM 22.38 72.284 0.439 8.15 5.87 9.59
7/5/2021 2:00:00 PM 22.59 72.662 0.439 8.15 5.86 9.54
7/5/2021 2:15:00 PM 22.78 73.004 0.439 8.17 5.65 9.56
7/5/2021 2:30:00 PM 23.03 73.454 0.439 8.18 5.6 9.59
7/5/2021 2:45:00 PM 23.38 74.084 0.439 8.2 5.63 9.45
7/5/2021 3:00:00 PM 23.54 74.372 0.439 8.19 5.42 9.5
7/5/2021 3:15:00 PM 23.68 74.624 0.439 8.19 5.54 9.45
7/5/2021 3:30:00 PM 23.86 74.948 0.439 8.21 5.53 9.34
7/5/2021 3:45:00 PM 24.02 75.236 0.44 8.2 5.82 9.31
7/5/2021 4:00:00 PM 24.15 75.47 0.44 8.21 5.68 9.26
7/5/2021 4:15:00 PM 24.16 75.488 0.44 8.21 5.75 9.23
7/5/2021 4:30:00 PM 24.25 75.65 0.44 8.2 5.82 9.21
7/5/2021 4:45:00 PM 24.22 75.596 0.44 8.21 6.16 9.07
7/5/2021 5:00:00 PM 24.18 75.524 0.44 8.2 5.64 8.99
7/5/2021 5:15:00 PM 24.12 75.416 0.44 8.2 88.26 8.92
7/5/2021 5:30:00 PM 24.14 75.452 0.44 8.19 18.79 8.8
7/5/2021 5:45:00 PM 24.08 75.344 0.44 8.2 5.83 8.83
7/5/2021 6:00:00 PM 24.03 75.254 0.44 8.2 13.34 8.69
7/5/2021 6:15:00 PM 23.97 75.146 0.44 8.19 5.67 8.67
7/5/2021 6:30:00 PM 23.9 75.02 0.44 8.18 5.92 8.61
7/5/2021 6:45:00 PM 23.83 74.894 0.44 8.17 21.44 8.56
7/5/2021 7:00:00 PM 23.71 74.67799 0.44 8.15 5.66 8.44
7/5/2021 7:15:00 PM 23.62 74.516 0.44 8.14 5.75 8.31
7/5/2021 7:30:00 PM 23.5 74.3 0.441 8.11 6.09 8.21
7/5/2021 7:45:00 PM 23.38 74.084 0.441 8.08 5.94 8.24
7/5/2021 8:00:00 PM 23.26 73.868 0.441 8.06 6.08 8.15
7/5/2021 8:15:00 PM 23.16 73.688 0.442 8.02 5.77 8.06
7/5/2021 8:30:00 PM 23.03 73.454 0.442 8 5.67 7.87
7/5/2021 8:45:00 PM 22.93 73.274 0.442 7.98 5.93 7.88
7/5/2021 9:00:00 PM 22.83 73.094 0.442 7.95 5.71 7.81
7/5/2021 9:15:00 PM 22.74 72.932 0.442 7.93 6.11 7.73
7/5/2021 9:30:00 PM 22.67 72.806 0.443 7.91 5.7 7.75
7/5/2021 9:45:00 PM 22.6 72.68 0.443 7.89 5.78 7.74
7/5/2021 10:00:00 PM 22.55 72.59 0.443 7.89 6.01 7.75
7/5/2021 10:15:00 PM 22.49 72.482 0.443 7.88 6.02 7.68
7/5/2021 10:30:00 PM 22.43 72.374 0.443 7.86 5.82 7.65
7/5/2021 10:45:00 PM 22.37 72.266 0.443 7.86 6.05 7.67
7/5/2021 11:00:00 PM 22.32 72.176 0.443 7.85 5.92 7.67
7/5/2021 11:15:00 PM 22.27 72.086 0.443 7.85 5.72 7.71
7/5/2021 11:30:00 PM 22.21 71.978 0.443 7.84 5.71 7.6
7/5/2021 11:45:00 PM 22.17 71.906 0.443 7.84 6.17 7.6
7/6/2021 12:00:00 AM 22.12 71.816 0.443 7.83 5.9 7.71
7/6/2021 12:15:00 AM 22.07 71.726 0.443 7.83 5.95 7.73
7/6/2021 12:30:00 AM 22.02 71.636 0.443 7.82 5.84 7.67
7/6/2021 12:45:00 AM 21.98 71.564 0.443 7.82 6.15 7.67
7/6/2021 1:00:00 AM 21.91 71.438 0.443 7.81 6.03 7.72
7/6/2021 1:15:00 AM 21.87 71.366 0.444 7.81 6.06 7.75
7/6/2021 1:30:00 AM 21.81 71.258 0.444 7.81 6.08 7.73
7/6/2021 1:45:00 AM 21.75 71.15 0.444 7.8 5.98 7.76
7/6/2021 2:00:00 AM 21.71 71.078 0.444 7.8 5.64 7.77
7/6/2021 2:15:00 AM 21.65 70.97 0.444 7.79 5.78 7.73
7/6/2021 2:30:00 AM 21.59 70.862 0.445 7.8 5.98 7.79
7/6/2021 2:45:00 AM 21.52 70.736 0.445 7.79 6.02 7.8
7/6/2021 3:00:00 AM 21.45 70.61 0.445 7.79 6.21 7.81
7/6/2021 3:15:00 AM 21.38 70.484 0.445 7.79 7.05 7.75
7/6/2021 3:30:00 AM 21.31 70.358 0.446 7.78 6.12 7.9
7/6/2021 3:45:00 AM 21.23 70.214 0.446 7.77 6 7.84
7/6/2021 4:00:00 AM 21.15 70.07 0.446 7.77 5.95 7.85
7/6/2021 4:15:00 AM 21.07 69.926 0.447 7.78 6 7.91
7/6/2021 4:30:00 AM 21 69.8 0.447 7.77 6.13 7.82
7/6/2021 4:45:00 AM 20.93 69.674 0.447 7.77 6.34 7.89
7/6/2021 5:00:00 AM 20.85 69.53 0.448 7.76 6.14 7.9
7/6/2021 5:15:00 AM 20.78 69.404 0.448 7.77 6.18 7.92
7/6/2021 5:30:00 AM 20.69 69.242 0.448 7.76 6.43 7.92
7/6/2021 5:45:00 AM 20.61 69.098 0.449 7.76 6.32 7.77
7/6/2021 6:00:00 AM 20.53 68.954 0.449 7.75 6.75 8.01
7/6/2021 6:15:00 AM 20.46 68.828 0.449 7.76 6.22 8.01
7/6/2021 6:30:00 AM 20.4 68.72 0.449 7.74 6.5 8.01
7/6/2021 6:45:00 AM 20.35 68.63 0.45 7.76 6.68 8.09
7/6/2021 7:00:00 AM 20.3 68.54 0.45 7.75 6.66 8.15
7/6/2021 7:15:00 AM 20.28 68.504 0.45 7.77 6.27 8.2
7/6/2021 7:30:00 AM 20.28 68.504 0.45 7.78 6.35 8.3
7/6/2021 7:45:00 AM 20.28 68.504 0.451 7.78 6.59 8.39
7/6/2021 8:00:00 AM 20.28 68.504 0.452 7.78 6.68 8.15
7/6/2021 8:15:00 AM 20.29 68.522 0.451 7.8 6.46 8.43
7/6/2021 8:30:00 AM 20.31 68.558 0.451 7.82 6.14 8.62
7/6/2021 8:45:00 AM 20.34 68.612 0.451 7.83 6.39 8.62
7/6/2021 9:00:00 AM 20.41 68.738 0.451 7.83 6.12 8.71
7/6/2021 9:15:00 AM 20.49 68.882 0.451 7.83 6.38 8.79
7/6/2021 9:30:00 AM 20.59 69.062 0.451 7.84 6.07 8.82
7/6/2021 9:45:00 AM 20.74 69.332 0.452 7.88 6.28 8.86
7/6/2021 10:00:00 AM 20.88 69.584 0.451 7.9 6.67 8.96
7/6/2021 10:15:00 AM 21.04 69.872 0.451 7.91 6.14 9
7/6/2021 10:30:00 AM 21.25 70.25 0.451 7.95 6.92 9.08
7/6/2021 10:45:00 AM 21.49 70.682 0.451 7.97 6.04 9.05
7/6/2021 11:00:00 AM 21.7 71.06 0.451 7.99 6.09 9.18
7/6/2021 11:15:00 AM 21.93 71.474 0.451 8.02 6.3 9.17
7/6/2021 11:30:00 AM 22.25 72.05 0.451 8.01 6.9 9.12
7/6/2021 11:45:00 AM 22.59 72.662 0.452 8.06 5.88 9.22
7/6/2021 12:00:00 PM 22.84 73.112 0.452 8.06 5.66 9.16
7/6/2021 12:15:00 PM 23.15 73.67 0.452 8.09 10.13 9.26
7/6/2021 12:30:00 PM 23.48 74.264 0.453 8.11 5.58 9.24
7/6/2021 12:45:00 PM 23.74 74.732 0.452 8.11 5.59 9.22
7/6/2021 1:00:00 PM 23.98 75.164 0.452 8.14 5.41 9.2
7/6/2021 1:15:00 PM 24.34 75.812 0.453 8.14 5.5 9.25
7/6/2021 1:30:00 PM 24.56 76.208 0.453 8.13 5.58 9.25
7/6/2021 1:45:00 PM 24.66 76.388 0.453 8.14 5.54 9.19
7/6/2021 2:00:00 PM 25.04 77.07201 0.453 8.15 5.89 9.22
7/6/2021 2:15:00 PM 25.23 77.414 0.453 8.17 5.57 9.19
7/6/2021 2:30:00 PM 25.21 77.378 0.453 8.17 5.46 9.15
7/6/2021 2:45:00 PM 25.16 77.288 0.453 8.18 5.68 9.08
7/6/2021 3:00:00 PM 24.99 76.982 0.454 8.18 5.5 8.84
7/6/2021 3:15:00 PM 24.98 76.964 0.454 8.19 5.68 8.94
7/6/2021 3:30:00 PM 25.01 77.018 0.454 8.18 5.47 8.96
7/6/2021 3:45:00 PM 25.11 77.198 0.454 8.18 5.51 8.93
7/6/2021 4:00:00 PM 25.21 77.378 0.454 8.19 5.41 8.89
7/6/2021 4:15:00 PM 25.23 77.414 0.454 8.19 6.56 8.87
7/6/2021 4:30:00 PM 25.45 77.81 0.454 8.2 5.69 8.88
7/6/2021 4:45:00 PM 25.51 77.918 0.454 8.2 5.5 8.8
7/6/2021 5:00:00 PM 25.6 78.08 0.454 8.18 5.25 8.8
7/6/2021 5:15:00 PM 25.68 78.224 0.454 8.21 5.44 8.71
7/6/2021 5:30:00 PM 25.68 78.224 0.454 8.21 5.65 8.64
7/6/2021 5:45:00 PM 25.63 78.134 0.454 8.2 5.53 8.56
7/6/2021 6:00:00 PM 25.56 78.008 0.455 8.19 5.33 8.48
7/6/2021 6:15:00 PM 25.51 77.918 0.455 8.19 5.45 8.38
7/6/2021 6:30:00 PM 25.44 77.792 0.455 8.18 5.37 8.26
7/6/2021 6:45:00 PM 25.38 77.684 0.455 8.16 6.53 8.18
7/6/2021 7:00:00 PM 25.31 77.558 0.455 8.15 6.79 8.08
7/6/2021 7:15:00 PM 25.23 77.414 0.456 8.13 5.42 8.04
7/6/2021 7:30:00 PM 25.13 77.234 0.456 8.11 5.19 7.98
7/6/2021 7:45:00 PM 25.02 77.036 0.456 8.09 5.72 7.89
7/6/2021 8:00:00 PM 24.85 76.73 0.457 8.06 5.4 7.76
7/6/2021 8:15:00 PM 24.72 76.496 0.457 8.04 5.41 7.68
7/6/2021 8:30:00 PM 24.56 76.208 0.458 8 5.61 7.59
7/6/2021 8:45:00 PM 24.45 76.01 0.458 7.97 5.86 7.43
7/6/2021 9:00:00 PM 24.31 75.758 0.458 7.95 5.76 7.44
7/6/2021 9:15:00 PM 24.17 75.506 0.459 7.94 5.83 7.39
7/6/2021 9:30:00 PM 24.07 75.326 0.459 7.92 5.64 7.41
7/6/2021 9:45:00 PM 23.97 75.146 0.459 7.9 5.8 7.4
7/6/2021 10:00:00 PM 23.87 74.966 0.459 7.89 5.96 7.39
7/6/2021 10:15:00 PM 23.78 74.804 0.459 7.88 5.95 7.4
7/6/2021 10:30:00 PM 23.71 74.67799 0.459 7.87 5.74 7.43
7/6/2021 10:45:00 PM 23.62 74.516 0.459 7.86 5.78 7.4
7/6/2021 11:00:00 PM 23.57 74.426 0.459 7.85 6.01 7.41
7/6/2021 11:15:00 PM 23.55 74.39 0.459 7.84 5.51 7.39
7/6/2021 11:30:00 PM 23.47 74.246 0.459 7.84 5.64 7.45
7/6/2021 11:45:00 PM 23.38 74.084 0.459 7.84 5.72 7.45
7/7/2021 12:00:00 AM 23.3 73.94 0.459 7.84 5.94 7.38
7/7/2021 12:15:00 AM 23.22 73.796 0.459 7.83 5.55 7.42
7/7/2021 12:30:00 AM 23.15 73.67 0.459 7.83 5.72 7.48
7/7/2021 12:45:00 AM 23.08 73.544 0.459 7.82 5.71 7.45
7/7/2021 1:00:00 AM 23.02 73.436 0.46 7.82 6.21 7.43
7/7/2021 1:15:00 AM 22.95 73.31 0.46 7.81 6.01 7.41
7/7/2021 1:30:00 AM 22.88 73.184 0.46 7.8 5.51 7.48
7/7/2021 1:45:00 AM 22.82 73.076 0.46 7.8 6.11 7.51
7/7/2021 2:00:00 AM 22.76 72.968 0.46 7.8 5.61 7.42
7/7/2021 2:15:00 AM 22.68 72.824 0.46 7.79 6.34 7.42
7/7/2021 2:30:00 AM 22.61 72.698 0.46 7.79 5.84 7.53
7/7/2021 2:45:00 AM 22.55 72.59 0.461 7.79 5.98 7.46
7/7/2021 3:00:00 AM 22.47 72.446 0.461 7.78 5.94 7.56
7/7/2021 3:15:00 AM 22.41 72.338 0.461 7.78 6.23 7.55
7/7/2021 3:30:00 AM 22.34 72.212 0.461 7.78 5.95 7.58
7/7/2021 3:45:00 AM 22.26 72.068 0.462 7.78 5.93 7.57
7/7/2021 4:00:00 AM 22.18 71.924 0.462 7.78 5.99 7.59
7/7/2021 4:15:00 AM 22.11 71.798 0.462 7.77 5.91 7.61
7/7/2021 4:30:00 AM 22.02 71.636 0.463 7.77 6.15 7.51
7/7/2021 4:45:00 AM 21.94 71.492 0.463 7.77 7.41 7.47
7/7/2021 5:00:00 AM 21.86 71.348 0.449 7.76 8.99 7.68
7/7/2021 5:15:00 AM 21.79 71.222 0.463 7.76 9.47 7.66
7/7/2021 5:30:00 AM 21.7 71.06 0.464 7.76 5.97 7.68
7/7/2021 5:45:00 AM 21.61 70.898 0.464 7.75 6.51 7.75
7/7/2021 6:00:00 AM 21.54 70.772 0.464 7.75 6.45 7.73
7/7/2021 6:15:00 AM 21.47 70.646 0.465 7.76 6.24 7.77
7/7/2021 6:30:00 AM 21.4 70.52 0.465 7.74 6.24 7.53
7/7/2021 6:45:00 AM 21.35 70.43 0.466 7.76 6.33 7.86
7/7/2021 7:00:00 AM 21.32 70.376 0.466 7.78 6.05 7.89
7/7/2021 7:15:00 AM 21.3 70.34 0.466 7.79 6.06 8.03
7/7/2021 7:30:00 AM 21.28 70.304 0.466 7.79 5.81 8.08
7/7/2021 7:45:00 AM 21.26 70.268 0.467 7.79 5.96 8.09
7/7/2021 8:00:00 AM 21.26 70.268 0.467 7.8 6.14 8.2
7/7/2021 8:15:00 AM 21.26 70.268 0.467 7.8 6.39 8.25
7/7/2021 8:30:00 AM 21.26 70.268 0.467 7.8 5.88 8.22
7/7/2021 8:45:00 AM 21.28 70.304 0.468 7.82 5.9 8.4
7/7/2021 9:00:00 AM 21.32 70.376 0.468 7.81 6.37 8.21
7/7/2021 9:15:00 AM 21.38 70.484 0.468 7.84 6.33 8.44
7/7/2021 9:30:00 AM 21.46 70.628 0.468 7.87 5.81 8.64
7/7/2021 9:45:00 AM 21.57 70.826 0.469 7.89 5.96 8.51
7/7/2021 10:00:00 AM 21.73 71.114 0.469 7.9 6.2 8.79
7/7/2021 10:15:00 AM 21.87 71.366 0.469 7.92 5.85 8.83
7/7/2021 10:30:00 AM 22.1 71.78 0.469 7.96 5.95 8.87
7/7/2021 10:45:00 AM 22.36 72.248 0.469 7.97 5.87 8.96
7/7/2021 11:00:00 AM 22.63 72.734 0.469 8.01 5.7 8.94
7/7/2021 11:15:00 AM 22.78 73.004 0.47 8.02 6.06 8.98
7/7/2021 11:30:00 AM 22.91 73.238 0.469 8.05 5.82 9.04
7/7/2021 11:45:00 AM 23.11 73.598 0.47 8.05 6.05 8.93
7/7/2021 12:00:00 PM 23.28 73.904 0.47 8.07 5.82 9.04
7/7/2021 12:15:00 PM 23.63 74.534 0.47 8.09 5.72 9.04
7/7/2021 12:30:00 PM 23.83 74.894 0.47 8.1 5.56 8.95
7/7/2021 12:45:00 PM 23.65 74.57 0.47 8.09 5.85 8.99
7/7/2021 1:00:00 PM 23.75 74.75 0.47 8.09 5.39 8.93
7/7/2021 1:15:00 PM 24.23 75.614 0.47 8.12 5.75 9.06
7/7/2021 1:30:00 PM 24.45 76.01 0.47 8.13 5.39 9.1
7/7/2021 1:45:00 PM 24.96 76.92799 0.47 8.14 5.42 9.11
7/7/2021 2:00:00 PM 25.11 77.198 0.47 8.14 5.33 9.06
7/7/2021 2:15:00 PM 25.45 77.81 0.47 8.15 5.75 9.14
7/7/2021 2:30:00 PM 25.47 77.846 0.47 8.17 6.04 9.06
7/7/2021 2:45:00 PM 25.64 78.152 0.47 8.16 5.57 9
7/7/2021 3:00:00 PM 25.89 78.602 0.47 8.17 5.46 8.99
7/7/2021 3:15:00 PM 25.98 78.764 0.47 8.17 5.42 8.99
7/7/2021 3:30:00 PM 26.11 78.998 0.47 8.18 5.38 8.95
7/7/2021 3:45:00 PM 26.21 79.17799 0.47 8.18 6.17 8.71
7/7/2021 4:00:00 PM 26.41 79.538 0.47 8.19 5.51 8.87
7/7/2021 4:15:00 PM 26.54 79.772 0.47 8.19 5.53 8.78
7/7/2021 4:30:00 PM 26.68 80.024 0.47 8.18 5.2 8.78
7/7/2021 4:45:00 PM 26.83 80.294 0.471 8.18 5.44 8.64
7/7/2021 5:00:00 PM 26.94 80.492 0.471 8.18 5.34 8.28
7/7/2021 5:15:00 PM 26.92 80.456 0.471 8.18 5.65 8.45
7/7/2021 5:30:00 PM 26.71 80.078 0.471 8.19 5.43 8.29
7/7/2021 5:45:00 PM 26.53 79.754 0.471 8.16 5.67 8.25
7/7/2021 6:00:00 PM 26.29 79.32201 0.472 8.16 5.88 7.84
7/7/2021 6:15:00 PM 26.1 78.98 0.472 8.11 5.6 7.89
7/7/2021 6:30:00 PM 25.85 78.53 0.473 8.09 5.48 7.69
7/7/2021 6:45:00 PM 25.59 78.062 0.473 8.05 5.25 7.48
7/7/2021 7:00:00 PM 25.31 77.558 0.47 8.03 6.84 7.44
7/7/2021 7:15:00 PM 25.14 77.252 0.469 8 5.72 7.33
7/7/2021 7:30:00 PM 25.02 77.036 0.469 7.93 6.06 7
7/7/2021 7:45:00 PM 24.86 76.748 0.469 7.89 5.8 7.29
7/7/2021 8:00:00 PM 24.74 76.532 0.469 7.92 5.39 7.26
7/7/2021 8:15:00 PM 24.62 76.316 0.47 7.92 5.49 6.89
7/7/2021 8:30:00 PM 24.52 76.136 0.47 7.91 5.49 6.96
7/7/2021 8:45:00 PM 24.4 75.92 0.471 7.9 5.69 7.29
7/7/2021 9:00:00 PM 24.3 75.74 0.471 7.88 5.85 7.24
7/7/2021 9:15:00 PM 24.24 75.632 0.472 7.87 5.35 7
7/7/2021 9:30:00 PM 24.17 75.506 0.471 7.86 5.38 7.19
7/7/2021 9:45:00 PM 24.1 75.38 0.472 7.87 5.36 7.2
7/7/2021 10:00:00 PM 24.02 75.236 0.472 7.85 5.32 7.13
7/7/2021 10:15:00 PM 23.95 75.11 0.472 7.84 5.32 7.1
7/7/2021 10:30:00 PM 23.91 75.038 0.472 7.85 5.13 7.19
7/7/2021 10:45:00 PM 23.81 74.858 0.465 7.85 6.78 7.25
7/7/2021 11:00:00 PM 23.72 74.696 0.459 7.83 6.06 7.38
7/7/2021 11:15:00 PM 23.67 74.606 0.457 7.82 6.38 7.29
7/7/2021 11:30:00 PM 23.63 74.534 0.456 7.8 8.45 7.32
7/7/2021 11:45:00 PM 23.58 74.444 0.455 7.79 6.62 7.33
7/8/2021 12:00:00 AM 23.53 74.354 0.456 7.79 7.05 7.26
7/8/2021 12:15:00 AM 23.48 74.264 0.456 7.79 7.44 7.29
7/8/2021 12:30:00 AM 23.43 74.174 0.457 7.79 6.2 7.3
7/8/2021 12:45:00 AM 23.36 74.048 0.458 7.78 7.03 7.29
7/8/2021 1:00:00 AM 23.29 73.922 0.459 7.78 6.22 7.37
7/8/2021 1:15:00 AM 23.23 73.814 0.459 7.78 7.44 7.19
7/8/2021 1:30:00 AM 23.18 73.724 0.459 7.78 7.87 7.36
7/8/2021 1:45:00 AM 23.11 73.598 0.459 7.77 7.12 7.23
7/8/2021 2:00:00 AM 23.05 73.49 0.46 7.78 14.72 7.4
7/8/2021 2:15:00 AM 22.99 73.382 0.46 7.77 10.83 7.45
7/8/2021 2:30:00 AM 22.93 73.274 0.46 7.77 8.53 7.46
7/8/2021 2:45:00 AM 22.86 73.148 0.46 7.79 8 7.49
7/8/2021 3:00:00 AM 22.79 73.022 0.46 7.78 8.62 7.45
7/8/2021 3:15:00 AM 22.72 72.896 0.461 7.79 8.3 7.2
7/8/2021 3:30:00 AM 22.65 72.77 0.462 7.78 8.41 7.52
7/8/2021 3:45:00 AM 22.6 72.68 0.463 7.79 8.82 7.59
7/8/2021 4:00:00 AM 22.55 72.59 0.464 7.78 9.19 7.51
7/8/2021 4:15:00 AM 22.48 72.464 0.465 7.78 8.92 7.34
7/8/2021 4:30:00 AM 22.4 72.32 0.466 7.78 8.43 7.57
7/8/2021 4:45:00 AM 22.32 72.176 0.468 7.78 8.5 7.52
7/8/2021 5:00:00 AM 22.24 72.032 0.469 7.78 8.46 7.46
7/8/2021 5:15:00 AM 22.17 71.906 0.47 7.77 8 7.58
7/8/2021 5:30:00 AM 22.08 71.744 0.471 7.78 8.83 7.7
7/8/2021 5:45:00 AM 22 71.6 0.472 7.77 10.19 7.57
7/8/2021 6:00:00 AM 21.93 71.474 0.472 7.77 8.65 7.65
7/8/2021 6:15:00 AM 21.85 71.33 0.473 7.76 8.59 7.58
7/8/2021 6:30:00 AM 21.79 71.222 0.473 7.77 7.86 7.66
7/8/2021 6:45:00 AM 21.74 71.132 0.473 7.78 8.06 7.68
7/8/2021 7:00:00 AM 21.68 71.024 0.472 7.79 9.59 7.83
7/8/2021 7:15:00 AM 21.62 70.916 0.472 7.78 8.63 7.68
7/8/2021 7:30:00 AM 21.57 70.826 0.471 7.79 8.67 7.75
7/8/2021 7:45:00 AM 21.54 70.772 0.471 7.79 8.42 7.74
7/8/2021 8:00:00 AM 21.52 70.736 0.471 7.8 8.69 7.92
7/8/2021 8:15:00 AM 21.51 70.718 0.47 7.81 8.42 7.85
7/8/2021 8:30:00 AM 21.52 70.736 0.47 7.81 8.4 8.01
7/8/2021 8:45:00 AM 21.54 70.772 0.47 7.82 8.62 7.9
7/8/2021 9:00:00 AM 21.55 70.79 0.47 7.84 10.15 8.16
7/8/2021 9:15:00 AM 21.56 70.808 0.47 7.84 7.68 8.23
7/8/2021 9:30:00 AM 21.59 70.862 0.471 7.86 7.84 8.31
7/8/2021 9:45:00 AM 21.64 70.952 0.472 7.87 7.85 8.52
7/8/2021 10:00:00 AM 21.66 70.988 0.474 7.88 7.66 8.48
7/8/2021 10:15:00 AM 21.65 70.97 0.476 7.87 7.86 8.3
7/8/2021 10:30:00 AM 21.64 70.952 0.477 7.88 7.94 8.53
7/8/2021 10:45:00 AM 21.7 71.06 0.478 7.89 8.11 8.38
7/8/2021 11:00:00 AM 21.76 71.168 0.478 7.89 8.1 8.59
7/8/2021 11:15:00 AM 21.78 71.204 0.478 7.9 7.82 8.62
7/8/2021 11:30:00 AM 21.84 71.312 0.478 7.93 8.02 8.68
7/8/2021 11:45:00 AM 21.82 71.276 0.477 7.91 8.08 8.69
7/8/2021 12:00:00 PM 21.82 71.276 0.476 7.92 7.68 8.66
7/8/2021 12:15:00 PM 21.88 71.384 0.474 7.94 7.57 8.44
7/8/2021 12:30:00 PM 21.91 71.438 0.473 7.95 7.77 8.78
7/8/2021 12:45:00 PM 21.96 71.528 0.471 7.95 7.72 8.83
7/8/2021 1:00:00 PM 22.04 71.672 0.469 7.95 7.72 8.83
7/8/2021 1:15:00 PM 22.08 71.744 0.467 7.95 7.67 8.88
7/8/2021 1:30:00 PM 22.1 71.78 0.466 7.97 7.95 8.8
7/8/2021 1:45:00 PM 22.15 71.87 0.465 7.99 7.85 8.84
7/8/2021 2:00:00 PM 22.17 71.906 0.464 8.01 7.77 8.85
7/8/2021 2:15:00 PM 22.3 72.14 0.463 8.01 7.85 8.84
7/8/2021 2:30:00 PM 22.3 72.14 0.462 8.01 7.69 8.84
7/8/2021 2:45:00 PM 22.33 72.194 0.462 8.03 7.68 8.84
7/8/2021 3:00:00 PM 22.45 72.41 0.461 8.02 7.84 8.99
7/8/2021 3:15:00 PM 22.58 72.644 0.461 8.04 7.74 9.03
7/8/2021 3:30:00 PM 22.77 72.986 0.461 8.07 7.65 9.04
7/8/2021 3:45:00 PM 22.9 73.22 0.46 8.08 7.88 9.09
7/8/2021 4:00:00 PM 23.33 73.994 0.461 8.09 7.62 9.13
7/8/2021 4:15:00 PM 23.38 74.084 0.461 8.1 7.72 8.94
7/8/2021 4:30:00 PM 23.3 73.94 0.461 8.12 7.74 9.02
7/8/2021 4:45:00 PM 23.24 73.832 0.461 8.13 7.99 8.84
7/8/2021 5:00:00 PM 23.21 73.778 0.461 8.11 7.44 8.92
7/8/2021 5:15:00 PM 23.16 73.688 0.46 8.11 9.85 8.86
7/8/2021 5:30:00 PM 23.14 73.652 0.46 8.12 9.46 8.78
7/8/2021 5:45:00 PM 23.09 73.562 0.46 8.11 14.05 8.68
7/8/2021 6:00:00 PM 23.14 73.652 0.459 8.09 8.15 8.66
7/8/2021 6:15:00 PM 23.14 73.652 0.459 8.07 13.3 8.51
7/8/2021 6:30:00 PM 23.06 73.508 0.459 8.08 15.25 8.5
7/8/2021 6:45:00 PM 23.01 73.418 0.459 8.06 15.44 8.46
7/8/2021 7:00:00 PM 22.94 73.292 0.46 8.05 15.34 8.2
7/8/2021 7:15:00 PM 22.85 73.13 0.46 8.03 17.28 8.21
7/8/2021 7:30:00 PM 22.78 73.004 0.46 8.01 15.1 8.2
7/8/2021 7:45:00 PM 22.69 72.842 0.461 7.99 15.49 8.01
7/8/2021 8:00:00 PM 22.61 72.698 0.46 7.96 17.09 7.91
7/8/2021 8:15:00 PM 22.54 72.57201 0.461 7.94 15.45 7.81
7/8/2021 8:30:00 PM 22.48 72.464 0.461 7.92 15.21 7.92
7/8/2021 8:45:00 PM 22.44 72.392 0.462 7.89 6.3 7.72
7/8/2021 9:00:00 PM 22.38 72.284 0.461 7.89 6.17 7.74
7/8/2021 9:15:00 PM 22.34 72.212 0.461 7.88 8.46 7.48
7/8/2021 9:30:00 PM 22.3 72.14 0.46 7.87 7.91 7.71
7/8/2021 9:45:00 PM 22.26 72.068 0.458 7.87 17.2 7.81
7/8/2021 10:00:00 PM 22.23 72.014 0.456 7.86 16.59 7.76
7/8/2021 10:15:00 PM 22.19 71.942 0.456 7.85 16.44 7.73
7/8/2021 10:30:00 PM 22.16 71.888 0.455 7.83 15.87 7.66
7/8/2021 10:45:00 PM 22.12 71.816 0.454 7.81 11.89 7.7
7/8/2021 11:00:00 PM 22.08 71.744 0.454 7.82 6.39 7.7
7/8/2021 11:15:00 PM 22.04 71.672 0.453 7.81 21.41 7.71
7/8/2021 11:30:00 PM 22.04 71.672 0.453 7.81 21.32 7.71
7/8/2021 11:45:00 PM 21.98 71.564 0.454 7.81 8.67 7.69
7/9/2021 12:00:00 AM 21.97 71.546 0.454 7.81 6.83 7.67
7/9/2021 12:15:00 AM 21.85 71.33 0.455 7.81 7.34 7.74
7/9/2021 12:30:00 AM 21.75 71.15 0.455 7.81 7.98 7.81
7/9/2021 12:45:00 AM 21.65 70.97 0.453 7.81 8.03 7.47
7/9/2021 1:00:00 AM 21.53 70.754 0.451 7.81 8.24 7.78
7/9/2021 1:15:00 AM 21.42 70.556 0.45 7.8 9 7.85
7/9/2021 1:30:00 AM 21.31 70.358 0.449 7.8 9.37 7.88
7/9/2021 1:45:00 AM 21.23 70.214 0.448 7.79 10.35 7.86
7/9/2021 2:00:00 AM 21.16 70.088 0.448 7.79 9.27 7.93
7/9/2021 2:15:00 AM 21.11 69.998 0.448 7.8 8.85 7.92
7/9/2021 2:30:00 AM 21.05 69.89 0.449 7.79 9.51 7.92
7/9/2021 2:45:00 AM 21.01 69.818 0.449 7.8 9.57 7.92
7/9/2021 3:00:00 AM 20.98 69.764 0.45 7.79 10.67 7.94
7/9/2021 3:15:00 AM 20.95 69.71 0.451 7.79 9.69 7.94
7/9/2021 3:30:00 AM 20.92 69.656 0.453 7.79 10.12 7.95
7/9/2021 3:45:00 AM 20.88 69.584 0.454 7.79 11.51 7.96
7/9/2021 4:00:00 AM 20.82 69.476 0.455 7.78 9.27 7.96
7/9/2021 4:15:00 AM 20.78 69.404 0.457 7.79 8.65 7.96
7/9/2021 4:30:00 AM 20.75 69.35 0.458 7.79 7.94 7.98
7/9/2021 4:45:00 AM 20.7 69.26 0.458 7.79 8.43 7.97
7/9/2021 5:00:00 AM 20.64 69.152 0.458 7.79 8.21 8.01
7/9/2021 5:15:00 AM 20.58 69.044 0.459 7.78 7.84 7.99
7/9/2021 5:30:00 AM 20.52 68.936 0.46 7.79 8.03 8.05
7/9/2021 5:45:00 AM 20.46 68.828 0.462 7.79 7.74 8.03
7/9/2021 6:00:00 AM 20.41 68.738 0.463 7.78 7.7 8
7/9/2021 6:15:00 AM 20.37 68.666 0.465 7.79 7.33 7.99
7/9/2021 6:30:00 AM 20.34 68.612 0.465 7.77 6.98 8.07
7/9/2021 6:45:00 AM 20.31 68.558 0.467 7.78 7.36 8.13
7/9/2021 7:00:00 AM 20.29 68.522 0.468 7.79 7.15 8.09
7/9/2021 7:15:00 AM 20.27 68.486 0.468 7.79 7.01 8.15
7/9/2021 7:30:00 AM 20.25 68.45 0.468 7.8 6.79 8.19
7/9/2021 7:45:00 AM 20.25 68.45 0.468 7.8 7.18 8.29
7/9/2021 8:00:00 AM 20.26 68.468 0.468 7.82 7 8.22
7/9/2021 8:15:00 AM 20.23 68.414 0.467 7.81 8.43 8.36
7/9/2021 8:30:00 AM 20.2 68.36 0.464 7.82 8.19 8.34
7/9/2021 8:45:00 AM 20.2 68.36 0.463 7.82 8.1 8.4
7/9/2021 9:00:00 AM 20.18 68.324 0.463 7.81 7.15 8.37
7/9/2021 9:15:00 AM 20.17 68.306 0.461 7.81 7.3 8.37
7/9/2021 9:30:00 AM 20.21 68.378 0.462 7.82 6.9 8.44
7/9/2021 9:45:00 AM 20.29 68.522 0.462 7.82 7.1 8.54
7/9/2021 10:00:00 AM 20.43 68.774 0.462 7.84 6.86 8.7
7/9/2021 10:15:00 AM 20.49 68.882 0.462 7.87 6.4 8.79
7/9/2021 10:30:00 AM 20.54 68.972 0.462 7.88 6.31 8.85
7/9/2021 10:45:00 AM 20.64 69.152 0.462 7.9 6.14 8.8
7/9/2021 11:00:00 AM 20.75 69.35 0.462 7.92 6.13 8.71
7/9/2021 11:15:00 AM 20.95 69.71 0.462 7.94 6.13 8.9
7/9/2021 11:30:00 AM 21.06 69.908 0.462 7.95 6.24 9.11
7/9/2021 11:45:00 AM 21.33 70.394 0.462 7.97 6.12 9.13
7/9/2021 12:00:00 PM 21.47 70.646 0.461 7.98 5.74 9.21
7/9/2021 12:15:00 PM 21.82 71.276 0.461 8 6.07 9.22
7/9/2021 12:30:00 PM 22.13 71.834 0.461 8.03 5.94 9.25
7/9/2021 12:45:00 PM 22.21 71.978 0.45 8.03 9 9.04
7/9/2021 1:00:00 PM 21.98 71.564 0.447 8.02 15.33 8.89
7/9/2021 1:15:00 PM 22.48 72.464 0.444 8.01 6.42 8.86
7/9/2021 1:30:00 PM 22.65 72.77 0.444 8.01 6.82 8.99
7/9/2021 1:45:00 PM 22.59 72.662 0.442 8.01 7.2 8.92
7/9/2021 2:00:00 PM 22.76 72.968 0.442 8.01 7 9.01
7/9/2021 2:15:00 PM 22.57 72.626 0.441 8 6.87 8.77
7/9/2021 2:30:00 PM 22.93 73.274 0.445 8 17.67 8.89
7/9/2021 2:45:00 PM 22.97 73.346 0.448 8 11.13 8.85
7/9/2021 3:00:00 PM 23.28 73.904 0.449 8 13.28 8.97
7/9/2021 3:15:00 PM 23.47 74.246 0.45 8.02 10.42 8.92
7/9/2021 3:30:00 PM 23.6 74.48 0.452 8.03 8.38 8.95
7/9/2021 3:45:00 PM 23.6 74.48 0.453 8.04 7.31 8.7
7/9/2021 4:00:00 PM 23.81 74.858 0.454 8.05 6.72 8.92
7/9/2021 4:15:00 PM 23.81 74.858 0.455 8.06 6.79 8.86
7/9/2021 4:30:00 PM 23.93 75.074 0.455 8.05 9.19 8.77
7/9/2021 4:45:00 PM 23.92 75.056 0.456 8.05 18.96 8.56
7/9/2021 5:00:00 PM 23.95 75.11 0.458 8.08 6.53 8.76
7/9/2021 5:15:00 PM 23.8 74.84 0.459 8.07 6.19 8.68
7/9/2021 5:30:00 PM 23.66 74.588 0.461 8.08 6.21 8.5
7/9/2021 5:45:00 PM 23.57 74.426 0.462 8.07 6.88 8.53
7/9/2021 6:00:00 PM 23.4 74.12 0.462 8.07 31.74 8.47
7/9/2021 6:15:00 PM 23.33 73.994 0.463 8.07 10.84 8.46
7/9/2021 6:30:00 PM 23.26 73.868 0.464 8.05 6.02 8.39
7/9/2021 6:45:00 PM 23.17 73.706 0.464 8.05 5.81 8.42
7/9/2021 7:00:00 PM 23.07 73.526 0.464 8.03 6.45 8.24
7/9/2021 7:15:00 PM 22.99 73.382 0.464 8.04 6.51 8.32
7/9/2021 7:30:00 PM 22.91 73.238 0.464 8.03 6.32 8.24
7/9/2021 7:45:00 PM 22.79 73.022 0.464 8.01 6.76 8.18
7/9/2021 8:00:00 PM 22.67 72.806 0.463 8 6.5 8.13
7/9/2021 8:15:00 PM 22.55 72.59 0.462 7.97 6.42 8.04
7/9/2021 8:30:00 PM 22.43 72.374 0.462 7.96 6.24 8.01
7/9/2021 8:45:00 PM 22.33 72.194 0.406 7.95 12.67 7.96
7/9/2021 9:00:00 PM 22.21 71.978 0.461 7.93 6.73 7.94
7/9/2021 9:15:00 PM 22.11 71.798 0.461 7.92 7.4 7.89
7/9/2021 9:30:00 PM 22.03 71.654 0.46 7.91 8.87 7.89
7/9/2021 9:45:00 PM 21.94 71.492 0.46 7.9 10.01 7.86
7/9/2021 10:00:00 PM 21.95 71.51 0.459 7.88 9.05 7.71
7/9/2021 10:15:00 PM 21.84 71.312 0.46 7.87 9.01 7.83
7/9/2021 10:30:00 PM 21.7 71.06 0.46 7.87 9.66 7.71
7/9/2021 10:45:00 PM 21.64 70.952 0.46 7.86 9.13 7.88
7/9/2021 11:00:00 PM 21.55 70.79 0.461 7.85 8.92 7.85
7/9/2021 11:15:00 PM 21.47 70.646 0.461 7.84 8.36 7.86
7/9/2021 11:30:00 PM 21.41 70.538 0.462 7.85 8.11 7.87
7/9/2021 11:45:00 PM 21.37 70.466 0.462 7.84 7.88 7.87
7/10/2021 12:00:00 AM 21.24 70.232 0.462 7.84 7.42 7.89
7/10/2021 12:15:00 AM 21.16 70.088 0.463 7.83 7.3 7.9
7/10/2021 12:30:00 AM 21.07 69.926 0.463 7.83 7.11 7.91
7/10/2021 12:45:00 AM 20.97 69.746 0.464 7.83 7.6 7.77
7/10/2021 1:00:00 AM 20.88 69.584 0.464 7.82 7.25 7.94
7/10/2021 1:15:00 AM 20.79 69.422 0.465 7.82 7.06 7.96
7/10/2021 1:30:00 AM 20.68 69.224 0.465 7.82 7.01 7.83
7/10/2021 1:45:00 AM 20.59 69.062 0.466 7.82 7.1 7.87
7/10/2021 2:00:00 AM 20.48 68.864 0.467 7.81 7.57 7.99
7/10/2021 2:15:00 AM 20.38 68.684 0.468 7.81 7.36 8
7/10/2021 2:30:00 AM 20.29 68.522 0.469 7.81 7.12 8.02
7/10/2021 2:45:00 AM 20.22 68.396 0.47 7.81 7.31 8.01
7/10/2021 3:00:00 AM 20.15 68.27 0.471 7.81 6.94 7.97
7/10/2021 3:15:00 AM 20.09 68.162 0.472 7.8 7.49 8.02
7/10/2021 3:30:00 AM 20.02 68.036 0.473 7.81 7.31 8.1
7/10/2021 3:45:00 AM 20.01 68.018 0.473 7.8 6.98 8.11
7/10/2021 4:00:00 AM 20.04 68.07201 0.473 7.8 6.8 8.05
7/10/2021 4:15:00 AM 19.83 67.694 0.475 7.8 7.55 8.15
7/10/2021 4:30:00 AM 19.78 67.604 0.475 7.81 7.26 8.17
7/10/2021 4:45:00 AM 19.72 67.496 0.476 7.8 8.03 8.13
7/10/2021 5:00:00 AM 19.76 67.568 0.476 7.8 9 8.15
7/10/2021 5:15:00 AM 19.79 67.622 0.476 7.8 6.86 8.06
7/10/2021 5:30:00 AM 19.77 67.586 0.476 7.8 6.7 8
7/10/2021 5:45:00 AM 19.69 67.442 0.476 7.8 6.61 8.09
7/10/2021 6:00:00 AM 19.49 67.082 0.478 7.8 8.01 7.8
7/10/2021 6:15:00 AM 19.58 67.244 0.477 7.8 6.99 8.16
7/10/2021 6:30:00 AM 19.57 67.226 0.477 7.79 7.5 7.81
7/10/2021 6:45:00 AM 19.41 66.938 0.478 7.8 7 7.99
7/10/2021 7:00:00 AM 19.46 67.028 0.478 7.81 24.91 8.24
7/10/2021 7:15:00 AM 19.41 66.938 0.479 7.82 6.58 8.03
7/10/2021 7:30:00 AM 19.45 67.01 0.479 7.83 6.37 8.32
7/10/2021 7:45:00 AM 19.45 67.01 0.479 7.83 6.37 8.14
7/10/2021 8:00:00 AM 19.53 67.154 0.48 7.84 6.08 8.43
7/10/2021 8:15:00 AM 19.45 67.01 0.48 7.86 6.18 8.08
7/10/2021 8:30:00 AM 19.49 67.082 0.48 7.86 6.71 8.48
7/10/2021 8:45:00 AM 19.48 67.064 0.48 7.88 6.44 8.41
7/10/2021 9:00:00 AM 19.53 67.154 0.48 7.89 6.15 8.78
7/10/2021 9:15:00 AM 19.51 67.118 0.48 7.9 7.13 8.57
7/10/2021 9:30:00 AM 19.58 67.244 0.481 7.92 5.89 8.84
7/10/2021 9:45:00 AM 19.68 67.424 0.482 7.93 6.08 8.63
7/10/2021 10:00:00 AM 19.75 67.55 0.48 7.95 6.11 8.67
7/10/2021 10:15:00 AM 19.87 67.766 0.48 7.96 5.87 9.02
7/10/2021 10:30:00 AM 20 68 0.48 7.99 6.41 9.09
7/10/2021 10:45:00 AM 20.19 68.342 0.48 8.01 6.63 9.06
7/10/2021 11:00:00 AM 20.38 68.684 0.48 8.02 5.64 9.28
7/10/2021 11:15:00 AM 20.52 68.936 0.48 8.04 5.56 9.06
7/10/2021 11:30:00 AM 20.64 69.152 0.48 8.04 6.25 9.18
7/10/2021 11:45:00 AM 20.94 69.692 0.468 8.04 5.71 9.25
7/10/2021 12:00:00 PM 21.15 70.07 0.48 8.06 5.55 9.18
7/10/2021 12:15:00 PM 21.35 70.43 0.48 8.08 5.38 9.08
7/10/2021 12:30:00 PM 21.52 70.736 0.481 8.09 5.84 9.15
7/10/2021 12:45:00 PM 21.77 71.186 0.48 8.1 5.63 9.45
7/10/2021 1:00:00 PM 21.86 71.348 0.48 8.12 6.46 9.04
7/10/2021 1:15:00 PM 22.24 72.032 0.481 8.13 5.13 8.97
7/10/2021 1:30:00 PM 22.47 72.446 0.481 8.12 5.06 9.41
7/10/2021 1:45:00 PM 22.9 73.22 0.481 8.14 5.14 8.84
7/10/2021 2:00:00 PM 23.42 74.156 0.481 8.14 5.21 9.25
7/10/2021 2:15:00 PM 23.69 74.642 0.481 8.14 5.17 9.32
7/10/2021 2:30:00 PM 23.82 74.876 0.481 8.15 5.29 8.96
7/10/2021 2:45:00 PM 24.03 75.254 0.481 8.13 5.24 8.86
7/10/2021 3:00:00 PM 24.2 75.56 0.481 8.16 5.15 9.2
7/10/2021 3:15:00 PM 24.1 75.38 0.481 8.18 5.34 9.11
7/10/2021 3:30:00 PM 24.21 75.578 0.481 8.17 5.15 9.16
7/10/2021 3:45:00 PM 24.43 75.974 0.481 8.17 5.42 9.13
7/10/2021 4:00:00 PM 24.42 75.956 0.481 8.18 5.13 9.07
7/10/2021 4:15:00 PM 24.5 76.1 0.482 8.16 5.38 9
7/10/2021 4:30:00 PM 24.36 75.848 0.482 8.16 5.19 8.93
7/10/2021 4:45:00 PM 24.26 75.668 0.481 8.18 5.31 8.78
7/10/2021 5:00:00 PM 24.2 75.56 0.482 8.16 5.44 8.13
7/10/2021 5:15:00 PM 24.18 75.524 0.482 8.15 5.43 8.78
7/10/2021 5:30:00 PM 24.06 75.308 0.482 8.16 5.26 8.69
7/10/2021 5:45:00 PM 23.96 75.128 0.482 8.16 5.12 8.54
7/10/2021 6:00:00 PM 23.8 74.84 0.482 8.14 5.18 8.51
7/10/2021 6:15:00 PM 23.71 74.67799 0.482 8.14 5.35 8.55
7/10/2021 6:30:00 PM 23.63 74.534 0.482 8.13 5.31 8.46
7/10/2021 6:45:00 PM 23.46 74.228 0.483 8.12 5.52 8.36
7/10/2021 7:00:00 PM 23.3 73.94 0.483 8.11 5.51 8.18
7/10/2021 7:15:00 PM 23.21 73.778 0.483 8.11 5.36 8.15
7/10/2021 7:30:00 PM 23.09 73.562 0.483 8.09 5.68 8.08
7/10/2021 7:45:00 PM 23.02 73.436 0.484 8.06 6.58 8.13
7/10/2021 8:00:00 PM 22.86 73.148 0.484 8.06 5.66 7.97
7/10/2021 8:15:00 PM 22.77 72.986 0.484 8.04 5.66 7.61
7/10/2021 8:30:00 PM 22.63 72.734 0.471 8.03 5.88 7.82
7/10/2021 8:45:00 PM 22.59 72.662 0.485 8 5.95 7.86
7/10/2021 9:00:00 PM 22.51 72.518 0.485 7.98 5.7 7.52
7/10/2021 9:15:00 PM 22.43 72.374 0.485 7.96 6.21 7.59
7/10/2021 9:30:00 PM 22.34 72.212 0.485 7.96 7.06 7.42
7/10/2021 9:45:00 PM 22.27 72.086 0.485 7.94 5.79 7.6
7/10/2021 10:00:00 PM 22.16 71.888 0.486 7.93 5.52 7.41
7/10/2021 10:15:00 PM 22.07 71.726 0.486 7.93 5.78 7.53
7/10/2021 10:30:00 PM 22.02 71.636 0.486 7.91 5.87 7.69
7/10/2021 10:45:00 PM 21.92 71.456 0.486 7.91 5.5 7.74
7/10/2021 11:00:00 PM 21.89 71.402 0.486 7.9 5.69 7.62
7/10/2021 11:15:00 PM 21.84 71.312 0.486 7.89 5.85 7.7
7/10/2021 11:30:00 PM 21.75 71.15 0.486 7.88 5.72 7.23
7/10/2021 11:45:00 PM 21.67 71.006 0.486 7.87 5.79 7.5
7/11/2021 12:00:00 AM 21.65 70.97 0.486 7.87 7.3 7.55
7/11/2021 12:15:00 AM 21.53 70.754 0.485 7.86 5.76 7.13
7/11/2021 12:30:00 AM 21.47 70.646 0.486 7.86 5.67 7.7
7/11/2021 12:45:00 AM 21.39 70.502 0.486 7.86 5.89 7.66
7/11/2021 1:00:00 AM 21.39 70.502 0.486 7.84 5.67 7.63
7/11/2021 1:15:00 AM 21.33 70.394 0.486 7.85 5.75 7.61
7/11/2021 1:30:00 AM 21.24 70.232 0.486 7.84 5.69 7.76
7/11/2021 1:45:00 AM 21.22 70.196 0.486 7.83 5.74 7.44
7/11/2021 2:00:00 AM 21.12 70.016 0.486 7.83 5.83 7.56
7/11/2021 2:15:00 AM 21.07 69.926 0.486 7.82 5.91 7.74
7/11/2021 2:30:00 AM 21.06 69.908 0.486 7.82 5.86 7.74
7/11/2021 2:45:00 AM 20.98 69.764 0.487 7.83 5.92 7.77
7/11/2021 3:00:00 AM 20.9 69.62 0.487 7.82 6.08 7.85
7/11/2021 3:15:00 AM 20.81 69.458 0.487 7.82 6.24 7.59
7/11/2021 3:30:00 AM 20.83 69.494 0.487 7.81 5.96 7.76
7/11/2021 3:45:00 AM 20.78 69.404 0.488 7.81 6.13 7.82
7/11/2021 4:00:00 AM 20.76 69.368 0.487 7.81 6.1 7.84
7/11/2021 4:15:00 AM 20.65 69.17 0.487 7.8 6.13 7.85
7/11/2021 4:30:00 AM 20.53 68.954 0.489 7.8 5.78 7.81
7/11/2021 4:45:00 AM 20.49 68.882 0.488 7.8 6.21 7.85
7/11/2021 5:00:00 AM 20.35 68.63 0.489 7.79 6.14 7.91
7/11/2021 5:15:00 AM 20.37 68.666 0.489 7.79 6.14 7.9
7/11/2021 5:30:00 AM 20.25 68.45 0.49 7.79 6.06 7.98
7/11/2021 5:45:00 AM 20.21 68.378 0.489 7.79 6.23 7.7
7/11/2021 6:00:00 AM 20.14 68.252 0.49 7.79 6.23 7.86
7/11/2021 6:15:00 AM 20.14 68.252 0.489 7.79 6.72 7.97
7/11/2021 6:30:00 AM 20.06 68.108 0.49 7.79 6.36 7.95
7/11/2021 6:45:00 AM 20.06 68.108 0.489 7.73 18.87 7.89
7/11/2021 7:00:00 AM 19.95 67.91 0.49 7.8 6.21 7.96
7/11/2021 7:15:00 AM 20.01 68.018 0.49 7.79 6.19 8.1
7/11/2021 7:30:00 AM 19.86 67.748 0.491 7.8 6.59 8.08
7/11/2021 7:45:00 AM 19.95 67.91 0.49 7.8 6.25 7.93
7/11/2021 8:00:00 AM 19.92 67.856 0.491 7.81 6.15 8.19
7/11/2021 8:15:00 AM 19.93 67.874 0.491 7.82 6.11 8.24
7/11/2021 8:30:00 AM 19.92 67.856 0.491 7.83 6.83 8.3
7/11/2021 8:45:00 AM 19.95 67.91 0.491 7.84 6.2 8.49
7/11/2021 9:00:00 AM 19.99 67.982 0.492 7.85 5.97 8.44
7/11/2021 9:15:00 AM 20.03 68.054 0.492 7.86 6.06 8.5
7/11/2021 9:30:00 AM 20.12 68.216 0.492 7.89 5.74 8.68
7/11/2021 9:45:00 AM 20.3 68.54 0.492 7.92 6.02 8.58
7/11/2021 10:00:00 AM 20.39 68.702 0.492 7.93 5.66 9.02
7/11/2021 10:15:00 AM 20.55 68.99 0.491 7.96 5.93 8.6
7/11/2021 10:30:00 AM 20.65 69.17 0.492 7.98 6.02 8.95
7/11/2021 10:45:00 AM 20.77 69.386 0.492 8 6.77 9.15
7/11/2021 11:00:00 AM 20.96 69.728 0.492 8.04 5.66 9.11
7/11/2021 11:15:00 AM 21.12 70.016 0.491 8.02 7.76 9.24
7/11/2021 11:30:00 AM 21.41 70.538 0.492 8.06 5.89 9.22
7/11/2021 11:45:00 AM 21.76 71.168 0.492 8.06 5.7 9.4
7/11/2021 12:00:00 PM 22.02 71.636 0.492 8.1 5.55 9.4
7/11/2021 12:15:00 PM 22.12 71.816 0.492 8.11 5.96 9.29
7/11/2021 12:30:00 PM 22.45 72.41 0.493 8.12 5.45 9.42
7/11/2021 12:45:00 PM 22.96 73.328 0.493 8.13 5.56 9.41
7/11/2021 1:00:00 PM 23.06 73.508 0.493 8.14 5.5 9.29
7/11/2021 1:15:00 PM 23.22 73.796 0.493 8.14 5.4 9.25
7/11/2021 1:30:00 PM 23.21 73.778 0.493 8.16 5.78 9.33
7/11/2021 1:45:00 PM 23.14 73.652 0.493 8.16 6.6 9.26
7/11/2021 2:00:00 PM 23.15 73.67 0.493 8.16 5.66 9.1
7/11/2021 2:15:00 PM 23.28 73.904 0.493 8.15 5.58 9.25
7/11/2021 2:30:00 PM 23.37 74.066 0.493 8.16 5.62 9.21
7/11/2021 2:45:00 PM 23.55 74.39 0.493 8.18 5.47 9.19
7/11/2021 3:00:00 PM 23.57 74.426 0.493 8.17 5.77 9.17
7/11/2021 3:15:00 PM 23.79 74.82201 0.494 8.17 5.57 9.17
7/11/2021 3:30:00 PM 24.04 75.272 0.493 8.18 5.53 8.97
7/11/2021 3:45:00 PM 24.1 75.38 0.493 8.18 5.53 9.11
7/11/2021 4:00:00 PM 24.02 75.236 0.472 8.19 5.53 9.04
7/11/2021 4:15:00 PM 24.06 75.308 0.459 8.18 6.21 8.63
7/11/2021 4:30:00 PM 24.13 75.434 0.487 8.18 5.48 8.59
7/11/2021 4:45:00 PM 24.05 75.29 0.493 8.17 5.37 8.75
7/11/2021 5:00:00 PM 23.94 75.092 0.493 8.16 6.05 8.71
7/11/2021 5:15:00 PM 23.76 74.768 0.493 8.14 5.66 8.48
7/11/2021 5:30:00 PM 23.61 74.498 0.493 8.12 5.67 8.32
7/11/2021 5:45:00 PM 23.54 74.372 0.492 8.1 5.7 8.19
7/11/2021 6:00:00 PM 23.44 74.192 0.491 8.08 6.13 8.01
7/11/2021 6:15:00 PM 23.3 73.94 0.467 8.04 31.28 7.94
7/11/2021 6:30:00 PM 23.21 73.778 0.476 8 6.65 7.79
7/11/2021 6:45:00 PM 23.04 73.472 0.478 7.98 5.85 7.44
7/11/2021 7:00:00 PM 22.96 73.328 0.476 7.96 6.39 7.51
7/11/2021 7:15:00 PM 22.96 73.328 0.474 7.93 5.79 7.52
7/11/2021 7:30:00 PM 22.88 73.184 0.474 7.91 5.67 7.52
7/11/2021 7:45:00 PM 22.85 73.13 0.475 7.89 5.77 7.34
7/11/2021 8:00:00 PM 22.81 73.058 0.476 7.87 5.9 7.47
7/11/2021 8:15:00 PM 22.76 72.968 0.477 7.86 5.7 7.3
7/11/2021 8:30:00 PM 22.73 72.914 0.478 7.85 5.54 7.5
7/11/2021 8:45:00 PM 22.7 72.86 0.478 7.84 5.81 7.41
7/11/2021 9:00:00 PM 22.68 72.824 0.478 7.84 6.17 7.47
7/11/2021 9:15:00 PM 22.64 72.752 0.479 7.83 6.13 7.47
7/11/2021 9:30:00 PM 22.62 72.716 0.479 7.83 6.5 7.47
7/11/2021 9:45:00 PM 22.58 72.644 0.48 7.82 6.11 7.37
7/11/2021 10:00:00 PM 22.57 72.626 0.48 7.82 6.45 7.53
7/11/2021 10:15:00 PM 22.56 72.608 0.48 7.82 5.71 7.52
7/11/2021 10:30:00 PM 22.5 72.5 0.48 7.82 5.64 7.58
7/11/2021 10:45:00 PM 22.47 72.446 0.481 7.82 6.15 7.56
7/11/2021 11:00:00 PM 22.43 72.374 0.481 7.81 5.66 7.45
7/11/2021 11:15:00 PM 22.36 72.248 0.481 7.81 5.92 7.44
7/11/2021 11:30:00 PM 22.36 72.248 0.481 7.81 5.49 7.5
7/11/2021 11:45:00 PM 22.29 72.122 0.481 7.8 5.87 7.63
7/12/2021 12:00:00 AM 22.25 72.05 0.481 7.8 5.87 7.57
7/12/2021 12:15:00 AM 22.21 71.978 0.482 7.8 5.61 7.58
7/12/2021 12:30:00 AM 22.17 71.906 0.482 7.79 5.56 7.63
7/12/2021 12:45:00 AM 22.11 71.798 0.483 7.79 6.3 7.48
7/12/2021 1:00:00 AM 22.08 71.744 0.483 7.78 5.9 7.57
7/12/2021 1:15:00 AM 22.04 71.672 0.484 7.79 5.82 7.5
7/12/2021 1:30:00 AM 22.01 71.618 0.485 7.79 5.67 7.53
7/12/2021 1:45:00 AM 21.95 71.51 0.486 7.78 6 7.67
7/12/2021 2:00:00 AM 21.91 71.438 0.487 7.78 5.66 7.66
7/12/2021 2:15:00 AM 21.93 71.474 0.487 7.78 5.82 7.59
7/12/2021 2:30:00 AM 21.87 71.366 0.488 7.77 6.09 7.69
7/12/2021 2:45:00 AM 21.85 71.33 0.488 7.77 6.2 7.7
7/12/2021 3:00:00 AM 21.78 71.204 0.488 7.77 6.2 7.62
7/12/2021 3:15:00 AM 21.74 71.132 0.489 7.77 6.56 7.61
7/12/2021 3:30:00 AM 21.71 71.078 0.489 7.77 5.85 7.62
7/12/2021 3:45:00 AM 21.65 70.97 0.489 7.76 6.15 7.63
7/12/2021 4:00:00 AM 21.58 70.844 0.489 7.76 6.09 7.79
7/12/2021 4:15:00 AM 21.55 70.79 0.489 7.76 5.79 7.75
7/12/2021 4:30:00 AM 21.48 70.664 0.489 7.75 6.1 7.64
7/12/2021 4:45:00 AM 21.41 70.538 0.489 7.76 5.92 7.81
7/12/2021 5:00:00 AM 21.37 70.466 0.489 7.76 6.61 7.75
7/12/2021 5:15:00 AM 21.32 70.376 0.489 7.76 6.48 7.78
7/12/2021 5:30:00 AM 21.28 70.304 0.489 7.74 6.29 7.78
7/12/2021 5:45:00 AM 21.21 70.17799 0.489 7.76 6.23 7.57
7/12/2021 6:00:00 AM 21.17 70.106 0.489 7.76 6.29 7.84
7/12/2021 6:15:00 AM 21.13 70.034 0.49 7.76 6.39 7.79
7/12/2021 6:30:00 AM 21.11 69.998 0.49 7.76 6.38 7.84
7/12/2021 6:45:00 AM 21.08 69.944 0.49 7.77 7.04 7.9
7/12/2021 7:00:00 AM 21.06 69.908 0.49 7.76 6.18 7.86
7/12/2021 7:15:00 AM 21.07 69.926 0.49 7.77 6.26 7.91
7/12/2021 7:30:00 AM 21.09 69.962 0.49 7.79 6.21 8.19
7/12/2021 7:45:00 AM 21.1 69.98 0.49 7.8 6.34 8.19
7/12/2021 8:00:00 AM 21.1 69.98 0.49 7.81 6.2 8.27
7/12/2021 8:15:00 AM 21.12 70.016 0.491 7.82 6.14 8.39
7/12/2021 8:30:00 AM 21.14 70.052 0.491 7.82 7.66 8.43
7/12/2021 8:45:00 AM 21.16 70.088 0.491 7.83 6.17 8.22
7/12/2021 9:00:00 AM 21.24 70.232 0.491 7.84 6.32 8.48
7/12/2021 9:15:00 AM 21.28 70.304 0.491 7.85 6.13 8.55
7/12/2021 9:30:00 AM 21.33 70.394 0.492 7.87 6.28 8.69
7/12/2021 9:45:00 AM 21.39 70.502 0.492 7.88 6.13 8.72
7/12/2021 10:00:00 AM 21.48 70.664 0.492 7.9 6.26 8.87
7/12/2021 10:15:00 AM 21.55 70.79 0.492 7.92 6.14 8.87
7/12/2021 10:30:00 AM 21.57 70.826 0.492 7.91 11.92 8.85
7/12/2021 10:45:00 AM 21.64 70.952 0.492 7.94 5.85 8.85
7/12/2021 11:00:00 AM 21.8 71.24 0.492 7.94 5.83 8.88
7/12/2021 11:15:00 AM 22.03 71.654 0.492 7.95 5.81 9.03
7/12/2021 11:30:00 AM 22.32 72.176 0.492 7.99 5.55 9.1
7/12/2021 11:45:00 AM 22.61 72.698 0.492 8 5.51 9.2
7/12/2021 12:00:00 PM 22.71 72.878 0.491 8.03 5.58 9.24
7/12/2021 12:15:00 PM 22.87 73.166 0.49 8.05 5.93 9.23
7/12/2021 12:30:00 PM 22.92 73.256 0.49 8.07 5.46 9.24
7/12/2021 12:45:00 PM 23.11 73.598 0.489 8.09 5.57 9.28
7/12/2021 1:00:00 PM 23.29 73.922 0.489 8.1 5.72 9.25
7/12/2021 1:15:00 PM 23.31 73.958 0.488 8.09 5.57 9.21
7/12/2021 1:30:00 PM 23.41 74.138 0.488 8.09 5.38 9.19
7/12/2021 1:45:00 PM 23.85 74.93 0.488 8.12 5.62 9.24
7/12/2021 2:00:00 PM 24.23 75.614 0.487 8.13 5.35 9.21
7/12/2021 2:15:00 PM 24.11 75.398 0.487 8.14 6.24 9.11
7/12/2021 2:30:00 PM 24.29 75.722 0.487 8.13 5.43 9.04
7/12/2021 2:45:00 PM 24.67 76.406 0.487 8.13 5.38 9.05
7/12/2021 3:00:00 PM 24.84 76.712 0.487 8.14 5.54 8.97
7/12/2021 3:15:00 PM 24.89 76.802 0.486 8.15 5.75 8.93
7/12/2021 3:30:00 PM 25.09 77.162 0.487 8.14 5.12 8.9
7/12/2021 3:45:00 PM 25.37 77.666 0.487 8.13 5.68 8.83
7/12/2021 4:00:00 PM 25.21 77.378 0.488 8.15 5.66 8.77
7/12/2021 4:15:00 PM 25.06 77.108 0.488 8.15 5.56 8.7
7/12/2021 4:30:00 PM 24.88 76.784 0.488 8.13 6.01 8.48
7/12/2021 4:45:00 PM 25.03 77.054 0.488 8.12 5.24 8.54
7/12/2021 5:00:00 PM 24.95 76.91 0.487 8.13 5.67 8.49
7/12/2021 5:15:00 PM 24.83 76.694 0.487 8.11 5.93 8.43
7/12/2021 5:30:00 PM 24.77 76.586 0.485 8.11 5.64 8.29
7/12/2021 5:45:00 PM 24.88 76.784 0.484 8.1 5.62 8.32
7/12/2021 6:00:00 PM 24.89 76.802 0.484 8.1 5.4 8.35
7/12/2021 6:15:00 PM 24.86 76.748 0.484 8.1 5.75 8.28
7/12/2021 6:30:00 PM 24.83 76.694 0.483 8.09 5.8 8.34
7/12/2021 6:45:00 PM 24.84 76.712 0.483 8.09 5.48 8.19
7/12/2021 7:00:00 PM 24.79 76.622 0.483 8.09 5.52 8.2
7/12/2021 7:15:00 PM 24.73 76.514 0.483 8.08 5.73 8.13
7/12/2021 7:30:00 PM 24.64 76.352 0.483 8.07 5.72 8.05
7/12/2021 7:45:00 PM 24.52 76.136 0.483 8.05 6.46 7.94
7/12/2021 8:00:00 PM 24.45 76.01 0.483 8.03 5.65 7.9
7/12/2021 8:15:00 PM 24.38 75.884 0.484 8.01 5.65 7.81
7/12/2021 8:30:00 PM 24.26 75.668 0.484 7.99 6.14 7.75
7/12/2021 8:45:00 PM 24.18 75.524 0.484 7.96 6.11 7.68
7/12/2021 9:00:00 PM 24.13 75.434 0.484 7.94 5.84 7.47
7/12/2021 9:15:00 PM 24.05 75.29 0.484 7.92 5.77 7.55
7/12/2021 9:30:00 PM 23.99 75.182 0.484 7.9 6.04 7.47
7/12/2021 9:45:00 PM 23.98 75.164 0.484 7.89 6.01 7.5
7/12/2021 10:00:00 PM 23.9 75.02 0.484 7.88 6.09 7.52
7/12/2021 10:15:00 PM 23.85 74.93 0.484 7.87 5.85 7.43
7/12/2021 10:30:00 PM 23.79 74.82201 0.484 7.86 5.94 7.48
7/12/2021 10:45:00 PM 23.73 74.714 0.484 7.85 6.31 7.44
7/12/2021 11:00:00 PM 23.68 74.624 0.484 7.84 5.78 7.5
7/12/2021 11:15:00 PM 23.62 74.516 0.484 7.84 5.88 7.48
7/12/2021 11:30:00 PM 23.6 74.48 0.484 7.84 5.79 7.46
7/12/2021 11:45:00 PM 23.57 74.426 0.484 7.83 6.03 7.51
7/13/2021 12:00:00 AM 23.51 74.318 0.484 7.83 5.79 7.48
7/13/2021 12:15:00 AM 23.48 74.264 0.484 7.83 6.1 7.47
7/13/2021 12:30:00 AM 23.44 74.192 0.484 7.83 5.81 7.51
7/13/2021 12:45:00 AM 23.38 74.084 0.484 7.82 6.14 7.53
7/13/2021 1:00:00 AM 23.32 73.976 0.484 7.81 6.01 7.5
7/13/2021 1:15:00 AM 23.26 73.868 0.484 7.81 5.96 7.52
7/13/2021 1:30:00 AM 23.2 73.76 0.484 7.8 5.94 7.53
7/13/2021 1:45:00 AM 23.15 73.67 0.484 7.8 5.98 7.53
7/13/2021 2:00:00 AM 23.1 73.58 0.484 7.8 5.97 7.56
7/13/2021 2:15:00 AM 23.04 73.472 0.485 7.8 6.24 7.51
7/13/2021 2:30:00 AM 23.01 73.418 0.485 7.79 5.83 7.53
7/13/2021 2:45:00 AM 22.92 73.256 0.485 7.79 6.44 7.54
7/13/2021 3:00:00 AM 22.89 73.202 0.486 7.8 5.9 7.58
7/13/2021 3:15:00 AM 22.81 73.058 0.486 7.79 6.53 7.6
7/13/2021 3:30:00 AM 22.78 73.004 0.486 7.79 6.32 7.46
7/13/2021 3:45:00 AM 22.73 72.914 0.486 7.78 6.16 7.62
7/13/2021 4:00:00 AM 22.68 72.824 0.487 7.79 5.93 7.65
7/13/2021 4:15:00 AM 22.62 72.716 0.487 7.79 6.49 7.66
7/13/2021 4:30:00 AM 22.54 72.57201 0.488 7.79 6 7.65
7/13/2021 4:45:00 AM 22.5 72.5 0.488 7.78 6.04 7.62
7/13/2021 5:00:00 AM 22.43 72.374 0.488 7.78 6.13 7.63
7/13/2021 5:15:00 AM 22.36 72.248 0.489 7.78 6.4 7.65
7/13/2021 5:30:00 AM 22.32 72.176 0.489 7.79 6.49 7.65
7/13/2021 5:45:00 AM 22.29 72.122 0.489 7.78 6.36 7.6
7/13/2021 6:00:00 AM 22.23 72.014 0.49 7.78 6.9 7.55
7/13/2021 6:15:00 AM 22.2 71.96 0.49 7.78 6.69 7.7
7/13/2021 6:30:00 AM 22.14 71.852 0.489 7.77 6.29 7.72
7/13/2021 6:45:00 AM 22.04 71.672 0.483 7.78 6.84 7.88
7/13/2021 7:00:00 AM 21.97 71.546 0.48 7.79 6.61 7.85
7/13/2021 7:15:00 AM 21.92 71.456 0.479 7.79 6.31 7.86
7/13/2021 7:30:00 AM 21.9 71.42 0.479 7.78 6.45 7.83
7/13/2021 7:45:00 AM 21.86 71.348 0.48 7.79 6.65 7.84
7/13/2021 8:00:00 AM 21.86 71.348 0.479 7.81 6.53 7.89
7/13/2021 8:15:00 AM 21.86 71.348 0.479 7.81 6.58 7.95
7/13/2021 8:30:00 AM 21.88 71.384 0.48 7.83 6.22 8.13
7/13/2021 8:45:00 AM 21.92 71.456 0.48 7.84 6.16 8.28
7/13/2021 9:00:00 AM 21.93 71.474 0.48 7.86 6.66 8.41
7/13/2021 9:15:00 AM 21.95 71.51 0.479 7.88 8.9 8.28
7/13/2021 9:30:00 AM 22.01 71.618 0.479 7.88 6.62 8.34
7/13/2021 9:45:00 AM 22.11 71.798 0.479 7.89 6.29 8.35
7/13/2021 10:00:00 AM 22.2 71.96 0.479 7.89 6.14 8.46
7/13/2021 10:15:00 AM 22.31 72.158 0.478 7.91 6.09 8.44
7/13/2021 10:30:00 AM 22.51 72.518 0.477 7.92 6.26 8.59
7/13/2021 10:45:00 AM 22.64 72.752 0.477 7.95 6.14 8.54
7/13/2021 11:00:00 AM 22.87 73.166 0.477 7.97 6.05 8.69
7/13/2021 11:15:00 AM 23.04 73.472 0.478 7.99 6.01 8.82
7/13/2021 11:30:00 AM 23.12 73.616 0.479 7.99 6.18 8.66
7/13/2021 11:45:00 AM 23.15 73.67 0.481 8 6.22 8.73
7/13/2021 12:00:00 PM 23.24 73.832 0.483 8 6.27 8.72
7/13/2021 12:15:00 PM 23.39 74.102 0.485 8 6.09 8.75
7/13/2021 12:30:00 PM 23.64 74.552 0.486 8 5.94 8.74
7/13/2021 12:45:00 PM 23.88 74.984 0.487 8.02 5.9 8.77
7/13/2021 1:00:00 PM 24.23 75.614 0.488 8.02 5.64 8.87
7/13/2021 1:15:00 PM 24.2 75.56 0.488 8.04 6.13 8.68
7/13/2021 1:30:00 PM 24.29 75.722 0.489 8.04 5.97 8.63
7/13/2021 1:45:00 PM 24.54 76.172 0.489 8.04 5.95 8.73
7/13/2021 2:00:00 PM 24.58 76.244 0.49 8.04 6.07 8.7
7/13/2021 2:15:00 PM 24.8 76.64 0.49 8.05 6.65 8.75
7/13/2021 2:30:00 PM 25.11 77.198 0.49 8.05 6.67 8.62
7/13/2021 2:45:00 PM 25.07 77.126 0.49 8.06 7.44 8.6
7/13/2021 3:00:00 PM 25.09 77.162 0.49 8.06 6.38 8.6
7/13/2021 3:15:00 PM 25.35 77.63 0.489 8.07 6.98 8.68
7/13/2021 3:30:00 PM 25.63 78.134 0.488 8.08 7.04 8.63
7/13/2021 3:45:00 PM 25.58 78.044 0.487 8.09 6.54 8.58
7/13/2021 4:00:00 PM 25.55 77.99 0.486 8.08 7.08 8.43
7/13/2021 4:15:00 PM 25.6 78.08 0.486 8.08 6.95 8.4
7/13/2021 4:30:00 PM 25.65 78.17 0.485 8.09 7.88 8.41
7/13/2021 4:45:00 PM 25.81 78.458 0.485 8.09 7.61 8.46
7/13/2021 5:00:00 PM 25.83 78.494 0.486 8.1 6.86 8.43
7/13/2021 5:15:00 PM 25.73 78.314 0.486 8.1 7.34 8.34
7/13/2021 5:30:00 PM 25.57 78.026 0.486 8.1 7.69 8.17
7/13/2021 5:45:00 PM 25.38 77.684 0.481 8.08 6.86 8.03
7/13/2021 6:00:00 PM 25.16 77.288 0.481 8.05 6.8 7.89
7/13/2021 6:15:00 PM 24.98 76.964 0.48 8.02 7.83 7.77
7/13/2021 6:30:00 PM 24.76 76.568 0.473 8 7.26 7.76
7/13/2021 6:45:00 PM 24.63 76.334 0.473 7.98 7.53 7.62
7/13/2021 7:00:00 PM 24.51 76.118 0.47 7.96 8.03 7.67
7/13/2021 7:15:00 PM 24.38 75.884 0.472 7.94 8.04 7.63
7/13/2021 7:30:00 PM 24.33 75.794 0.475 7.94 7.99 7.6
7/13/2021 7:45:00 PM 24.25 75.65 0.475 7.93 8.22 7.56
7/13/2021 8:00:00 PM 24.21 75.578 0.474 7.93 8.25 7.54
7/13/2021 8:15:00 PM 24.17 75.506 0.449 7.93 7.7 7.54
7/13/2021 8:30:00 PM 24.13 75.434 0.474 7.92 8.13 7.57
7/13/2021 8:45:00 PM 24.09 75.362 0.474 7.92 8.38 7.57
7/13/2021 9:00:00 PM 24.03 75.254 0.473 7.91 8.83 7.53
7/13/2021 9:15:00 PM 23.95 75.11 0.472 7.91 9.47 7.58
7/13/2021 9:30:00 PM 23.88 74.984 0.472 7.9 9.1 7.58
7/13/2021 9:45:00 PM 23.77 74.786 0.471 7.91 9.61 7.48
7/13/2021 10:00:00 PM 23.7 74.66 0.471 7.9 10.06 7.58
7/13/2021 10:15:00 PM 23.59 74.462 0.471 7.89 9.05 7.59
7/13/2021 10:30:00 PM 23.51 74.318 0.471 7.89 9.46 7.57
7/13/2021 10:45:00 PM 23.42 74.156 0.471 7.88 8.05 7.61
7/13/2021 11:00:00 PM 23.34 74.012 0.471 7.88 8.37 7.54
7/13/2021 11:15:00 PM 23.26 73.868 0.471 7.88 8.39 7.57
7/13/2021 11:30:00 PM 23.19 73.742 0.471 7.88 9.87 7.66
7/13/2021 11:45:00 PM 23.11 73.598 0.471 7.87 10.69 7.56
7/14/2021 12:00:00 AM 23.04 73.472 0.47 7.87 9.48 7.72
7/14/2021 12:15:00 AM 22.96 73.328 0.47 7.87 11.06 7.65
7/14/2021 12:30:00 AM 22.89 73.202 0.469 7.87 9.84 7.76
7/14/2021 12:45:00 AM 22.83 73.094 0.466 7.86 14.3 7.73
7/14/2021 1:00:00 AM 22.77 72.986 0.464 7.86 13.6 7.77
7/14/2021 1:15:00 AM 22.72 72.896 0.462 7.86 13.86 7.77
7/14/2021 1:30:00 AM 22.66 72.788 0.459 7.85 14.48 7.78
7/14/2021 1:45:00 AM 22.6 72.68 0.456 7.85 13.34 7.8
7/14/2021 2:00:00 AM 22.57 72.626 0.453 7.85 13.06 7.8
7/14/2021 2:15:00 AM 22.52 72.536 0.451 7.85 14.03 7.81
7/14/2021 2:30:00 AM 22.48 72.464 0.449 7.84 10.93 7.76
7/14/2021 2:45:00 AM 22.44 72.392 0.448 7.83 12.41 7.71
7/14/2021 3:00:00 AM 22.36 72.248 0.447 7.83 13.86 7.81
7/14/2021 3:15:00 AM 22.31 72.158 0.446 7.83 13.53 7.8
7/14/2021 3:30:00 AM 22.25 72.05 0.446 7.82 12.34 7.84
7/14/2021 3:45:00 AM 22.2 71.96 0.445 7.82 12.53 7.84
7/14/2021 4:00:00 AM 22.14 71.852 0.445 7.82 13.41 7.86
7/14/2021 4:15:00 AM 22.08 71.744 0.445 7.81 10.73 7.87
7/14/2021 4:30:00 AM 22 71.6 0.445 7.82 12.58 7.88
7/14/2021 4:45:00 AM 21.95 71.51 0.445 7.81 12.72 7.88
7/14/2021 5:00:00 AM 21.9 71.42 0.445 7.81 13.11 7.92
7/14/2021 5:15:00 AM 21.87 71.366 0.445 7.81 12.05 7.9
7/14/2021 5:30:00 AM 21.79 71.222 0.446 7.81 12.11 7.91
7/14/2021 5:45:00 AM 21.75 71.15 0.447 7.81 11.74 7.94
7/14/2021 6:00:00 AM 21.7 71.06 0.447 7.81 12 7.94
7/14/2021 6:15:00 AM 21.64 70.952 0.448 7.8 10.37 7.95
7/14/2021 6:30:00 AM 21.58 70.844 0.449 7.8 11.08 7.99
7/14/2021 6:45:00 AM 21.55 70.79 0.449 7.8 10.23 8
7/14/2021 7:00:00 AM 21.53 70.754 0.45 7.81 10.23 8.04
7/14/2021 7:15:00 AM 21.51 70.718 0.45 7.8 10.62 8.07
7/14/2021 7:30:00 AM 21.49 70.682 0.451 7.81 9.96 8.06
7/14/2021 7:45:00 AM 21.47 70.646 0.451 7.81 9.43 8.04
7/14/2021 8:00:00 AM 21.45 70.61 0.45 7.81 9.58 8.15
7/14/2021 8:15:00 AM 21.45 70.61 0.45 7.81 8.94 8.18
7/14/2021 8:30:00 AM 21.47 70.646 0.449 7.82 8.91 8.23
7/14/2021 8:45:00 AM 21.5 70.7 0.448 7.82 9.22 8.27
7/14/2021 9:00:00 AM 21.53 70.754 0.447 7.83 8.25 8.33
7/14/2021 9:15:00 AM 21.56 70.808 0.446 7.84 9.34 8.34
7/14/2021 9:30:00 AM 21.6 70.88 0.445 7.86 8.29 8.47
7/14/2021 9:45:00 AM 21.6 70.88 0.443 7.87 8.73 8.47
7/14/2021 10:00:00 AM 21.64 70.952 0.442 7.88 8.72 8.51
7/14/2021 10:15:00 AM 21.7 71.06 0.441 7.89 9 8.57
7/14/2021 10:30:00 AM 21.73 71.114 0.44 7.9 8.37 8.59
7/14/2021 10:45:00 AM 21.77 71.186 0.439 7.91 8.79 8.56
7/14/2021 11:00:00 AM 21.89 71.402 0.438 7.92 8.39 8.63
7/14/2021 11:15:00 AM 22.1 71.78 0.437 7.93 8.59 8.71
7/14/2021 11:30:00 AM 22.17 71.906 0.436 7.95 8.41 8.78
7/14/2021 11:45:00 AM 22.24 72.032 0.435 7.97 8.48 8.87
7/14/2021 12:00:00 PM 22.46 72.42799 0.434 7.98 7.82 8.81
7/14/2021 12:15:00 PM 22.49 72.482 0.433 7.99 7.41 8.87
7/14/2021 12:30:00 PM 22.48 72.464 0.43 8 7.68 8.88
7/14/2021 12:45:00 PM 22.55 72.59 0.43 8 7.9 8.86
7/14/2021 1:00:00 PM 22.59 72.662 0.429 8.01 8.62 8.82
7/14/2021 1:15:00 PM 22.78 73.004 0.429 8.01 8.32 8.89
7/14/2021 1:30:00 PM 22.84 73.112 0.428 8.03 8.14 8.93
7/14/2021 1:45:00 PM 23.07 73.526 0.427 8.05 8.1 8.95
7/14/2021 2:00:00 PM 23.12 73.616 0.427 8.05 7.42 8.95
7/14/2021 2:15:00 PM 23.44 74.192 0.426 8.06 7.79 9.06
7/14/2021 2:30:00 PM 23.52 74.336 0.425 8.07 7.63 8.99
7/14/2021 2:45:00 PM 23.76 74.768 0.425 8.09 7.61 9.05
7/14/2021 3:00:00 PM 24.05 75.29 0.424 8.1 8.03 9.08
7/14/2021 3:15:00 PM 23.88 74.984 0.424 8.11 7.41 8.92
7/14/2021 3:30:00 PM 23.68 74.624 0.424 8.11 7.53 8.73
7/14/2021 3:45:00 PM 23.58 74.444 0.424 8.09 7.69 8.61
7/14/2021 4:00:00 PM 23.59 74.462 0.424 8.07 7.5 8.5
7/14/2021 4:15:00 PM 23.79 74.82201 0.424 8.07 7.37 8.57
7/14/2021 4:30:00 PM 23.97 75.146 0.424 8.07 7.6 8.69
7/14/2021 4:45:00 PM 24.08 75.344 0.425 8.09 7.42 8.75
7/14/2021 5:00:00 PM 24.15 75.47 0.425 8.08 7.33 8.64
7/14/2021 5:15:00 PM 24.16 75.488 0.425 8.1 7.59 8.76
7/14/2021 5:30:00 PM 24.23 75.614 0.426 8.11 6.73 8.69
7/14/2021 5:45:00 PM 24.22 75.596 0.426 8.11 7.51 8.65
7/14/2021 6:00:00 PM 24.22 75.596 0.426 8.12 7.2 8.53
7/14/2021 6:15:00 PM 24.17 75.506 0.426 8.11 7.51 8.51
7/14/2021 6:30:00 PM 24.16 75.488 0.426 8.1 7.23 8.38
7/14/2021 6:45:00 PM 24.07 75.326 0.427 8.09 7.45 8.37
7/14/2021 7:00:00 PM 23.99 75.182 0.427 8.08 6.87 8.3
7/14/2021 7:15:00 PM 23.88 74.984 0.427 8.07 7.45 8.21
7/14/2021 7:30:00 PM 23.75 74.75 0.427 8.05 7.05 8.12
7/14/2021 7:45:00 PM 23.68 74.624 0.428 8.03 6.95 8.05
7/14/2021 8:00:00 PM 23.57 74.426 0.428 8 6.8 8.01
7/14/2021 8:15:00 PM 23.45 74.21 0.427 7.99 7.35 7.93
7/14/2021 8:30:00 PM 23.37 74.066 0.428 7.97 7.78 7.9
7/14/2021 8:45:00 PM 23.3 73.94 0.428 7.95 7.08 7.84
7/14/2021 9:00:00 PM 23.24 73.832 0.428 7.93 7.12 7.72
7/14/2021 9:15:00 PM 23.17 73.706 0.428 7.92 7.64 7.75
7/14/2021 9:30:00 PM 23.11 73.598 0.428 7.91 6.51 7.76
7/14/2021 9:45:00 PM 23.04 73.472 0.428 7.9 7.78 7.71
7/14/2021 10:00:00 PM 22.99 73.382 0.428 7.89 7.43 7.73
7/14/2021 10:15:00 PM 22.92 73.256 0.416 7.88 7.74 7.74
7/14/2021 10:30:00 PM 22.89 73.202 0.428 7.88 7.17 7.71
7/14/2021 10:45:00 PM 22.84 73.112 0.427 7.87 7.16 7.55
7/14/2021 11:00:00 PM 22.77 72.986 0.428 7.86 6.8 7.73
7/14/2021 11:15:00 PM 22.68 72.824 0.428 7.86 7.56 7.76
7/14/2021 11:30:00 PM 22.64 72.752 0.428 7.86 7.35 7.71
7/14/2021 11:45:00 PM 22.55 72.59 0.428 7.85 7.54 7.77
7/15/2021 12:00:00 AM 22.49 72.482 0.428 7.85 8.17 7.78
7/15/2021 12:15:00 AM 22.39 72.302 0.428 7.84 10.62 7.79
7/15/2021 12:30:00 AM 22.33 72.194 0.428 7.84 7.91 7.8
7/15/2021 12:45:00 AM 22.28 72.104 0.428 7.84 7.32 7.79
7/15/2021 1:00:00 AM 22.21 71.978 0.428 7.83 7.95 7.8
7/15/2021 1:15:00 AM 22.15 71.87 0.428 7.83 8 7.76
7/15/2021 1:30:00 AM 22.06 71.708 0.428 7.83 7.66 7.82
7/15/2021 1:45:00 AM 22 71.6 0.428 7.83 7.16 7.87
7/15/2021 2:00:00 AM 21.92 71.456 0.427 7.82 8.37 7.86
7/15/2021 2:15:00 AM 21.85 71.33 0.427 7.81 8.63 7.83
7/15/2021 2:30:00 AM 21.78 71.204 0.427 7.8 8.17 7.84
7/15/2021 2:45:00 AM 21.71 71.078 0.427 7.77 8.43 7.88
7/15/2021 3:00:00 AM 21.64 70.952 0.427 7.77 8.55 7.85
7/15/2021 3:15:00 AM 21.59 70.862 0.427 7.81 7.86 7.91
7/15/2021 3:30:00 AM 21.54 70.772 0.427 7.78 8.19 7.91
7/15/2021 3:45:00 AM 21.5 70.7 0.427 7.81 7.29 7.94
7/15/2021 4:00:00 AM 21.45 70.61 0.426 7.8 7.85 7.95
7/15/2021 4:15:00 AM 21.4 70.52 0.426 7.8 7.16 7.93
7/15/2021 4:30:00 AM 21.34 70.412 0.426 7.8 7.23 7.93
7/15/2021 4:45:00 AM 21.29 70.32201 0.426 7.81 7.83 7.9
7/15/2021 5:00:00 AM 21.25 70.25 0.426 7.81 7.35 7.97
7/15/2021 5:15:00 AM 21.19 70.142 0.426 7.8 8.29 7.98
7/15/2021 5:30:00 AM 21.14 70.052 0.426 7.8 7.65 7.97
7/15/2021 5:45:00 AM 21.11 69.998 0.426 7.8 7.25 8.01
7/15/2021 6:00:00 AM 21.06 69.908 0.426 7.8 8.04 8.01
7/15/2021 6:15:00 AM 21.04 69.872 0.426 7.8 7.82 7.99
7/15/2021 6:30:00 AM 20.99 69.782 0.426 7.8 7.4 8
7/15/2021 6:45:00 AM 20.97 69.746 0.426 7.8 7.69 8.01
7/15/2021 7:00:00 AM 20.95 69.71 0.426 7.8 7.05 8.09
7/15/2021 7:15:00 AM 20.92 69.656 0.426 7.81 6.75 8.13
7/15/2021 7:30:00 AM 20.92 69.656 0.425 7.82 6.79 8.2
7/15/2021 7:45:00 AM 20.91 69.638 0.426 7.82 7.13 8.27
7/15/2021 8:00:00 AM 20.92 69.656 0.425 7.83 6.97 8.33
7/15/2021 8:15:00 AM 20.93 69.674 0.425 7.84 7.34 8.4
7/15/2021 8:30:00 AM 20.97 69.746 0.425 7.86 7 8.47
7/15/2021 8:45:00 AM 20.98 69.764 0.425 7.87 6.93 8.54
7/15/2021 9:00:00 AM 21.02 69.836 0.425 7.88 7.49 8.61
7/15/2021 9:15:00 AM 21.06 69.908 0.425 7.89 7.62 8.68
7/15/2021 9:30:00 AM 21.14 70.052 0.424 7.91 7.06 8.78
7/15/2021 9:45:00 AM 21.2 70.16 0.424 7.91 7.56 8.84
7/15/2021 10:00:00 AM 21.27 70.286 0.424 7.92 7.8 8.88
7/15/2021 10:15:00 AM 21.4 70.52 0.424 7.95 7.09 8.97
7/15/2021 10:30:00 AM 21.57 70.826 0.424 7.97 6.41 9.01
7/15/2021 10:45:00 AM 21.75 71.15 0.424 7.99 6.58 9.02
7/15/2021 11:00:00 AM 21.94 71.492 0.423 8.01 7.01 9.05
7/15/2021 11:15:00 AM 22.16 71.888 0.423 8.03 6.51 9.11
7/15/2021 11:30:00 AM 22.23 72.014 0.423 8.04 6.63 9.13
7/15/2021 11:45:00 AM 22.23 72.014 0.422 8.07 6.5 9.05
7/15/2021 12:00:00 PM 22.33 72.194 0.422 8.06 6.42 9
7/15/2021 12:15:00 PM 22.4 72.32 0.422 8.07 6.41 9.03
7/15/2021 12:30:00 PM 22.4 72.32 0.422 8.07 6.17 9
7/15/2021 12:45:00 PM 22.73 72.914 0.421 8.08 6.57 9.06
7/15/2021 1:00:00 PM 22.98 73.364 0.42 8.1 6.18 9.12
7/15/2021 1:15:00 PM 23.26 73.868 0.419 8.12 6.1 9.19
7/15/2021 1:30:00 PM 23.48 74.264 0.419 8.13 6.13 9.24
7/15/2021 1:45:00 PM 23.46 74.228 0.417 8.16 6.42 9.22
7/15/2021 2:00:00 PM 23.51 74.318 0.416 8.17 6.48 9.21
7/15/2021 2:15:00 PM 23.67 74.606 0.415 8.17 6.14 9.26
7/15/2021 2:30:00 PM 23.7 74.66 0.414 8.18 6.02 9.2
7/15/2021 2:45:00 PM 23.68 74.624 0.414 8.19 6.28 9.1
7/15/2021 3:00:00 PM 23.82 74.876 0.413 8.21 5.92 9.15
7/15/2021 3:15:00 PM 23.97 75.146 0.412 8.2 6.21 9.14
7/15/2021 3:30:00 PM 24.19 75.542 0.412 8.22 5.86 9.1
7/15/2021 3:45:00 PM 24.16 75.488 0.411 8.23 6.23 9.11
7/15/2021 4:00:00 PM 24.21 75.578 0.41 8.23 6.2 9.08
7/15/2021 4:15:00 PM 24.18 75.524 0.41 8.24 6.49 9
7/15/2021 4:30:00 PM 24.31 75.758 0.409 8.23 6.06 8.96
7/15/2021 4:45:00 PM 24.4 75.92 0.409 8.24 7.21 8.95
7/15/2021 5:00:00 PM 24.47 76.046 0.408 8.24 6.51 8.89
7/15/2021 5:15:00 PM 24.47 76.046 0.408 8.24 6.13 8.79
7/15/2021 5:30:00 PM 24.54 76.172 0.408 8.23 6.05 8.75
7/15/2021 5:45:00 PM 24.51 76.118 0.407 8.22 6.1 8.65
7/15/2021 6:00:00 PM 24.56 76.208 0.407 8.22 6.31 8.6
7/15/2021 6:15:00 PM 24.49 76.082 0.406 8.21 6.48 8.53
7/15/2021 6:30:00 PM 24.48 76.064 0.406 8.2 5.81 8.45
7/15/2021 6:45:00 PM 24.41 75.938 0.406 8.18 6.23 8.35
7/15/2021 7:00:00 PM 24.37 75.866 0.405 8.17 6.21 8.25
7/15/2021 7:15:00 PM 24.33 75.794 0.405 8.15 6.06 8.16
7/15/2021 7:30:00 PM 24.24 75.632 0.405 8.12 6.67 8.09
7/15/2021 7:45:00 PM 24.14 75.452 0.405 8.1 6.27 8.04
7/15/2021 8:00:00 PM 24.04 75.272 0.405 8.07 6.32 7.99
7/15/2021 8:15:00 PM 23.96 75.128 0.405 8.05 6.08 7.91
7/15/2021 8:30:00 PM 23.84 74.912 0.405 8.02 7.83 7.82
7/15/2021 8:45:00 PM 23.75 74.75 0.405 8 6.17 7.74
7/15/2021 9:00:00 PM 23.67 74.606 0.349 7.97 6.65 7.68
7/15/2021 9:15:00 PM 23.59 74.462 0.405 7.96 6.55 7.67
7/15/2021 9:30:00 PM 23.53 74.354 0.405 7.94 6.41 7.62
7/15/2021 9:45:00 PM 23.46 74.228 0.404 7.93 6.67 7.47
7/15/2021 10:00:00 PM 23.4 74.12 0.405 7.92 6.68 7.25
7/15/2021 10:15:00 PM 23.35 74.03 0.406 7.91 6.24 7.61
7/15/2021 10:30:00 PM 23.26 73.868 0.406 7.9 6.83 7.59
7/15/2021 10:45:00 PM 23.18 73.724 0.407 7.89 6.34 7.57
7/15/2021 11:00:00 PM 23.12 73.616 0.407 7.88 6.44 7.57
7/15/2021 11:15:00 PM 23.04 73.472 0.407 7.87 6.65 7.62
7/15/2021 11:30:00 PM 22.96 73.328 0.408 7.86 6.48 7.61
7/15/2021 11:45:00 PM 22.91 73.238 0.408 7.86 6.5 7.6
7/16/2021 12:00:00 AM 22.82 73.076 0.409 7.85 6.42 7.51
7/16/2021 12:15:00 AM 22.74 72.932 0.409 7.85 6.85 7.61
7/16/2021 12:30:00 AM 22.67 72.806 0.41 7.84 6.7 7.62
7/16/2021 12:45:00 AM 22.57 72.626 0.41 7.83 6.65 7.63
7/16/2021 1:00:00 AM 22.49 72.482 0.411 7.84 6.76 7.66
7/16/2021 1:15:00 AM 22.42 72.356 0.412 7.83 6.28 7.65
7/16/2021 1:30:00 AM 22.34 72.212 0.412 7.83 6.33 7.69
7/16/2021 1:45:00 AM 22.26 72.068 0.413 7.82 6.9 7.66
7/16/2021 2:00:00 AM 22.19 71.942 0.414 7.82 6.48 7.7
7/16/2021 2:15:00 AM 22.09 71.762 0.415 7.81 6.4 7.71
7/16/2021 2:30:00 AM 22.04 71.672 0.415 7.81 6.26 7.73
7/16/2021 2:45:00 AM 21.96 71.528 0.416 7.8 6.46 7.66
7/16/2021 3:00:00 AM 21.86 71.348 0.417 7.8 7.31 7.75
7/16/2021 3:15:00 AM 21.78 71.204 0.418 7.8 6.44 7.77
7/16/2021 3:30:00 AM 21.71 71.078 0.418 7.8 6.33 7.81
7/16/2021 3:45:00 AM 21.62 70.916 0.419 7.8 6.63 7.77
7/16/2021 4:00:00 AM 21.57 70.826 0.42 7.8 6.61 7.76
7/16/2021 4:15:00 AM 21.48 70.664 0.421 7.79 7.01 7.77
7/16/2021 4:30:00 AM 21.42 70.556 0.422 7.79 6.57 7.83
7/16/2021 4:45:00 AM 21.38 70.484 0.422 7.79 6.76 7.72
7/16/2021 5:00:00 AM 21.3 70.34 0.423 7.79 6.98 7.82
7/16/2021 5:15:00 AM 21.24 70.232 0.421 7.78 7.4 7.63
7/16/2021 5:30:00 AM 21.19 70.142 0.424 7.77 6.76 7.7
7/16/2021 5:45:00 AM 21.15 70.07 0.425 7.78 6.9 7.8
7/16/2021 6:00:00 AM 21.1 69.98 0.426 7.77 6.96 7.93
7/16/2021 6:15:00 AM 21.04 69.872 0.426 7.77 6.76 7.9
7/16/2021 6:30:00 AM 20.97 69.746 0.427 7.77 7.17 7.91
7/16/2021 6:45:00 AM 20.94 69.692 0.428 7.77 6.96 7.87
7/16/2021 7:00:00 AM 20.88 69.584 0.429 7.78 7.54 8.01
7/16/2021 7:15:00 AM 20.84 69.512 0.429 7.79 6.7 8.06
7/16/2021 7:30:00 AM 20.83 69.494 0.43 7.79 6.82 8.12
7/16/2021 7:45:00 AM 20.84 69.512 0.43 7.8 6.75 8.16
7/16/2021 8:00:00 AM 20.86 69.548 0.431 7.8 6.64 8.25
7/16/2021 8:15:00 AM 20.85 69.53 0.431 7.81 6.55 8.25
7/16/2021 8:30:00 AM 20.86 69.548 0.432 7.81 7.01 8.31
7/16/2021 8:45:00 AM 20.88 69.584 0.432 7.83 6.49 8.38
7/16/2021 9:00:00 AM 20.96 69.728 0.432 7.84 6.49 8.47
7/16/2021 9:15:00 AM 21.07 69.926 0.433 7.86 6.15 8.57
7/16/2021 9:30:00 AM 21.14 70.052 0.433 7.88 10 8.62
7/16/2021 9:45:00 AM 21.24 70.232 0.434 7.89 6.27 8.71
7/16/2021 10:00:00 AM 21.35 70.43 0.434 7.9 5.9 8.72
7/16/2021 10:15:00 AM 21.45 70.61 0.434 7.93 7.17 8.71
7/16/2021 10:30:00 AM 21.62 70.916 0.434 7.95 6.47 8.92
7/16/2021 10:45:00 AM 21.79 71.222 0.434 7.97 6.02 9.02